<?xml version="1.0" encoding="UTF-8" standalone="no" ?>
<gpx xmlns="http://www.topografix.com/GPX/1/1" xmlns:xsi="http://www.w3.org/2001/XMLSchema-instance" xsi:schemaLocation="http://www.topografix.com/GPX/1/1 http://www.topografix.com/GPX/1/1/gpx.xsd" version="1.1" creator="VisuGPX - https://www.visugpx.com">
  <metadata>
    <name>19 June 2009 - Sophia Antipolis</name>
    <desc><![CDATA[19 June 2009 - Sophia Antipolis
------------------------------------]]></desc>
  </metadata>
  <trk>
    <name><![CDATA[Track 18]]></name>
    <desc><![CDATA[]]></desc>
    <trkseg>
      <trkpt lat="43.62513" lon="7.06163">
        <ele>198</ele>
        <time>2009-06-19T10:10:06Z</time>
      </trkpt>
      <trkpt lat="43.62513" lon="7.06164">
        <ele>201</ele>
        <time>2009-06-19T10:10:08Z</time>
      </trkpt>
      <trkpt lat="43.62517" lon="7.06165">
        <ele>202</ele>
        <time>2009-06-19T10:12:39Z</time>
      </trkpt>
      <trkpt lat="43.62517" lon="7.06166">
        <ele>202</ele>
        <time>2009-06-19T10:12:46Z</time>
      </trkpt>
      <trkpt lat="43.62516" lon="7.06166">
        <ele>202</ele>
        <time>2009-06-19T10:12:48Z</time>
      </trkpt>
      <trkpt lat="43.6252" lon="7.06168">
        <ele>203</ele>
        <time>2009-06-19T10:14:17Z</time>
      </trkpt>
      <trkpt lat="43.62521" lon="7.06168">
        <ele>203</ele>
        <time>2009-06-19T10:14:18Z</time>
      </trkpt>
      <trkpt lat="43.62521" lon="7.06168">
        <ele>203</ele>
        <time>2009-06-19T10:14:18Z</time>
      </trkpt>
      <trkpt lat="43.62516" lon="7.06167">
        <ele>192</ele>
        <time>2009-06-19T10:18:14Z</time>
      </trkpt>
      <trkpt lat="43.62464" lon="7.06111">
        <ele>186</ele>
        <time>2009-06-19T10:18:15Z</time>
      </trkpt>
      <trkpt lat="43.62439" lon="7.06117">
        <ele>189</ele>
        <time>2009-06-19T10:18:19Z</time>
      </trkpt>
      <trkpt lat="43.62436" lon="7.06109">
        <ele>190</ele>
        <time>2009-06-19T10:18:21Z</time>
      </trkpt>
      <trkpt lat="43.62436" lon="7.06098">
        <ele>188</ele>
        <time>2009-06-19T10:18:24Z</time>
      </trkpt>
      <trkpt lat="43.62433" lon="7.06094">
        <ele>187</ele>
        <time>2009-06-19T10:18:26Z</time>
      </trkpt>
      <trkpt lat="43.62423" lon="7.06073">
        <ele>187</ele>
        <time>2009-06-19T10:18:33Z</time>
      </trkpt>
      <trkpt lat="43.62421" lon="7.06057">
        <ele>186</ele>
        <time>2009-06-19T10:18:38Z</time>
      </trkpt>
      <trkpt lat="43.62419" lon="7.06051">
        <ele>186</ele>
        <time>2009-06-19T10:18:40Z</time>
      </trkpt>
      <trkpt lat="43.62402" lon="7.0604">
        <ele>185</ele>
        <time>2009-06-19T10:18:46Z</time>
      </trkpt>
      <trkpt lat="43.62394" lon="7.06033">
        <ele>183</ele>
        <time>2009-06-19T10:18:49Z</time>
      </trkpt>
      <trkpt lat="43.62395" lon="7.06026">
        <ele>183</ele>
        <time>2009-06-19T10:18:50Z</time>
      </trkpt>
      <trkpt lat="43.62395" lon="7.0602">
        <ele>183</ele>
        <time>2009-06-19T10:18:51Z</time>
      </trkpt>
      <trkpt lat="43.62391" lon="7.06007">
        <ele>183</ele>
        <time>2009-06-19T10:18:54Z</time>
      </trkpt>
      <trkpt lat="43.62391" lon="7.06">
        <ele>184</ele>
        <time>2009-06-19T10:18:55Z</time>
      </trkpt>
      <trkpt lat="43.6239" lon="7.05987">
        <ele>184</ele>
        <time>2009-06-19T10:18:59Z</time>
      </trkpt>
      <trkpt lat="43.6239" lon="7.05971">
        <ele>184</ele>
        <time>2009-06-19T10:19:09Z</time>
      </trkpt>
      <trkpt lat="43.62391" lon="7.05972">
        <ele>184</ele>
        <time>2009-06-19T10:19:10Z</time>
      </trkpt>
      <trkpt lat="43.62392" lon="7.05967">
        <ele>186</ele>
        <time>2009-06-19T10:19:15Z</time>
      </trkpt>
      <trkpt lat="43.62391" lon="7.05966">
        <ele>186</ele>
        <time>2009-06-19T10:19:16Z</time>
      </trkpt>
      <trkpt lat="43.62392" lon="7.05954">
        <ele>187</ele>
        <time>2009-06-19T10:19:19Z</time>
      </trkpt>
      <trkpt lat="43.62394" lon="7.05943">
        <ele>187</ele>
        <time>2009-06-19T10:19:21Z</time>
      </trkpt>
      <trkpt lat="43.62394" lon="7.05932">
        <ele>187</ele>
        <time>2009-06-19T10:19:24Z</time>
      </trkpt>
      <trkpt lat="43.62411" lon="7.05886">
        <ele>187</ele>
        <time>2009-06-19T10:19:33Z</time>
      </trkpt>
      <trkpt lat="43.62418" lon="7.05878">
        <ele>187</ele>
        <time>2009-06-19T10:19:34Z</time>
      </trkpt>
      <trkpt lat="43.62423" lon="7.05872">
        <ele>188</ele>
        <time>2009-06-19T10:19:35Z</time>
      </trkpt>
      <trkpt lat="43.62433" lon="7.05853">
        <ele>188</ele>
        <time>2009-06-19T10:19:38Z</time>
      </trkpt>
      <trkpt lat="43.62436" lon="7.05846">
        <ele>188</ele>
        <time>2009-06-19T10:19:39Z</time>
      </trkpt>
      <trkpt lat="43.62439" lon="7.0584">
        <ele>189</ele>
        <time>2009-06-19T10:19:40Z</time>
      </trkpt>
      <trkpt lat="43.62444" lon="7.05823">
        <ele>189</ele>
        <time>2009-06-19T10:19:43Z</time>
      </trkpt>
      <trkpt lat="43.62455" lon="7.0577">
        <ele>187</ele>
        <time>2009-06-19T10:19:48Z</time>
      </trkpt>
      <trkpt lat="43.62458" lon="7.05758">
        <ele>187</ele>
        <time>2009-06-19T10:19:49Z</time>
      </trkpt>
      <trkpt lat="43.62461" lon="7.05747">
        <ele>186</ele>
        <time>2009-06-19T10:19:50Z</time>
      </trkpt>
      <trkpt lat="43.62467" lon="7.05715">
        <ele>185</ele>
        <time>2009-06-19T10:19:52Z</time>
      </trkpt>
      <trkpt lat="43.62463" lon="7.05705">
        <ele>184</ele>
        <time>2009-06-19T10:19:54Z</time>
      </trkpt>
      <trkpt lat="43.62454" lon="7.05692">
        <ele>184</ele>
        <time>2009-06-19T10:19:58Z</time>
      </trkpt>
      <trkpt lat="43.62437" lon="7.05655">
        <ele>184</ele>
        <time>2009-06-19T10:20:07Z</time>
      </trkpt>
      <trkpt lat="43.62434" lon="7.05631">
        <ele>183</ele>
        <time>2009-06-19T10:20:11Z</time>
      </trkpt>
      <trkpt lat="43.62433" lon="7.05619">
        <ele>182</ele>
        <time>2009-06-19T10:20:12Z</time>
      </trkpt>
      <trkpt lat="43.62434" lon="7.056">
        <ele>180</ele>
        <time>2009-06-19T10:20:15Z</time>
      </trkpt>
      <trkpt lat="43.6243" lon="7.0559">
        <ele>180</ele>
        <time>2009-06-19T10:20:19Z</time>
      </trkpt>
      <trkpt lat="43.62424" lon="7.05575">
        <ele>178</ele>
        <time>2009-06-19T10:20:23Z</time>
      </trkpt>
      <trkpt lat="43.62399" lon="7.05536">
        <ele>178</ele>
        <time>2009-06-19T10:20:32Z</time>
      </trkpt>
      <trkpt lat="43.62395" lon="7.05527">
        <ele>178</ele>
        <time>2009-06-19T10:20:33Z</time>
      </trkpt>
      <trkpt lat="43.6239" lon="7.05521">
        <ele>178</ele>
        <time>2009-06-19T10:20:34Z</time>
      </trkpt>
      <trkpt lat="43.62381" lon="7.05512">
        <ele>178</ele>
        <time>2009-06-19T10:20:37Z</time>
      </trkpt>
      <trkpt lat="43.62375" lon="7.05513">
        <ele>177</ele>
        <time>2009-06-19T10:20:38Z</time>
      </trkpt>
      <trkpt lat="43.62368" lon="7.05516">
        <ele>177</ele>
        <time>2009-06-19T10:20:41Z</time>
      </trkpt>
      <trkpt lat="43.62355" lon="7.05524">
        <ele>176</ele>
        <time>2009-06-19T10:20:45Z</time>
      </trkpt>
      <trkpt lat="43.62346" lon="7.05528">
        <ele>175</ele>
        <time>2009-06-19T10:20:48Z</time>
      </trkpt>
      <trkpt lat="43.62329" lon="7.05534">
        <ele>173</ele>
        <time>2009-06-19T10:20:52Z</time>
      </trkpt>
      <trkpt lat="43.62323" lon="7.05537">
        <ele>173</ele>
        <time>2009-06-19T10:20:53Z</time>
      </trkpt>
      <trkpt lat="43.62308" lon="7.05544">
        <ele>172</ele>
        <time>2009-06-19T10:20:56Z</time>
      </trkpt>
      <trkpt lat="43.62302" lon="7.0555">
        <ele>172</ele>
        <time>2009-06-19T10:20:57Z</time>
      </trkpt>
      <trkpt lat="43.62287" lon="7.05563">
        <ele>172</ele>
        <time>2009-06-19T10:21:00Z</time>
      </trkpt>
      <trkpt lat="43.62281" lon="7.05568">
        <ele>172</ele>
        <time>2009-06-19T10:21:01Z</time>
      </trkpt>
      <trkpt lat="43.62252" lon="7.05579">
        <ele>174</ele>
        <time>2009-06-19T10:21:09Z</time>
      </trkpt>
      <trkpt lat="43.62246" lon="7.0557">
        <ele>173</ele>
        <time>2009-06-19T10:21:13Z</time>
      </trkpt>
      <trkpt lat="43.62241" lon="7.05563">
        <ele>171</ele>
        <time>2009-06-19T10:21:17Z</time>
      </trkpt>
      <trkpt lat="43.62232" lon="7.05564">
        <ele>171</ele>
        <time>2009-06-19T10:21:25Z</time>
      </trkpt>
      <trkpt lat="43.62227" lon="7.05565">
        <ele>170</ele>
        <time>2009-06-19T10:21:26Z</time>
      </trkpt>
      <trkpt lat="43.62208" lon="7.05566">
        <ele>170</ele>
        <time>2009-06-19T10:21:34Z</time>
      </trkpt>
      <trkpt lat="43.62202" lon="7.05559">
        <ele>170</ele>
        <time>2009-06-19T10:21:36Z</time>
      </trkpt>
      <trkpt lat="43.62194" lon="7.05555">
        <ele>171</ele>
        <time>2009-06-19T10:21:39Z</time>
      </trkpt>
      <trkpt lat="43.62185" lon="7.05549">
        <ele>171</ele>
        <time>2009-06-19T10:21:41Z</time>
      </trkpt>
      <trkpt lat="43.62173" lon="7.05537">
        <ele>171</ele>
        <time>2009-06-19T10:21:46Z</time>
      </trkpt>
      <trkpt lat="43.62166" lon="7.05527">
        <ele>170</ele>
        <time>2009-06-19T10:21:49Z</time>
      </trkpt>
      <trkpt lat="43.62162" lon="7.05523">
        <ele>170</ele>
        <time>2009-06-19T10:21:50Z</time>
      </trkpt>
      <trkpt lat="43.62153" lon="7.05504">
        <ele>171</ele>
        <time>2009-06-19T10:21:54Z</time>
      </trkpt>
      <trkpt lat="43.62147" lon="7.05498">
        <ele>170</ele>
        <time>2009-06-19T10:21:55Z</time>
      </trkpt>
      <trkpt lat="43.62144" lon="7.05492">
        <ele>170</ele>
        <time>2009-06-19T10:21:56Z</time>
      </trkpt>
      <trkpt lat="43.62139" lon="7.05479">
        <ele>170</ele>
        <time>2009-06-19T10:21:59Z</time>
      </trkpt>
      <trkpt lat="43.62137" lon="7.05473">
        <ele>170</ele>
        <time>2009-06-19T10:22:00Z</time>
      </trkpt>
      <trkpt lat="43.6212" lon="7.05449">
        <ele>173</ele>
        <time>2009-06-19T10:22:09Z</time>
      </trkpt>
      <trkpt lat="43.62115" lon="7.05447">
        <ele>173</ele>
        <time>2009-06-19T10:22:11Z</time>
      </trkpt>
      <trkpt lat="43.62108" lon="7.05448">
        <ele>174</ele>
        <time>2009-06-19T10:22:14Z</time>
      </trkpt>
      <trkpt lat="43.62102" lon="7.05448">
        <ele>175</ele>
        <time>2009-06-19T10:22:15Z</time>
      </trkpt>
      <trkpt lat="43.62093" lon="7.05446">
        <ele>174</ele>
        <time>2009-06-19T10:22:16Z</time>
      </trkpt>
      <trkpt lat="43.62083" lon="7.05445">
        <ele>174</ele>
        <time>2009-06-19T10:22:19Z</time>
      </trkpt>
      <trkpt lat="43.62077" lon="7.0544">
        <ele>175</ele>
        <time>2009-06-19T10:22:21Z</time>
      </trkpt>
      <trkpt lat="43.62072" lon="7.05436">
        <ele>176</ele>
        <time>2009-06-19T10:22:24Z</time>
      </trkpt>
      <trkpt lat="43.62066" lon="7.0543">
        <ele>176</ele>
        <time>2009-06-19T10:22:26Z</time>
      </trkpt>
      <trkpt lat="43.62046" lon="7.05403">
        <ele>174</ele>
        <time>2009-06-19T10:22:34Z</time>
      </trkpt>
      <trkpt lat="43.62044" lon="7.05394">
        <ele>174</ele>
        <time>2009-06-19T10:22:35Z</time>
      </trkpt>
      <trkpt lat="43.62044" lon="7.05384">
        <ele>173</ele>
        <time>2009-06-19T10:22:36Z</time>
      </trkpt>
      <trkpt lat="43.62039" lon="7.05373">
        <ele>173</ele>
        <time>2009-06-19T10:22:39Z</time>
      </trkpt>
      <trkpt lat="43.62041" lon="7.05362">
        <ele>173</ele>
        <time>2009-06-19T10:22:41Z</time>
      </trkpt>
      <trkpt lat="43.62042" lon="7.05338">
        <ele>174</ele>
        <time>2009-06-19T10:22:46Z</time>
      </trkpt>
      <trkpt lat="43.6204" lon="7.05328">
        <ele>176</ele>
        <time>2009-06-19T10:22:49Z</time>
      </trkpt>
      <trkpt lat="43.62038" lon="7.0532">
        <ele>176</ele>
        <time>2009-06-19T10:22:51Z</time>
      </trkpt>
      <trkpt lat="43.62039" lon="7.0531">
        <ele>178</ele>
        <time>2009-06-19T10:22:54Z</time>
      </trkpt>
      <trkpt lat="43.62041" lon="7.05295">
        <ele>178</ele>
        <time>2009-06-19T10:22:56Z</time>
      </trkpt>
      <trkpt lat="43.62044" lon="7.05287">
        <ele>179</ele>
        <time>2009-06-19T10:22:59Z</time>
      </trkpt>
      <trkpt lat="43.62042" lon="7.05278">
        <ele>179</ele>
        <time>2009-06-19T10:23:01Z</time>
      </trkpt>
      <trkpt lat="43.62036" lon="7.05257">
        <ele>176</ele>
        <time>2009-06-19T10:23:09Z</time>
      </trkpt>
      <trkpt lat="43.62037" lon="7.05241">
        <ele>175</ele>
        <time>2009-06-19T10:23:10Z</time>
      </trkpt>
      <trkpt lat="43.62034" lon="7.05227">
        <ele>173</ele>
        <time>2009-06-19T10:23:11Z</time>
      </trkpt>
      <trkpt lat="43.62029" lon="7.05221">
        <ele>171</ele>
        <time>2009-06-19T10:23:12Z</time>
      </trkpt>
      <trkpt lat="43.62023" lon="7.05209">
        <ele>171</ele>
        <time>2009-06-19T10:23:15Z</time>
      </trkpt>
      <trkpt lat="43.62023" lon="7.052">
        <ele>171</ele>
        <time>2009-06-19T10:23:16Z</time>
      </trkpt>
      <trkpt lat="43.62025" lon="7.05194">
        <ele>171</ele>
        <time>2009-06-19T10:23:17Z</time>
      </trkpt>
      <trkpt lat="43.62024" lon="7.05187">
        <ele>170</ele>
        <time>2009-06-19T10:23:18Z</time>
      </trkpt>
      <trkpt lat="43.62026" lon="7.05169">
        <ele>169</ele>
        <time>2009-06-19T10:23:21Z</time>
      </trkpt>
      <trkpt lat="43.62027" lon="7.05158">
        <ele>171</ele>
        <time>2009-06-19T10:23:23Z</time>
      </trkpt>
      <trkpt lat="43.62026" lon="7.05139">
        <ele>171</ele>
        <time>2009-06-19T10:23:31Z</time>
      </trkpt>
      <trkpt lat="43.62022" lon="7.05131">
        <ele>171</ele>
        <time>2009-06-19T10:23:32Z</time>
      </trkpt>
      <trkpt lat="43.62023" lon="7.05111">
        <ele>169</ele>
        <time>2009-06-19T10:23:34Z</time>
      </trkpt>
      <trkpt lat="43.62023" lon="7.05097">
        <ele>169</ele>
        <time>2009-06-19T10:23:37Z</time>
      </trkpt>
      <trkpt lat="43.62024" lon="7.05089">
        <ele>170</ele>
        <time>2009-06-19T10:23:38Z</time>
      </trkpt>
      <trkpt lat="43.62028" lon="7.05076">
        <ele>170</ele>
        <time>2009-06-19T10:23:39Z</time>
      </trkpt>
      <trkpt lat="43.62029" lon="7.05038">
        <ele>169</ele>
        <time>2009-06-19T10:23:44Z</time>
      </trkpt>
      <trkpt lat="43.62037" lon="7.0502">
        <ele>171</ele>
        <time>2009-06-19T10:23:47Z</time>
      </trkpt>
      <trkpt lat="43.62042" lon="7.05014">
        <ele>171</ele>
        <time>2009-06-19T10:23:48Z</time>
      </trkpt>
      <trkpt lat="43.62046" lon="7.05008">
        <ele>172</ele>
        <time>2009-06-19T10:23:49Z</time>
      </trkpt>
      <trkpt lat="43.62049" lon="7.04999">
        <ele>170</ele>
        <time>2009-06-19T10:23:52Z</time>
      </trkpt>
      <trkpt lat="43.62046" lon="7.04992">
        <ele>169</ele>
        <time>2009-06-19T10:23:53Z</time>
      </trkpt>
      <trkpt lat="43.62045" lon="7.04985">
        <ele>169</ele>
        <time>2009-06-19T10:23:54Z</time>
      </trkpt>
      <trkpt lat="43.62043" lon="7.04968">
        <ele>170</ele>
        <time>2009-06-19T10:23:56Z</time>
      </trkpt>
      <trkpt lat="43.62037" lon="7.04953">
        <ele>171</ele>
        <time>2009-06-19T10:23:58Z</time>
      </trkpt>
      <trkpt lat="43.62017" lon="7.04924">
        <ele>172</ele>
        <time>2009-06-19T10:24:07Z</time>
      </trkpt>
      <trkpt lat="43.62009" lon="7.0492">
        <ele>171</ele>
        <time>2009-06-19T10:24:08Z</time>
      </trkpt>
      <trkpt lat="43.62006" lon="7.04916">
        <ele>171</ele>
        <time>2009-06-19T10:24:09Z</time>
      </trkpt>
      <trkpt lat="43.62001" lon="7.0491">
        <ele>171</ele>
        <time>2009-06-19T10:24:11Z</time>
      </trkpt>
      <trkpt lat="43.61992" lon="7.04907">
        <ele>171</ele>
        <time>2009-06-19T10:24:13Z</time>
      </trkpt>
      <trkpt lat="43.61982" lon="7.04904">
        <ele>171</ele>
        <time>2009-06-19T10:24:16Z</time>
      </trkpt>
      <trkpt lat="43.61972" lon="7.04905">
        <ele>171</ele>
        <time>2009-06-19T10:24:18Z</time>
      </trkpt>
      <trkpt lat="43.6196" lon="7.04906">
        <ele>171</ele>
        <time>2009-06-19T10:24:21Z</time>
      </trkpt>
      <trkpt lat="43.61952" lon="7.049">
        <ele>172</ele>
        <time>2009-06-19T10:24:23Z</time>
      </trkpt>
      <trkpt lat="43.61929" lon="7.04891">
        <ele>174</ele>
        <time>2009-06-19T10:24:31Z</time>
      </trkpt>
      <trkpt lat="43.61932" lon="7.04878">
        <ele>176</ele>
        <time>2009-06-19T10:24:33Z</time>
      </trkpt>
      <trkpt lat="43.61928" lon="7.0487">
        <ele>176</ele>
        <time>2009-06-19T10:24:34Z</time>
      </trkpt>
      <trkpt lat="43.61924" lon="7.04859">
        <ele>177</ele>
        <time>2009-06-19T10:24:37Z</time>
      </trkpt>
      <trkpt lat="43.6192" lon="7.04853">
        <ele>177</ele>
        <time>2009-06-19T10:24:38Z</time>
      </trkpt>
      <trkpt lat="43.61898" lon="7.04835">
        <ele>177</ele>
        <time>2009-06-19T10:24:44Z</time>
      </trkpt>
      <trkpt lat="43.61895" lon="7.04821">
        <ele>176</ele>
        <time>2009-06-19T10:24:47Z</time>
      </trkpt>
      <trkpt lat="43.61887" lon="7.04812">
        <ele>175</ele>
        <time>2009-06-19T10:24:49Z</time>
      </trkpt>
      <trkpt lat="43.61879" lon="7.04802">
        <ele>174</ele>
        <time>2009-06-19T10:24:52Z</time>
      </trkpt>
      <trkpt lat="43.6188" lon="7.04796">
        <ele>173</ele>
        <time>2009-06-19T10:24:53Z</time>
      </trkpt>
      <trkpt lat="43.6188" lon="7.04786">
        <ele>173</ele>
        <time>2009-06-19T10:24:54Z</time>
      </trkpt>
      <trkpt lat="43.61881" lon="7.04779">
        <ele>173</ele>
        <time>2009-06-19T10:24:57Z</time>
      </trkpt>
      <trkpt lat="43.61881" lon="7.04767">
        <ele>175</ele>
        <time>2009-06-19T10:24:59Z</time>
      </trkpt>
      <trkpt lat="43.61865" lon="7.04734">
        <ele>176</ele>
        <time>2009-06-19T10:25:07Z</time>
      </trkpt>
      <trkpt lat="43.6186" lon="7.04725">
        <ele>177</ele>
        <time>2009-06-19T10:25:08Z</time>
      </trkpt>
      <trkpt lat="43.61856" lon="7.04721">
        <ele>178</ele>
        <time>2009-06-19T10:25:09Z</time>
      </trkpt>
      <trkpt lat="43.61849" lon="7.04716">
        <ele>180</ele>
        <time>2009-06-19T10:25:12Z</time>
      </trkpt>
      <trkpt lat="43.61838" lon="7.0471">
        <ele>180</ele>
        <time>2009-06-19T10:25:13Z</time>
      </trkpt>
      <trkpt lat="43.61832" lon="7.04703">
        <ele>179</ele>
        <time>2009-06-19T10:25:14Z</time>
      </trkpt>
      <trkpt lat="43.61829" lon="7.04692">
        <ele>182</ele>
        <time>2009-06-19T10:25:17Z</time>
      </trkpt>
      <trkpt lat="43.61821" lon="7.04682">
        <ele>183</ele>
        <time>2009-06-19T10:25:19Z</time>
      </trkpt>
      <trkpt lat="43.61817" lon="7.04676">
        <ele>184</ele>
        <time>2009-06-19T10:25:22Z</time>
      </trkpt>
      <trkpt lat="43.61815" lon="7.04668">
        <ele>185</ele>
        <time>2009-06-19T10:25:23Z</time>
      </trkpt>
      <trkpt lat="43.61812" lon="7.04661">
        <ele>186</ele>
        <time>2009-06-19T10:25:24Z</time>
      </trkpt>
      <trkpt lat="43.61802" lon="7.04637">
        <ele>190</ele>
        <time>2009-06-19T10:25:32Z</time>
      </trkpt>
      <trkpt lat="43.61798" lon="7.04631">
        <ele>192</ele>
        <time>2009-06-19T10:25:33Z</time>
      </trkpt>
      <trkpt lat="43.61791" lon="7.04627">
        <ele>194</ele>
        <time>2009-06-19T10:25:34Z</time>
      </trkpt>
      <trkpt lat="43.61785" lon="7.0462">
        <ele>194</ele>
        <time>2009-06-19T10:25:35Z</time>
      </trkpt>
      <trkpt lat="43.61784" lon="7.04607">
        <ele>198</ele>
        <time>2009-06-19T10:25:38Z</time>
      </trkpt>
      <trkpt lat="43.61803" lon="7.04567">
        <ele>194</ele>
        <time>2009-06-19T10:25:39Z</time>
      </trkpt>
      <trkpt lat="43.61802" lon="7.04558">
        <ele>193</ele>
        <time>2009-06-19T10:25:40Z</time>
      </trkpt>
      <trkpt lat="43.61805" lon="7.04534">
        <ele>193</ele>
        <time>2009-06-19T10:25:45Z</time>
      </trkpt>
      <trkpt lat="43.61798" lon="7.04529">
        <ele>190</ele>
        <time>2009-06-19T10:25:50Z</time>
      </trkpt>
      <trkpt lat="43.61793" lon="7.0453">
        <ele>191</ele>
        <time>2009-06-19T10:25:59Z</time>
      </trkpt>
      <trkpt lat="43.6179" lon="7.04526">
        <ele>191</ele>
        <time>2009-06-19T10:26:08Z</time>
      </trkpt>
      <trkpt lat="43.61784" lon="7.04527">
        <ele>193</ele>
        <time>2009-06-19T10:26:10Z</time>
      </trkpt>
      <trkpt lat="43.61779" lon="7.04531">
        <ele>192</ele>
        <time>2009-06-19T10:26:16Z</time>
      </trkpt>
      <trkpt lat="43.61775" lon="7.04527">
        <ele>192</ele>
        <time>2009-06-19T10:26:20Z</time>
      </trkpt>
      <trkpt lat="43.61775" lon="7.04527">
        <ele>191</ele>
        <time>2009-06-19T10:26:29Z</time>
      </trkpt>
      <trkpt lat="43.6177" lon="7.04527">
        <ele>189</ele>
        <time>2009-06-19T10:26:39Z</time>
      </trkpt>
      <trkpt lat="43.6177" lon="7.04527">
        <ele>189</ele>
        <time>2009-06-19T10:26:40Z</time>
      </trkpt>
      <trkpt lat="43.61766" lon="7.04521">
        <ele>191</ele>
        <time>2009-06-19T10:26:47Z</time>
      </trkpt>
      <trkpt lat="43.61763" lon="7.04515">
        <ele>192</ele>
        <time>2009-06-19T10:26:52Z</time>
      </trkpt>
      <trkpt lat="43.61758" lon="7.04509">
        <ele>190</ele>
        <time>2009-06-19T10:27:07Z</time>
      </trkpt>
      <trkpt lat="43.61754" lon="7.04503">
        <ele>188</ele>
        <time>2009-06-19T10:27:12Z</time>
      </trkpt>
      <trkpt lat="43.61734" lon="7.04431">
        <ele>191</ele>
        <time>2009-06-19T10:27:16Z</time>
      </trkpt>
      <trkpt lat="43.61726" lon="7.04421">
        <ele>191</ele>
        <time>2009-06-19T10:27:17Z</time>
      </trkpt>
      <trkpt lat="43.61721" lon="7.04414">
        <ele>191</ele>
        <time>2009-06-19T10:27:18Z</time>
      </trkpt>
      <trkpt lat="43.61715" lon="7.04387">
        <ele>196</ele>
        <time>2009-06-19T10:27:26Z</time>
      </trkpt>
      <trkpt lat="43.61694" lon="7.04372">
        <ele>195</ele>
        <time>2009-06-19T10:27:27Z</time>
      </trkpt>
      <trkpt lat="43.61678" lon="7.04362">
        <ele>193</ele>
        <time>2009-06-19T10:27:28Z</time>
      </trkpt>
      <trkpt lat="43.61669" lon="7.04356">
        <ele>193</ele>
        <time>2009-06-19T10:27:29Z</time>
      </trkpt>
      <trkpt lat="43.61659" lon="7.04343">
        <ele>195</ele>
        <time>2009-06-19T10:27:32Z</time>
      </trkpt>
      <trkpt lat="43.61654" lon="7.04331">
        <ele>191</ele>
        <time>2009-06-19T10:27:33Z</time>
      </trkpt>
      <trkpt lat="43.61649" lon="7.04324">
        <ele>191</ele>
        <time>2009-06-19T10:27:34Z</time>
      </trkpt>
      <trkpt lat="43.61645" lon="7.0432">
        <ele>192</ele>
        <time>2009-06-19T10:27:35Z</time>
      </trkpt>
      <trkpt lat="43.6164" lon="7.04298">
        <ele>190</ele>
        <time>2009-06-19T10:27:38Z</time>
      </trkpt>
      <trkpt lat="43.61638" lon="7.0429">
        <ele>188</ele>
        <time>2009-06-19T10:27:39Z</time>
      </trkpt>
      <trkpt lat="43.61634" lon="7.04282">
        <ele>186</ele>
        <time>2009-06-19T10:27:40Z</time>
      </trkpt>
      <trkpt lat="43.61623" lon="7.04239">
        <ele>180</ele>
        <time>2009-06-19T10:27:46Z</time>
      </trkpt>
      <trkpt lat="43.61624" lon="7.04215">
        <ele>178</ele>
        <time>2009-06-19T10:27:48Z</time>
      </trkpt>
      <trkpt lat="43.61627" lon="7.04204">
        <ele>177</ele>
        <time>2009-06-19T10:27:49Z</time>
      </trkpt>
      <trkpt lat="43.61627" lon="7.04197">
        <ele>177</ele>
        <time>2009-06-19T10:27:50Z</time>
      </trkpt>
      <trkpt lat="43.61625" lon="7.04184">
        <ele>177</ele>
        <time>2009-06-19T10:27:54Z</time>
      </trkpt>
      <trkpt lat="43.61621" lon="7.04171">
        <ele>177</ele>
        <time>2009-06-19T10:27:58Z</time>
      </trkpt>
      <trkpt lat="43.61602" lon="7.04151">
        <ele>178</ele>
        <time>2009-06-19T10:28:07Z</time>
      </trkpt>
      <trkpt lat="43.61597" lon="7.04155">
        <ele>178</ele>
        <time>2009-06-19T10:28:08Z</time>
      </trkpt>
      <trkpt lat="43.6159" lon="7.04154">
        <ele>177</ele>
        <time>2009-06-19T10:28:11Z</time>
      </trkpt>
      <trkpt lat="43.61584" lon="7.04156">
        <ele>176</ele>
        <time>2009-06-19T10:28:12Z</time>
      </trkpt>
      <trkpt lat="43.61574" lon="7.04157">
        <ele>177</ele>
        <time>2009-06-19T10:28:15Z</time>
      </trkpt>
      <trkpt lat="43.6157" lon="7.04159">
        <ele>176</ele>
        <time>2009-06-19T10:28:16Z</time>
      </trkpt>
      <trkpt lat="43.61563" lon="7.04168">
        <ele>176</ele>
        <time>2009-06-19T10:28:19Z</time>
      </trkpt>
      <trkpt lat="43.61555" lon="7.04175">
        <ele>175</ele>
        <time>2009-06-19T10:28:23Z</time>
      </trkpt>
      <trkpt lat="43.61544" lon="7.04189">
        <ele>174</ele>
        <time>2009-06-19T10:28:32Z</time>
      </trkpt>
      <trkpt lat="43.61539" lon="7.04187">
        <ele>174</ele>
        <time>2009-06-19T10:28:34Z</time>
      </trkpt>
      <trkpt lat="43.61537" lon="7.04181">
        <ele>175</ele>
        <time>2009-06-19T10:28:39Z</time>
      </trkpt>
      <trkpt lat="43.61509" lon="7.0419">
        <ele>172</ele>
        <time>2009-06-19T10:28:45Z</time>
      </trkpt>
      <trkpt lat="43.61503" lon="7.04198">
        <ele>172</ele>
        <time>2009-06-19T10:28:48Z</time>
      </trkpt>
      <trkpt lat="43.61496" lon="7.04209">
        <ele>172</ele>
        <time>2009-06-19T10:28:52Z</time>
      </trkpt>
      <trkpt lat="43.61491" lon="7.04218">
        <ele>172</ele>
        <time>2009-06-19T10:28:56Z</time>
      </trkpt>
      <trkpt lat="43.6148" lon="7.04235">
        <ele>173</ele>
        <time>2009-06-19T10:29:09Z</time>
      </trkpt>
      <trkpt lat="43.61475" lon="7.04244">
        <ele>174</ele>
        <time>2009-06-19T10:29:13Z</time>
      </trkpt>
      <trkpt lat="43.61465" lon="7.04251">
        <ele>174</ele>
        <time>2009-06-19T10:29:17Z</time>
      </trkpt>
      <trkpt lat="43.61457" lon="7.04263">
        <ele>174</ele>
        <time>2009-06-19T10:29:21Z</time>
      </trkpt>
      <trkpt lat="43.61455" lon="7.04269">
        <ele>174</ele>
        <time>2009-06-19T10:29:25Z</time>
      </trkpt>
      <trkpt lat="43.61447" lon="7.04274">
        <ele>176</ele>
        <time>2009-06-19T10:29:34Z</time>
      </trkpt>
      <trkpt lat="43.61442" lon="7.04277">
        <ele>179</ele>
        <time>2009-06-19T10:29:39Z</time>
      </trkpt>
      <trkpt lat="43.61437" lon="7.04279">
        <ele>180</ele>
        <time>2009-06-19T10:29:49Z</time>
      </trkpt>
      <trkpt lat="43.61433" lon="7.04283">
        <ele>181</ele>
        <time>2009-06-19T10:29:54Z</time>
      </trkpt>
      <trkpt lat="43.61433" lon="7.04283">
        <ele>181</ele>
        <time>2009-06-19T10:29:57Z</time>
      </trkpt>
      <trkpt lat="43.6143" lon="7.04282">
        <ele>181</ele>
        <time>2009-06-19T10:30:09Z</time>
      </trkpt>
      <trkpt lat="43.61429" lon="7.0428">
        <ele>181</ele>
        <time>2009-06-19T10:30:12Z</time>
      </trkpt>
      <trkpt lat="43.61425" lon="7.04276">
        <ele>184</ele>
        <time>2009-06-19T10:30:17Z</time>
      </trkpt>
      <trkpt lat="43.61425" lon="7.04275">
        <ele>184</ele>
        <time>2009-06-19T10:30:18Z</time>
      </trkpt>
      <trkpt lat="43.61424" lon="7.0427">
        <ele>183</ele>
        <time>2009-06-19T10:30:32Z</time>
      </trkpt>
      <trkpt lat="43.61423" lon="7.04269">
        <ele>183</ele>
        <time>2009-06-19T10:30:33Z</time>
      </trkpt>
      <trkpt lat="43.6142" lon="7.04262">
        <ele>181</ele>
        <time>2009-06-19T10:30:44Z</time>
      </trkpt>
      <trkpt lat="43.61419" lon="7.04255">
        <ele>182</ele>
        <time>2009-06-19T10:30:49Z</time>
      </trkpt>
      <trkpt lat="43.61421" lon="7.04249">
        <ele>183</ele>
        <time>2009-06-19T10:30:54Z</time>
      </trkpt>
      <trkpt lat="43.61423" lon="7.04241">
        <ele>183</ele>
        <time>2009-06-19T10:30:58Z</time>
      </trkpt>
      <trkpt lat="43.61423" lon="7.04158">
        <ele>188</ele>
        <time>2009-06-19T10:31:08Z</time>
      </trkpt>
      <trkpt lat="43.61419" lon="7.04146">
        <ele>188</ele>
        <time>2009-06-19T10:31:09Z</time>
      </trkpt>
      <trkpt lat="43.61409" lon="7.04125">
        <ele>184</ele>
        <time>2009-06-19T10:31:12Z</time>
      </trkpt>
      <trkpt lat="43.61404" lon="7.04117">
        <ele>183</ele>
        <time>2009-06-19T10:31:13Z</time>
      </trkpt>
      <trkpt lat="43.61403" lon="7.04109">
        <ele>182</ele>
        <time>2009-06-19T10:31:14Z</time>
      </trkpt>
      <trkpt lat="43.61405" lon="7.04093">
        <ele>183</ele>
        <time>2009-06-19T10:31:17Z</time>
      </trkpt>
      <trkpt lat="43.61403" lon="7.04083">
        <ele>184</ele>
        <time>2009-06-19T10:31:18Z</time>
      </trkpt>
      <trkpt lat="43.61401" lon="7.04073">
        <ele>184</ele>
        <time>2009-06-19T10:31:19Z</time>
      </trkpt>
      <trkpt lat="43.61398" lon="7.04063">
        <ele>184</ele>
        <time>2009-06-19T10:31:22Z</time>
      </trkpt>
      <trkpt lat="43.61394" lon="7.04055">
        <ele>185</ele>
        <time>2009-06-19T10:31:24Z</time>
      </trkpt>
      <trkpt lat="43.61388" lon="7.04032">
        <ele>187</ele>
        <time>2009-06-19T10:31:32Z</time>
      </trkpt>
      <trkpt lat="43.61379" lon="7.04025">
        <ele>188</ele>
        <time>2009-06-19T10:31:33Z</time>
      </trkpt>
      <trkpt lat="43.61372" lon="7.04013">
        <ele>190</ele>
        <time>2009-06-19T10:31:37Z</time>
      </trkpt>
      <trkpt lat="43.61368" lon="7.04006">
        <ele>189</ele>
        <time>2009-06-19T10:31:38Z</time>
      </trkpt>
      <trkpt lat="43.61366" lon="7.04">
        <ele>191</ele>
        <time>2009-06-19T10:31:39Z</time>
      </trkpt>
      <trkpt lat="43.6136" lon="7.03979">
        <ele>194</ele>
        <time>2009-06-19T10:31:44Z</time>
      </trkpt>
      <trkpt lat="43.61359" lon="7.03969">
        <ele>196</ele>
        <time>2009-06-19T10:31:47Z</time>
      </trkpt>
      <trkpt lat="43.61354" lon="7.03963">
        <ele>195</ele>
        <time>2009-06-19T10:31:48Z</time>
      </trkpt>
      <trkpt lat="43.61349" lon="7.03959">
        <ele>194</ele>
        <time>2009-06-19T10:31:49Z</time>
      </trkpt>
      <trkpt lat="43.61343" lon="7.03951">
        <ele>195</ele>
        <time>2009-06-19T10:31:51Z</time>
      </trkpt>
      <trkpt lat="43.61338" lon="7.03946">
        <ele>195</ele>
        <time>2009-06-19T10:31:52Z</time>
      </trkpt>
      <trkpt lat="43.61333" lon="7.03941">
        <ele>197</ele>
        <time>2009-06-19T10:31:53Z</time>
      </trkpt>
      <trkpt lat="43.61329" lon="7.03936">
        <ele>196</ele>
        <time>2009-06-19T10:31:56Z</time>
      </trkpt>
      <trkpt lat="43.61323" lon="7.03933">
        <ele>198</ele>
        <time>2009-06-19T10:31:57Z</time>
      </trkpt>
      <trkpt lat="43.61317" lon="7.03927">
        <ele>201</ele>
        <time>2009-06-19T10:31:58Z</time>
      </trkpt>
      <trkpt lat="43.61314" lon="7.03907">
        <ele>205</ele>
        <time>2009-06-19T10:32:06Z</time>
      </trkpt>
      <trkpt lat="43.6131" lon="7.039">
        <ele>206</ele>
        <time>2009-06-19T10:32:07Z</time>
      </trkpt>
      <trkpt lat="43.61306" lon="7.03895">
        <ele>205</ele>
        <time>2009-06-19T10:32:08Z</time>
      </trkpt>
      <trkpt lat="43.61297" lon="7.03886">
        <ele>203</ele>
        <time>2009-06-19T10:32:11Z</time>
      </trkpt>
      <trkpt lat="43.61293" lon="7.0388">
        <ele>203</ele>
        <time>2009-06-19T10:32:12Z</time>
      </trkpt>
      <trkpt lat="43.61295" lon="7.03867">
        <ele>203</ele>
        <time>2009-06-19T10:32:13Z</time>
      </trkpt>
      <trkpt lat="43.61291" lon="7.03856">
        <ele>205</ele>
        <time>2009-06-19T10:32:16Z</time>
      </trkpt>
      <trkpt lat="43.61288" lon="7.03845">
        <ele>204</ele>
        <time>2009-06-19T10:32:18Z</time>
      </trkpt>
      <trkpt lat="43.61286" lon="7.03831">
        <ele>202</ele>
        <time>2009-06-19T10:32:21Z</time>
      </trkpt>
      <trkpt lat="43.61283" lon="7.0382">
        <ele>202</ele>
        <time>2009-06-19T10:32:23Z</time>
      </trkpt>
      <trkpt lat="43.6126" lon="7.03801">
        <ele>195</ele>
        <time>2009-06-19T10:32:31Z</time>
      </trkpt>
      <trkpt lat="43.61251" lon="7.03797">
        <ele>194</ele>
        <time>2009-06-19T10:32:32Z</time>
      </trkpt>
      <trkpt lat="43.61244" lon="7.03794">
        <ele>193</ele>
        <time>2009-06-19T10:32:33Z</time>
      </trkpt>
      <trkpt lat="43.61236" lon="7.0379">
        <ele>192</ele>
        <time>2009-06-19T10:32:37Z</time>
      </trkpt>
      <trkpt lat="43.61232" lon="7.03788">
        <ele>192</ele>
        <time>2009-06-19T10:32:38Z</time>
      </trkpt>
      <trkpt lat="43.6122" lon="7.03784">
        <ele>191</ele>
        <time>2009-06-19T10:32:41Z</time>
      </trkpt>
      <trkpt lat="43.6121" lon="7.03776">
        <ele>193</ele>
        <time>2009-06-19T10:32:45Z</time>
      </trkpt>
      <trkpt lat="43.61206" lon="7.03772">
        <ele>193</ele>
        <time>2009-06-19T10:32:48Z</time>
      </trkpt>
      <trkpt lat="43.61202" lon="7.03769">
        <ele>192</ele>
        <time>2009-06-19T10:32:49Z</time>
      </trkpt>
      <trkpt lat="43.61198" lon="7.03763">
        <ele>193</ele>
        <time>2009-06-19T10:32:53Z</time>
      </trkpt>
      <trkpt lat="43.61195" lon="7.03757">
        <ele>193</ele>
        <time>2009-06-19T10:32:56Z</time>
      </trkpt>
      <trkpt lat="43.61188" lon="7.03748">
        <ele>195</ele>
        <time>2009-06-19T10:33:00Z</time>
      </trkpt>
      <trkpt lat="43.61183" lon="7.03726">
        <ele>197</ele>
        <time>2009-06-19T10:33:09Z</time>
      </trkpt>
      <trkpt lat="43.61179" lon="7.0372">
        <ele>196</ele>
        <time>2009-06-19T10:33:10Z</time>
      </trkpt>
      <trkpt lat="43.61173" lon="7.03708">
        <ele>198</ele>
        <time>2009-06-19T10:33:14Z</time>
      </trkpt>
      <trkpt lat="43.61167" lon="7.037">
        <ele>197</ele>
        <time>2009-06-19T10:33:16Z</time>
      </trkpt>
      <trkpt lat="43.61161" lon="7.03692">
        <ele>198</ele>
        <time>2009-06-19T10:33:20Z</time>
      </trkpt>
      <trkpt lat="43.61157" lon="7.03688">
        <ele>198</ele>
        <time>2009-06-19T10:33:21Z</time>
      </trkpt>
      <trkpt lat="43.61155" lon="7.0368">
        <ele>200</ele>
        <time>2009-06-19T10:33:24Z</time>
      </trkpt>
      <trkpt lat="43.61149" lon="7.03676">
        <ele>200</ele>
        <time>2009-06-19T10:33:25Z</time>
      </trkpt>
      <trkpt lat="43.61144" lon="7.03671">
        <ele>201</ele>
        <time>2009-06-19T10:33:26Z</time>
      </trkpt>
      <trkpt lat="43.61129" lon="7.03655">
        <ele>198</ele>
        <time>2009-06-19T10:33:34Z</time>
      </trkpt>
      <trkpt lat="43.61122" lon="7.03651">
        <ele>198</ele>
        <time>2009-06-19T10:33:35Z</time>
      </trkpt>
      <trkpt lat="43.61114" lon="7.0365">
        <ele>198</ele>
        <time>2009-06-19T10:33:36Z</time>
      </trkpt>
      <trkpt lat="43.61106" lon="7.03648">
        <ele>201</ele>
        <time>2009-06-19T10:33:40Z</time>
      </trkpt>
      <trkpt lat="43.6108" lon="7.03648">
        <ele>201</ele>
        <time>2009-06-19T10:33:46Z</time>
      </trkpt>
      <trkpt lat="43.61074" lon="7.03651">
        <ele>201</ele>
        <time>2009-06-19T10:33:49Z</time>
      </trkpt>
      <trkpt lat="43.61065" lon="7.03654">
        <ele>201</ele>
        <time>2009-06-19T10:33:53Z</time>
      </trkpt>
      <trkpt lat="43.61055" lon="7.03651">
        <ele>200</ele>
        <time>2009-06-19T10:33:57Z</time>
      </trkpt>
      <trkpt lat="43.61048" lon="7.03645">
        <ele>201</ele>
        <time>2009-06-19T10:34:01Z</time>
      </trkpt>
      <trkpt lat="43.61035" lon="7.03636">
        <ele>203</ele>
        <time>2009-06-19T10:34:10Z</time>
      </trkpt>
      <trkpt lat="43.61029" lon="7.03627">
        <ele>204</ele>
        <time>2009-06-19T10:34:12Z</time>
      </trkpt>
      <trkpt lat="43.61022" lon="7.0362">
        <ele>204</ele>
        <time>2009-06-19T10:34:17Z</time>
      </trkpt>
      <trkpt lat="43.61016" lon="7.03613">
        <ele>203</ele>
        <time>2009-06-19T10:34:21Z</time>
      </trkpt>
      <trkpt lat="43.61015" lon="7.03596">
        <ele>204</ele>
        <time>2009-06-19T10:34:25Z</time>
      </trkpt>
      <trkpt lat="43.6101" lon="7.03586">
        <ele>203</ele>
        <time>2009-06-19T10:34:26Z</time>
      </trkpt>
      <trkpt lat="43.61006" lon="7.03579">
        <ele>202</ele>
        <time>2009-06-19T10:34:27Z</time>
      </trkpt>
      <trkpt lat="43.60998" lon="7.0355">
        <ele>205</ele>
        <time>2009-06-19T10:34:35Z</time>
      </trkpt>
      <trkpt lat="43.60991" lon="7.03546">
        <ele>206</ele>
        <time>2009-06-19T10:34:36Z</time>
      </trkpt>
      <trkpt lat="43.60987" lon="7.03541">
        <ele>207</ele>
        <time>2009-06-19T10:34:37Z</time>
      </trkpt>
      <trkpt lat="43.60979" lon="7.03534">
        <ele>208</ele>
        <time>2009-06-19T10:34:40Z</time>
      </trkpt>
      <trkpt lat="43.60981" lon="7.0352">
        <ele>212</ele>
        <time>2009-06-19T10:34:46Z</time>
      </trkpt>
      <trkpt lat="43.60977" lon="7.03513">
        <ele>214</ele>
        <time>2009-06-19T10:34:50Z</time>
      </trkpt>
      <trkpt lat="43.60972" lon="7.03511">
        <ele>215</ele>
        <time>2009-06-19T10:34:51Z</time>
      </trkpt>
      <trkpt lat="43.60966" lon="7.03507">
        <ele>216</ele>
        <time>2009-06-19T10:34:54Z</time>
      </trkpt>
      <trkpt lat="43.6096" lon="7.03504">
        <ele>213</ele>
        <time>2009-06-19T10:34:56Z</time>
      </trkpt>
      <trkpt lat="43.60956" lon="7.0349">
        <ele>214</ele>
        <time>2009-06-19T10:35:04Z</time>
      </trkpt>
      <trkpt lat="43.60951" lon="7.03485">
        <ele>215</ele>
        <time>2009-06-19T10:35:05Z</time>
      </trkpt>
      <trkpt lat="43.60947" lon="7.03481">
        <ele>216</ele>
        <time>2009-06-19T10:35:06Z</time>
      </trkpt>
      <trkpt lat="43.60934" lon="7.03476">
        <ele>211</ele>
        <time>2009-06-19T10:35:07Z</time>
      </trkpt>
      <trkpt lat="43.60924" lon="7.03469">
        <ele>207</ele>
        <time>2009-06-19T10:35:10Z</time>
      </trkpt>
      <trkpt lat="43.60919" lon="7.03467">
        <ele>205</ele>
        <time>2009-06-19T10:35:11Z</time>
      </trkpt>
      <trkpt lat="43.60915" lon="7.03466">
        <ele>205</ele>
        <time>2009-06-19T10:35:12Z</time>
      </trkpt>
      <trkpt lat="43.60908" lon="7.03479">
        <ele>208</ele>
        <time>2009-06-19T10:35:19Z</time>
      </trkpt>
      <trkpt lat="43.60896" lon="7.03503">
        <ele>209</ele>
        <time>2009-06-19T10:35:28Z</time>
      </trkpt>
      <trkpt lat="43.60889" lon="7.03502">
        <ele>210</ele>
        <time>2009-06-19T10:35:30Z</time>
      </trkpt>
      <trkpt lat="43.60881" lon="7.03505">
        <ele>209</ele>
        <time>2009-06-19T10:35:33Z</time>
      </trkpt>
      <trkpt lat="43.60873" lon="7.03504">
        <ele>207</ele>
        <time>2009-06-19T10:35:34Z</time>
      </trkpt>
      <trkpt lat="43.60859" lon="7.03511">
        <ele>206</ele>
        <time>2009-06-19T10:35:38Z</time>
      </trkpt>
      <trkpt lat="43.60834" lon="7.03527">
        <ele>205</ele>
        <time>2009-06-19T10:35:46Z</time>
      </trkpt>
      <trkpt lat="43.60826" lon="7.03533">
        <ele>205</ele>
        <time>2009-06-19T10:35:50Z</time>
      </trkpt>
      <trkpt lat="43.60821" lon="7.03535">
        <ele>203</ele>
        <time>2009-06-19T10:35:51Z</time>
      </trkpt>
      <trkpt lat="43.60815" lon="7.03541">
        <ele>204</ele>
        <time>2009-06-19T10:35:54Z</time>
      </trkpt>
      <trkpt lat="43.60811" lon="7.0355">
        <ele>204</ele>
        <time>2009-06-19T10:35:58Z</time>
      </trkpt>
      <trkpt lat="43.60797" lon="7.03566">
        <ele>204</ele>
        <time>2009-06-19T10:36:07Z</time>
      </trkpt>
      <trkpt lat="43.60788" lon="7.0357">
        <ele>205</ele>
        <time>2009-06-19T10:36:12Z</time>
      </trkpt>
      <trkpt lat="43.60782" lon="7.0357">
        <ele>206</ele>
        <time>2009-06-19T10:36:14Z</time>
      </trkpt>
      <trkpt lat="43.60776" lon="7.0357">
        <ele>206</ele>
        <time>2009-06-19T10:36:17Z</time>
      </trkpt>
      <trkpt lat="43.60772" lon="7.03567">
        <ele>206</ele>
        <time>2009-06-19T10:36:19Z</time>
      </trkpt>
      <trkpt lat="43.60766" lon="7.03563">
        <ele>207</ele>
        <time>2009-06-19T10:36:22Z</time>
      </trkpt>
      <trkpt lat="43.60759" lon="7.03557">
        <ele>207</ele>
        <time>2009-06-19T10:36:24Z</time>
      </trkpt>
      <trkpt lat="43.60754" lon="7.03554">
        <ele>207</ele>
        <time>2009-06-19T10:36:25Z</time>
      </trkpt>
      <trkpt lat="43.60729" lon="7.03535">
        <ele>207</ele>
        <time>2009-06-19T10:36:33Z</time>
      </trkpt>
      <trkpt lat="43.60724" lon="7.03533">
        <ele>208</ele>
        <time>2009-06-19T10:36:34Z</time>
      </trkpt>
      <trkpt lat="43.60718" lon="7.03528">
        <ele>210</ele>
        <time>2009-06-19T10:36:35Z</time>
      </trkpt>
      <trkpt lat="43.60707" lon="7.0352">
        <ele>210</ele>
        <time>2009-06-19T10:36:38Z</time>
      </trkpt>
      <trkpt lat="43.60702" lon="7.03517">
        <ele>211</ele>
        <time>2009-06-19T10:36:39Z</time>
      </trkpt>
      <trkpt lat="43.60689" lon="7.03502">
        <ele>215</ele>
        <time>2009-06-19T10:36:46Z</time>
      </trkpt>
      <trkpt lat="43.60683" lon="7.03496">
        <ele>215</ele>
        <time>2009-06-19T10:36:49Z</time>
      </trkpt>
      <trkpt lat="43.60676" lon="7.03496">
        <ele>216</ele>
        <time>2009-06-19T10:36:51Z</time>
      </trkpt>
      <trkpt lat="43.60671" lon="7.03489">
        <ele>217</ele>
        <time>2009-06-19T10:36:55Z</time>
      </trkpt>
      <trkpt lat="43.60673" lon="7.03482">
        <ele>219</ele>
        <time>2009-06-19T10:36:57Z</time>
      </trkpt>
      <trkpt lat="43.60666" lon="7.03465">
        <ele>218</ele>
        <time>2009-06-19T10:37:06Z</time>
      </trkpt>
      <trkpt lat="43.60672" lon="7.03456">
        <ele>218</ele>
        <time>2009-06-19T10:37:07Z</time>
      </trkpt>
      <trkpt lat="43.60676" lon="7.03448">
        <ele>219</ele>
        <time>2009-06-19T10:37:08Z</time>
      </trkpt>
      <trkpt lat="43.60681" lon="7.03444">
        <ele>218</ele>
        <time>2009-06-19T10:37:09Z</time>
      </trkpt>
      <trkpt lat="43.60684" lon="7.03439">
        <ele>218</ele>
        <time>2009-06-19T10:37:10Z</time>
      </trkpt>
      <trkpt lat="43.6069" lon="7.0343">
        <ele>219</ele>
        <time>2009-06-19T10:37:13Z</time>
      </trkpt>
      <trkpt lat="43.60697" lon="7.03428">
        <ele>219</ele>
        <time>2009-06-19T10:37:14Z</time>
      </trkpt>
      <trkpt lat="43.60702" lon="7.03424">
        <ele>219</ele>
        <time>2009-06-19T10:37:16Z</time>
      </trkpt>
      <trkpt lat="43.6071" lon="7.03422">
        <ele>219</ele>
        <time>2009-06-19T10:37:20Z</time>
      </trkpt>
      <trkpt lat="43.60712" lon="7.03415">
        <ele>218</ele>
        <time>2009-06-19T10:37:21Z</time>
      </trkpt>
      <trkpt lat="43.60712" lon="7.03395">
        <ele>217</ele>
        <time>2009-06-19T10:37:30Z</time>
      </trkpt>
      <trkpt lat="43.60708" lon="7.03387">
        <ele>216</ele>
        <time>2009-06-19T10:37:32Z</time>
      </trkpt>
      <trkpt lat="43.60699" lon="7.03379">
        <ele>215</ele>
        <time>2009-06-19T10:37:36Z</time>
      </trkpt>
      <trkpt lat="43.60696" lon="7.03367">
        <ele>214</ele>
        <time>2009-06-19T10:37:38Z</time>
      </trkpt>
      <trkpt lat="43.60687" lon="7.03349">
        <ele>213</ele>
        <time>2009-06-19T10:37:45Z</time>
      </trkpt>
      <trkpt lat="43.60682" lon="7.03345">
        <ele>214</ele>
        <time>2009-06-19T10:37:48Z</time>
      </trkpt>
      <trkpt lat="43.6068" lon="7.03339">
        <ele>215</ele>
        <time>2009-06-19T10:37:51Z</time>
      </trkpt>
      <trkpt lat="43.60677" lon="7.03333">
        <ele>216</ele>
        <time>2009-06-19T10:37:56Z</time>
      </trkpt>
      <trkpt lat="43.60672" lon="7.03314">
        <ele>216</ele>
        <time>2009-06-19T10:38:06Z</time>
      </trkpt>
      <trkpt lat="43.60675" lon="7.03302">
        <ele>214</ele>
        <time>2009-06-19T10:38:07Z</time>
      </trkpt>
      <trkpt lat="43.60671" lon="7.03293">
        <ele>213</ele>
        <time>2009-06-19T10:38:09Z</time>
      </trkpt>
      <trkpt lat="43.60666" lon="7.03283">
        <ele>213</ele>
        <time>2009-06-19T10:38:13Z</time>
      </trkpt>
      <trkpt lat="43.60667" lon="7.03273">
        <ele>212</ele>
        <time>2009-06-19T10:38:15Z</time>
      </trkpt>
      <trkpt lat="43.60661" lon="7.03262">
        <ele>212</ele>
        <time>2009-06-19T10:38:19Z</time>
      </trkpt>
      <trkpt lat="43.60662" lon="7.03253">
        <ele>212</ele>
        <time>2009-06-19T10:38:21Z</time>
      </trkpt>
      <trkpt lat="43.60648" lon="7.03236">
        <ele>212</ele>
        <time>2009-06-19T10:38:30Z</time>
      </trkpt>
      <trkpt lat="43.60647" lon="7.03229">
        <ele>211</ele>
        <time>2009-06-19T10:38:32Z</time>
      </trkpt>
      <trkpt lat="43.60643" lon="7.0322">
        <ele>210</ele>
        <time>2009-06-19T10:38:34Z</time>
      </trkpt>
      <trkpt lat="43.60639" lon="7.03216">
        <ele>210</ele>
        <time>2009-06-19T10:38:37Z</time>
      </trkpt>
      <trkpt lat="43.60639" lon="7.03209">
        <ele>210</ele>
        <time>2009-06-19T10:38:39Z</time>
      </trkpt>
      <trkpt lat="43.60635" lon="7.03203">
        <ele>209</ele>
        <time>2009-06-19T10:38:41Z</time>
      </trkpt>
      <trkpt lat="43.60629" lon="7.0319">
        <ele>210</ele>
        <time>2009-06-19T10:38:47Z</time>
      </trkpt>
      <trkpt lat="43.60622" lon="7.03183">
        <ele>210</ele>
        <time>2009-06-19T10:38:51Z</time>
      </trkpt>
      <trkpt lat="43.6062" lon="7.03178">
        <ele>210</ele>
        <time>2009-06-19T10:38:53Z</time>
      </trkpt>
      <trkpt lat="43.60614" lon="7.03166">
        <ele>208</ele>
        <time>2009-06-19T10:38:57Z</time>
      </trkpt>
      <trkpt lat="43.60605" lon="7.0316">
        <ele>208</ele>
        <time>2009-06-19T10:38:59Z</time>
      </trkpt>
      <trkpt lat="43.6059" lon="7.03142">
        <ele>207</ele>
        <time>2009-06-19T10:39:08Z</time>
      </trkpt>
      <trkpt lat="43.60588" lon="7.03132">
        <ele>207</ele>
        <time>2009-06-19T10:39:10Z</time>
      </trkpt>
      <trkpt lat="43.60587" lon="7.03124">
        <ele>206</ele>
        <time>2009-06-19T10:39:12Z</time>
      </trkpt>
      <trkpt lat="43.60581" lon="7.03119">
        <ele>207</ele>
        <time>2009-06-19T10:39:15Z</time>
      </trkpt>
      <trkpt lat="43.60574" lon="7.03116">
        <ele>207</ele>
        <time>2009-06-19T10:39:17Z</time>
      </trkpt>
      <trkpt lat="43.60568" lon="7.03107">
        <ele>207</ele>
        <time>2009-06-19T10:39:21Z</time>
      </trkpt>
      <trkpt lat="43.60561" lon="7.03104">
        <ele>207</ele>
        <time>2009-06-19T10:39:24Z</time>
      </trkpt>
      <trkpt lat="43.60552" lon="7.03096">
        <ele>207</ele>
        <time>2009-06-19T10:39:32Z</time>
      </trkpt>
      <trkpt lat="43.60559" lon="7.03097">
        <ele>217</ele>
        <time>2009-06-19T10:39:48Z</time>
      </trkpt>
      <trkpt lat="43.60559" lon="7.03097">
        <ele>217</ele>
        <time>2009-06-19T10:39:49Z</time>
      </trkpt>
      <trkpt lat="43.60558" lon="7.03092">
        <ele>217</ele>
        <time>2009-06-19T10:39:58Z</time>
      </trkpt>
      <trkpt lat="43.60558" lon="7.03091">
        <ele>217</ele>
        <time>2009-06-19T10:39:59Z</time>
      </trkpt>
      <trkpt lat="43.60551" lon="7.0308">
        <ele>217</ele>
        <time>2009-06-19T10:40:08Z</time>
      </trkpt>
      <trkpt lat="43.60545" lon="7.0308">
        <ele>218</ele>
        <time>2009-06-19T10:40:11Z</time>
      </trkpt>
      <trkpt lat="43.60537" lon="7.03077">
        <ele>219</ele>
        <time>2009-06-19T10:40:15Z</time>
      </trkpt>
      <trkpt lat="43.60529" lon="7.03074">
        <ele>219</ele>
        <time>2009-06-19T10:40:17Z</time>
      </trkpt>
      <trkpt lat="43.60522" lon="7.03071">
        <ele>220</ele>
        <time>2009-06-19T10:40:19Z</time>
      </trkpt>
      <trkpt lat="43.60504" lon="7.03065">
        <ele>221</ele>
        <time>2009-06-19T10:40:27Z</time>
      </trkpt>
      <trkpt lat="43.60499" lon="7.03061">
        <ele>222</ele>
        <time>2009-06-19T10:40:29Z</time>
      </trkpt>
      <trkpt lat="43.60491" lon="7.03059">
        <ele>223</ele>
        <time>2009-06-19T10:40:32Z</time>
      </trkpt>
      <trkpt lat="43.60485" lon="7.03054">
        <ele>225</ele>
        <time>2009-06-19T10:40:34Z</time>
      </trkpt>
      <trkpt lat="43.60475" lon="7.03053">
        <ele>224</ele>
        <time>2009-06-19T10:40:37Z</time>
      </trkpt>
      <trkpt lat="43.60462" lon="7.03054">
        <ele>225</ele>
        <time>2009-06-19T10:40:41Z</time>
      </trkpt>
      <trkpt lat="43.60446" lon="7.03061">
        <ele>228</ele>
        <time>2009-06-19T10:40:46Z</time>
      </trkpt>
      <trkpt lat="43.60442" lon="7.03067">
        <ele>228</ele>
        <time>2009-06-19T10:40:49Z</time>
      </trkpt>
      <trkpt lat="43.60437" lon="7.03063">
        <ele>230</ele>
        <time>2009-06-19T10:40:53Z</time>
      </trkpt>
      <trkpt lat="43.60434" lon="7.03053">
        <ele>233</ele>
        <time>2009-06-19T10:40:57Z</time>
      </trkpt>
      <trkpt lat="43.60429" lon="7.03042">
        <ele>234</ele>
        <time>2009-06-19T10:41:01Z</time>
      </trkpt>
      <trkpt lat="43.60424" lon="7.03034">
        <ele>235</ele>
        <time>2009-06-19T10:41:03Z</time>
      </trkpt>
      <trkpt lat="43.60422" lon="7.03016">
        <ele>237</ele>
        <time>2009-06-19T10:41:11Z</time>
      </trkpt>
      <trkpt lat="43.60419" lon="7.03004">
        <ele>236</ele>
        <time>2009-06-19T10:41:13Z</time>
      </trkpt>
      <trkpt lat="43.60414" lon="7.02995">
        <ele>237</ele>
        <time>2009-06-19T10:41:16Z</time>
      </trkpt>
      <trkpt lat="43.60409" lon="7.02989">
        <ele>237</ele>
        <time>2009-06-19T10:41:18Z</time>
      </trkpt>
      <trkpt lat="43.60403" lon="7.02982">
        <ele>237</ele>
        <time>2009-06-19T10:41:21Z</time>
      </trkpt>
      <trkpt lat="43.60396" lon="7.0298">
        <ele>237</ele>
        <time>2009-06-19T10:41:22Z</time>
      </trkpt>
      <trkpt lat="43.60392" lon="7.02978">
        <ele>236</ele>
        <time>2009-06-19T10:41:23Z</time>
      </trkpt>
      <trkpt lat="43.60381" lon="7.02974">
        <ele>237</ele>
        <time>2009-06-19T10:41:26Z</time>
      </trkpt>
      <trkpt lat="43.60377" lon="7.02974">
        <ele>236</ele>
        <time>2009-06-19T10:41:27Z</time>
      </trkpt>
      <trkpt lat="43.60372" lon="7.02972">
        <ele>234</ele>
        <time>2009-06-19T10:41:28Z</time>
      </trkpt>
      <trkpt lat="43.60356" lon="7.02971">
        <ele>235</ele>
        <time>2009-06-19T10:41:36Z</time>
      </trkpt>
      <trkpt lat="43.60349" lon="7.02971">
        <ele>235</ele>
        <time>2009-06-19T10:41:37Z</time>
      </trkpt>
      <trkpt lat="43.60343" lon="7.02971">
        <ele>236</ele>
        <time>2009-06-19T10:41:38Z</time>
      </trkpt>
      <trkpt lat="43.60331" lon="7.02972">
        <ele>238</ele>
        <time>2009-06-19T10:41:46Z</time>
      </trkpt>
      <trkpt lat="43.60326" lon="7.02971">
        <ele>237</ele>
        <time>2009-06-19T10:41:49Z</time>
      </trkpt>
      <trkpt lat="43.60321" lon="7.02971">
        <ele>237</ele>
        <time>2009-06-19T10:41:50Z</time>
      </trkpt>
      <trkpt lat="43.60316" lon="7.02971">
        <ele>238</ele>
        <time>2009-06-19T10:41:53Z</time>
      </trkpt>
      <trkpt lat="43.60306" lon="7.02969">
        <ele>239</ele>
        <time>2009-06-19T10:41:57Z</time>
      </trkpt>
      <trkpt lat="43.603" lon="7.02969">
        <ele>238</ele>
        <time>2009-06-19T10:41:58Z</time>
      </trkpt>
      <trkpt lat="43.60271" lon="7.02962">
        <ele>237</ele>
        <time>2009-06-19T10:42:06Z</time>
      </trkpt>
      <trkpt lat="43.60267" lon="7.02956">
        <ele>240</ele>
        <time>2009-06-19T10:42:07Z</time>
      </trkpt>
      <trkpt lat="43.60256" lon="7.02954">
        <ele>240</ele>
        <time>2009-06-19T10:42:08Z</time>
      </trkpt>
      <trkpt lat="43.60241" lon="7.02957">
        <ele>239</ele>
        <time>2009-06-19T10:42:12Z</time>
      </trkpt>
      <trkpt lat="43.60234" lon="7.02959">
        <ele>239</ele>
        <time>2009-06-19T10:42:13Z</time>
      </trkpt>
      <trkpt lat="43.60218" lon="7.02965">
        <ele>237</ele>
        <time>2009-06-19T10:42:16Z</time>
      </trkpt>
      <trkpt lat="43.60212" lon="7.02971">
        <ele>238</ele>
        <time>2009-06-19T10:42:17Z</time>
      </trkpt>
      <trkpt lat="43.60204" lon="7.02978">
        <ele>238</ele>
        <time>2009-06-19T10:42:20Z</time>
      </trkpt>
      <trkpt lat="43.60195" lon="7.02989">
        <ele>239</ele>
        <time>2009-06-19T10:42:24Z</time>
      </trkpt>
      <trkpt lat="43.60184" lon="7.03016">
        <ele>239</ele>
        <time>2009-06-19T10:42:33Z</time>
      </trkpt>
      <trkpt lat="43.60184" lon="7.03025">
        <ele>239</ele>
        <time>2009-06-19T10:42:37Z</time>
      </trkpt>
      <trkpt lat="43.60187" lon="7.03038">
        <ele>241</ele>
        <time>2009-06-19T10:42:40Z</time>
      </trkpt>
      <trkpt lat="43.60192" lon="7.03063">
        <ele>241</ele>
        <time>2009-06-19T10:42:46Z</time>
      </trkpt>
      <trkpt lat="43.60194" lon="7.03074">
        <ele>242</ele>
        <time>2009-06-19T10:42:49Z</time>
      </trkpt>
      <trkpt lat="43.60192" lon="7.03081">
        <ele>242</ele>
        <time>2009-06-19T10:42:50Z</time>
      </trkpt>
      <trkpt lat="43.60192" lon="7.031">
        <ele>240</ele>
        <time>2009-06-19T10:42:53Z</time>
      </trkpt>
      <trkpt lat="43.60191" lon="7.03113">
        <ele>239</ele>
        <time>2009-06-19T10:42:57Z</time>
      </trkpt>
      <trkpt lat="43.60194" lon="7.03122">
        <ele>240</ele>
        <time>2009-06-19T10:43:01Z</time>
      </trkpt>
      <trkpt lat="43.60192" lon="7.03132">
        <ele>240</ele>
        <time>2009-06-19T10:43:10Z</time>
      </trkpt>
      <trkpt lat="43.60188" lon="7.03126">
        <ele>241</ele>
        <time>2009-06-19T10:43:17Z</time>
      </trkpt>
      <trkpt lat="43.60187" lon="7.0312">
        <ele>242</ele>
        <time>2009-06-19T10:43:21Z</time>
      </trkpt>
      <trkpt lat="43.60188" lon="7.03108">
        <ele>243</ele>
        <time>2009-06-19T10:43:26Z</time>
      </trkpt>
      <trkpt lat="43.60196" lon="7.03088">
        <ele>245</ele>
        <time>2009-06-19T10:43:34Z</time>
      </trkpt>
      <trkpt lat="43.60203" lon="7.03077">
        <ele>248</ele>
        <time>2009-06-19T10:43:36Z</time>
      </trkpt>
      <trkpt lat="43.60208" lon="7.03065">
        <ele>250</ele>
        <time>2009-06-19T10:43:41Z</time>
      </trkpt>
      <trkpt lat="43.60228" lon="7.03041">
        <ele>254</ele>
        <time>2009-06-19T10:43:47Z</time>
      </trkpt>
      <trkpt lat="43.60237" lon="7.03034">
        <ele>255</ele>
        <time>2009-06-19T10:43:51Z</time>
      </trkpt>
      <trkpt lat="43.60244" lon="7.03034">
        <ele>255</ele>
        <time>2009-06-19T10:43:56Z</time>
      </trkpt>
      <trkpt lat="43.60255" lon="7.0303">
        <ele>255</ele>
        <time>2009-06-19T10:44:00Z</time>
      </trkpt>
      <trkpt lat="43.60267" lon="7.03038">
        <ele>255</ele>
        <time>2009-06-19T10:44:09Z</time>
      </trkpt>
      <trkpt lat="43.60271" lon="7.0304">
        <ele>257</ele>
        <time>2009-06-19T10:44:14Z</time>
      </trkpt>
      <trkpt lat="43.60275" lon="7.03049">
        <ele>257</ele>
        <time>2009-06-19T10:44:18Z</time>
      </trkpt>
      <trkpt lat="43.60281" lon="7.03059">
        <ele>257</ele>
        <time>2009-06-19T10:44:22Z</time>
      </trkpt>
      <trkpt lat="43.60282" lon="7.03066">
        <ele>257</ele>
        <time>2009-06-19T10:44:23Z</time>
      </trkpt>
      <trkpt lat="43.60285" lon="7.03074">
        <ele>258</ele>
        <time>2009-06-19T10:44:27Z</time>
      </trkpt>
      <trkpt lat="43.60296" lon="7.03093">
        <ele>258</ele>
        <time>2009-06-19T10:44:35Z</time>
      </trkpt>
      <trkpt lat="43.60303" lon="7.03093">
        <ele>260</ele>
        <time>2009-06-19T10:44:37Z</time>
      </trkpt>
      <trkpt lat="43.60308" lon="7.03095">
        <ele>260</ele>
        <time>2009-06-19T10:44:40Z</time>
      </trkpt>
      <trkpt lat="43.60321" lon="7.03112">
        <ele>261</ele>
        <time>2009-06-19T10:44:46Z</time>
      </trkpt>
      <trkpt lat="43.60327" lon="7.03115">
        <ele>261</ele>
        <time>2009-06-19T10:44:49Z</time>
      </trkpt>
      <trkpt lat="43.60334" lon="7.03121">
        <ele>262</ele>
        <time>2009-06-19T10:44:53Z</time>
      </trkpt>
      <trkpt lat="43.60342" lon="7.03133">
        <ele>262</ele>
        <time>2009-06-19T10:44:57Z</time>
      </trkpt>
      <trkpt lat="43.60347" lon="7.03139">
        <ele>264</ele>
        <time>2009-06-19T10:45:01Z</time>
      </trkpt>
      <trkpt lat="43.60346" lon="7.03146">
        <ele>264</ele>
        <time>2009-06-19T10:45:02Z</time>
      </trkpt>
      <trkpt lat="43.60349" lon="7.0317">
        <ele>265</ele>
        <time>2009-06-19T10:45:10Z</time>
      </trkpt>
      <trkpt lat="43.60349" lon="7.0318">
        <ele>263</ele>
        <time>2009-06-19T10:45:11Z</time>
      </trkpt>
      <trkpt lat="43.6035" lon="7.03187">
        <ele>263</ele>
        <time>2009-06-19T10:45:12Z</time>
      </trkpt>
      <trkpt lat="43.60351" lon="7.03198">
        <ele>263</ele>
        <time>2009-06-19T10:45:15Z</time>
      </trkpt>
      <trkpt lat="43.60352" lon="7.03207">
        <ele>263</ele>
        <time>2009-06-19T10:45:17Z</time>
      </trkpt>
      <trkpt lat="43.60356" lon="7.03212">
        <ele>264</ele>
        <time>2009-06-19T10:45:21Z</time>
      </trkpt>
      <trkpt lat="43.60358" lon="7.03219">
        <ele>265</ele>
        <time>2009-06-19T10:45:26Z</time>
      </trkpt>
      <trkpt lat="43.60359" lon="7.03227">
        <ele>265</ele>
        <time>2009-06-19T10:45:34Z</time>
      </trkpt>
      <trkpt lat="43.60366" lon="7.03237">
        <ele>266</ele>
        <time>2009-06-19T10:45:39Z</time>
      </trkpt>
      <trkpt lat="43.60373" lon="7.03244">
        <ele>267</ele>
        <time>2009-06-19T10:45:41Z</time>
      </trkpt>
      <trkpt lat="43.60379" lon="7.03251">
        <ele>270</ele>
        <time>2009-06-19T10:45:44Z</time>
      </trkpt>
      <trkpt lat="43.60379" lon="7.03259">
        <ele>271</ele>
        <time>2009-06-19T10:45:48Z</time>
      </trkpt>
      <trkpt lat="43.60377" lon="7.03266">
        <ele>272</ele>
        <time>2009-06-19T10:45:49Z</time>
      </trkpt>
      <trkpt lat="43.60379" lon="7.03288">
        <ele>271</ele>
        <time>2009-06-19T10:45:53Z</time>
      </trkpt>
      <trkpt lat="43.60379" lon="7.03295">
        <ele>272</ele>
        <time>2009-06-19T10:45:56Z</time>
      </trkpt>
      <trkpt lat="43.60381" lon="7.03303">
        <ele>272</ele>
        <time>2009-06-19T10:46:00Z</time>
      </trkpt>
      <trkpt lat="43.60386" lon="7.03328">
        <ele>271</ele>
        <time>2009-06-19T10:46:09Z</time>
      </trkpt>
      <trkpt lat="43.60388" lon="7.03335">
        <ele>271</ele>
        <time>2009-06-19T10:46:11Z</time>
      </trkpt>
      <trkpt lat="43.60389" lon="7.03341">
        <ele>271</ele>
        <time>2009-06-19T10:46:20Z</time>
      </trkpt>
      <trkpt lat="43.6039" lon="7.03341">
        <ele>271</ele>
        <time>2009-06-19T10:46:35Z</time>
      </trkpt>
      <trkpt lat="43.6039" lon="7.03335">
        <ele>272</ele>
        <time>2009-06-19T10:46:51Z</time>
      </trkpt>
      <trkpt lat="43.60391" lon="7.03334">
        <ele>272</ele>
        <time>2009-06-19T10:46:52Z</time>
      </trkpt>
      <trkpt lat="43.60392" lon="7.03335">
        <ele>272</ele>
        <time>2009-06-19T10:46:57Z</time>
      </trkpt>
      <trkpt lat="43.60391" lon="7.03339">
        <ele>272</ele>
        <time>2009-06-19T10:47:33Z</time>
      </trkpt>
      <trkpt lat="43.6039" lon="7.03342">
        <ele>271</ele>
        <time>2009-06-19T10:47:34Z</time>
      </trkpt>
      <trkpt lat="43.60388" lon="7.03357">
        <ele>266</ele>
        <time>2009-06-19T10:47:45Z</time>
      </trkpt>
      <trkpt lat="43.60387" lon="7.03365">
        <ele>263</ele>
        <time>2009-06-19T10:47:48Z</time>
      </trkpt>
      <trkpt lat="43.60387" lon="7.03374">
        <ele>257</ele>
        <time>2009-06-19T10:47:52Z</time>
      </trkpt>
      <trkpt lat="43.60386" lon="7.03382">
        <ele>253</ele>
        <time>2009-06-19T10:47:57Z</time>
      </trkpt>
      <trkpt lat="43.60384" lon="7.03389">
        <ele>252</ele>
        <time>2009-06-19T10:47:59Z</time>
      </trkpt>
      <trkpt lat="43.60371" lon="7.03457">
        <ele>262</ele>
        <time>2009-06-19T10:48:08Z</time>
      </trkpt>
      <trkpt lat="43.6036" lon="7.03468">
        <ele>264</ele>
        <time>2009-06-19T10:48:09Z</time>
      </trkpt>
      <trkpt lat="43.60352" lon="7.03472">
        <ele>262</ele>
        <time>2009-06-19T10:48:10Z</time>
      </trkpt>
      <trkpt lat="43.6034" lon="7.03484">
        <ele>260</ele>
        <time>2009-06-19T10:48:13Z</time>
      </trkpt>
      <trkpt lat="43.6033" lon="7.03491">
        <ele>259</ele>
        <time>2009-06-19T10:48:14Z</time>
      </trkpt>
      <trkpt lat="43.60311" lon="7.03506">
        <ele>258</ele>
        <time>2009-06-19T10:48:16Z</time>
      </trkpt>
      <trkpt lat="43.60306" lon="7.03512">
        <ele>259</ele>
        <time>2009-06-19T10:48:17Z</time>
      </trkpt>
      <trkpt lat="43.60296" lon="7.03521">
        <ele>259</ele>
        <time>2009-06-19T10:48:21Z</time>
      </trkpt>
      <trkpt lat="43.60292" lon="7.03525">
        <ele>259</ele>
        <time>2009-06-19T10:48:22Z</time>
      </trkpt>
      <trkpt lat="43.60285" lon="7.03536">
        <ele>258</ele>
        <time>2009-06-19T10:48:25Z</time>
      </trkpt>
      <trkpt lat="43.60271" lon="7.03571">
        <ele>258</ele>
        <time>2009-06-19T10:48:34Z</time>
      </trkpt>
      <trkpt lat="43.6027" lon="7.03584">
        <ele>259</ele>
        <time>2009-06-19T10:48:39Z</time>
      </trkpt>
      <trkpt lat="43.60275" lon="7.03622">
        <ele>258</ele>
        <time>2009-06-19T10:48:46Z</time>
      </trkpt>
      <trkpt lat="43.60276" lon="7.03629">
        <ele>258</ele>
        <time>2009-06-19T10:48:52Z</time>
      </trkpt>
      <trkpt lat="43.60276" lon="7.03639">
        <ele>257</ele>
        <time>2009-06-19T10:48:58Z</time>
      </trkpt>
      <trkpt lat="43.60279" lon="7.03653">
        <ele>258</ele>
        <time>2009-06-19T10:49:06Z</time>
      </trkpt>
      <trkpt lat="43.60282" lon="7.03659">
        <ele>258</ele>
        <time>2009-06-19T10:49:07Z</time>
      </trkpt>
      <trkpt lat="43.60291" lon="7.03668">
        <ele>259</ele>
        <time>2009-06-19T10:49:11Z</time>
      </trkpt>
      <trkpt lat="43.60303" lon="7.03668">
        <ele>259</ele>
        <time>2009-06-19T10:49:15Z</time>
      </trkpt>
      <trkpt lat="43.60308" lon="7.03668">
        <ele>258</ele>
        <time>2009-06-19T10:49:16Z</time>
      </trkpt>
      <trkpt lat="43.60313" lon="7.03674">
        <ele>257</ele>
        <time>2009-06-19T10:49:17Z</time>
      </trkpt>
      <trkpt lat="43.60323" lon="7.0368">
        <ele>257</ele>
        <time>2009-06-19T10:49:20Z</time>
      </trkpt>
      <trkpt lat="43.60332" lon="7.03686">
        <ele>257</ele>
        <time>2009-06-19T10:49:22Z</time>
      </trkpt>
      <trkpt lat="43.60358" lon="7.03701">
        <ele>258</ele>
        <time>2009-06-19T10:49:30Z</time>
      </trkpt>
      <trkpt lat="43.60359" lon="7.0371">
        <ele>259</ele>
        <time>2009-06-19T10:49:32Z</time>
      </trkpt>
      <trkpt lat="43.60366" lon="7.03711">
        <ele>259</ele>
        <time>2009-06-19T10:49:34Z</time>
      </trkpt>
      <trkpt lat="43.60371" lon="7.03715">
        <ele>257</ele>
        <time>2009-06-19T10:49:36Z</time>
      </trkpt>
      <trkpt lat="43.60377" lon="7.03717">
        <ele>256</ele>
        <time>2009-06-19T10:49:40Z</time>
      </trkpt>
      <trkpt lat="43.60397" lon="7.0371">
        <ele>253</ele>
        <time>2009-06-19T10:49:47Z</time>
      </trkpt>
      <trkpt lat="43.60407" lon="7.03709">
        <ele>254</ele>
        <time>2009-06-19T10:49:50Z</time>
      </trkpt>
      <trkpt lat="43.60416" lon="7.03705">
        <ele>254</ele>
        <time>2009-06-19T10:49:52Z</time>
      </trkpt>
      <trkpt lat="43.60425" lon="7.03699">
        <ele>253</ele>
        <time>2009-06-19T10:49:55Z</time>
      </trkpt>
      <trkpt lat="43.60434" lon="7.03698">
        <ele>253</ele>
        <time>2009-06-19T10:49:56Z</time>
      </trkpt>
      <trkpt lat="43.60443" lon="7.03695">
        <ele>254</ele>
        <time>2009-06-19T10:49:57Z</time>
      </trkpt>
      <trkpt lat="43.60453" lon="7.03694">
        <ele>254</ele>
        <time>2009-06-19T10:50:00Z</time>
      </trkpt>
      <trkpt lat="43.60458" lon="7.03694">
        <ele>253</ele>
        <time>2009-06-19T10:50:01Z</time>
      </trkpt>
      <trkpt lat="43.60469" lon="7.03713">
        <ele>254</ele>
        <time>2009-06-19T10:50:09Z</time>
      </trkpt>
      <trkpt lat="43.60468" lon="7.0372">
        <ele>254</ele>
        <time>2009-06-19T10:50:11Z</time>
      </trkpt>
      <trkpt lat="43.60471" lon="7.03731">
        <ele>253</ele>
        <time>2009-06-19T10:50:14Z</time>
      </trkpt>
      <trkpt lat="43.60483" lon="7.03748">
        <ele>255</ele>
        <time>2009-06-19T10:50:18Z</time>
      </trkpt>
      <trkpt lat="43.60485" lon="7.03755">
        <ele>255</ele>
        <time>2009-06-19T10:50:19Z</time>
      </trkpt>
      <trkpt lat="43.60488" lon="7.0377">
        <ele>253</ele>
        <time>2009-06-19T10:50:22Z</time>
      </trkpt>
      <trkpt lat="43.6049" lon="7.03778">
        <ele>252</ele>
        <time>2009-06-19T10:50:23Z</time>
      </trkpt>
      <trkpt lat="43.60498" lon="7.03799">
        <ele>251</ele>
        <time>2009-06-19T10:50:26Z</time>
      </trkpt>
      <trkpt lat="43.60504" lon="7.03805">
        <ele>251</ele>
        <time>2009-06-19T10:50:27Z</time>
      </trkpt>
      <trkpt lat="43.60522" lon="7.03829">
        <ele>253</ele>
        <time>2009-06-19T10:50:35Z</time>
      </trkpt>
      <trkpt lat="43.6053" lon="7.03836">
        <ele>251</ele>
        <time>2009-06-19T10:50:37Z</time>
      </trkpt>
      <trkpt lat="43.6054" lon="7.03841">
        <ele>253</ele>
        <time>2009-06-19T10:50:40Z</time>
      </trkpt>
      <trkpt lat="43.60551" lon="7.03864">
        <ele>251</ele>
        <time>2009-06-19T10:50:45Z</time>
      </trkpt>
      <trkpt lat="43.60553" lon="7.03872">
        <ele>251</ele>
        <time>2009-06-19T10:50:48Z</time>
      </trkpt>
      <trkpt lat="43.60554" lon="7.03882">
        <ele>250</ele>
        <time>2009-06-19T10:50:51Z</time>
      </trkpt>
      <trkpt lat="43.60555" lon="7.03889">
        <ele>248</ele>
        <time>2009-06-19T10:50:52Z</time>
      </trkpt>
      <trkpt lat="43.60557" lon="7.03896">
        <ele>248</ele>
        <time>2009-06-19T10:50:55Z</time>
      </trkpt>
      <trkpt lat="43.60563" lon="7.03908">
        <ele>248</ele>
        <time>2009-06-19T10:50:59Z</time>
      </trkpt>
      <trkpt lat="43.60569" lon="7.03916">
        <ele>247</ele>
        <time>2009-06-19T10:51:01Z</time>
      </trkpt>
      <trkpt lat="43.60579" lon="7.03961">
        <ele>242</ele>
        <time>2009-06-19T10:51:10Z</time>
      </trkpt>
      <trkpt lat="43.6058" lon="7.03977">
        <ele>240</ele>
        <time>2009-06-19T10:51:11Z</time>
      </trkpt>
      <trkpt lat="43.60582" lon="7.03988">
        <ele>239</ele>
        <time>2009-06-19T10:51:12Z</time>
      </trkpt>
      <trkpt lat="43.60582" lon="7.03997">
        <ele>238</ele>
        <time>2009-06-19T10:51:15Z</time>
      </trkpt>
      <trkpt lat="43.60577" lon="7.04007">
        <ele>237</ele>
        <time>2009-06-19T10:51:20Z</time>
      </trkpt>
      <trkpt lat="43.60573" lon="7.04004">
        <ele>237</ele>
        <time>2009-06-19T10:51:25Z</time>
      </trkpt>
      <trkpt lat="43.60574" lon="7.03995">
        <ele>238</ele>
        <time>2009-06-19T10:51:27Z</time>
      </trkpt>
      <trkpt lat="43.60572" lon="7.03984">
        <ele>239</ele>
        <time>2009-06-19T10:51:36Z</time>
      </trkpt>
      <trkpt lat="43.60566" lon="7.03977">
        <ele>243</ele>
        <time>2009-06-19T10:51:45Z</time>
      </trkpt>
      <trkpt lat="43.60566" lon="7.03977">
        <ele>243</ele>
        <time>2009-06-19T10:51:45Z</time>
      </trkpt>
      <trkpt lat="43.60566" lon="7.03977">
        <ele>243</ele>
        <time>2009-06-19T10:51:48Z</time>
      </trkpt>
      <trkpt lat="43.60562" lon="7.03977">
        <ele>242</ele>
        <time>2009-06-19T10:51:49Z</time>
      </trkpt>
      <trkpt lat="43.60557" lon="7.03976">
        <ele>242</ele>
        <time>2009-06-19T10:51:51Z</time>
      </trkpt>
      <trkpt lat="43.60557" lon="7.03976">
        <ele>242</ele>
        <time>2009-06-19T10:51:51Z</time>
      </trkpt>
      <trkpt lat="43.60554" lon="7.03974">
        <ele>244</ele>
        <time>2009-06-19T10:51:56Z</time>
      </trkpt>
      <trkpt lat="43.60551" lon="7.03972">
        <ele>244</ele>
        <time>2009-06-19T10:51:57Z</time>
      </trkpt>
      <trkpt lat="43.60553" lon="7.03964">
        <ele>246</ele>
        <time>2009-06-19T10:52:08Z</time>
      </trkpt>
      <trkpt lat="43.60552" lon="7.03959">
        <ele>246</ele>
        <time>2009-06-19T10:52:10Z</time>
      </trkpt>
      <trkpt lat="43.60549" lon="7.03956">
        <ele>244</ele>
        <time>2009-06-19T10:52:14Z</time>
      </trkpt>
      <trkpt lat="43.60548" lon="7.03955">
        <ele>245</ele>
        <time>2009-06-19T10:52:15Z</time>
      </trkpt>
      <trkpt lat="43.60545" lon="7.0395">
        <ele>245</ele>
        <time>2009-06-19T10:52:17Z</time>
      </trkpt>
      <trkpt lat="43.60546" lon="7.03941">
        <ele>247</ele>
        <time>2009-06-19T10:52:26Z</time>
      </trkpt>
      <trkpt lat="43.60547" lon="7.03929">
        <ele>249</ele>
        <time>2009-06-19T10:52:28Z</time>
      </trkpt>
      <trkpt lat="43.60494" lon="7.0385">
        <ele>256</ele>
        <time>2009-06-19T10:52:29Z</time>
      </trkpt>
      <trkpt lat="43.60486" lon="7.03834">
        <ele>262</ele>
        <time>2009-06-19T10:52:33Z</time>
      </trkpt>
      <trkpt lat="43.60481" lon="7.03833">
        <ele>264</ele>
        <time>2009-06-19T10:52:34Z</time>
      </trkpt>
      <trkpt lat="43.60473" lon="7.0383">
        <ele>264</ele>
        <time>2009-06-19T10:52:35Z</time>
      </trkpt>
      <trkpt lat="43.60468" lon="7.03828">
        <ele>266</ele>
        <time>2009-06-19T10:52:39Z</time>
      </trkpt>
      <trkpt lat="43.60462" lon="7.03829">
        <ele>268</ele>
        <time>2009-06-19T10:52:40Z</time>
      </trkpt>
      <trkpt lat="43.60452" lon="7.03832">
        <ele>271</ele>
        <time>2009-06-19T10:52:41Z</time>
      </trkpt>
      <trkpt lat="43.6043" lon="7.03845">
        <ele>277</ele>
        <time>2009-06-19T10:52:46Z</time>
      </trkpt>
      <trkpt lat="43.60422" lon="7.03849">
        <ele>279</ele>
        <time>2009-06-19T10:52:47Z</time>
      </trkpt>
      <trkpt lat="43.60416" lon="7.0386">
        <ele>279</ele>
        <time>2009-06-19T10:52:50Z</time>
      </trkpt>
      <trkpt lat="43.60408" lon="7.03863">
        <ele>281</ele>
        <time>2009-06-19T10:52:51Z</time>
      </trkpt>
      <trkpt lat="43.60401" lon="7.03869">
        <ele>283</ele>
        <time>2009-06-19T10:52:52Z</time>
      </trkpt>
      <trkpt lat="43.60381" lon="7.03874">
        <ele>277</ele>
        <time>2009-06-19T10:52:53Z</time>
      </trkpt>
      <trkpt lat="43.60375" lon="7.03885">
        <ele>277</ele>
        <time>2009-06-19T10:52:56Z</time>
      </trkpt>
      <trkpt lat="43.60355" lon="7.03893">
        <ele>269</ele>
        <time>2009-06-19T10:52:57Z</time>
      </trkpt>
      <trkpt lat="43.60343" lon="7.03895">
        <ele>263</ele>
        <time>2009-06-19T10:52:58Z</time>
      </trkpt>
      <trkpt lat="43.60325" lon="7.03911">
        <ele>263</ele>
        <time>2009-06-19T10:53:07Z</time>
      </trkpt>
      <trkpt lat="43.60323" lon="7.03902">
        <ele>262</ele>
        <time>2009-06-19T10:53:09Z</time>
      </trkpt>
      <trkpt lat="43.60319" lon="7.03907">
        <ele>261</ele>
        <time>2009-06-19T10:53:17Z</time>
      </trkpt>
      <trkpt lat="43.60317" lon="7.03917">
        <ele>261</ele>
        <time>2009-06-19T10:53:21Z</time>
      </trkpt>
      <trkpt lat="43.60309" lon="7.0395">
        <ele>261</ele>
        <time>2009-06-19T10:53:31Z</time>
      </trkpt>
      <trkpt lat="43.60301" lon="7.03956">
        <ele>261</ele>
        <time>2009-06-19T10:53:32Z</time>
      </trkpt>
      <trkpt lat="43.60296" lon="7.0397">
        <ele>261</ele>
        <time>2009-06-19T10:53:36Z</time>
      </trkpt>
      <trkpt lat="43.60293" lon="7.03977">
        <ele>259</ele>
        <time>2009-06-19T10:53:37Z</time>
      </trkpt>
      <trkpt lat="43.6029" lon="7.03992">
        <ele>259</ele>
        <time>2009-06-19T10:53:41Z</time>
      </trkpt>
      <trkpt lat="43.6029" lon="7.0402">
        <ele>255</ele>
        <time>2009-06-19T10:53:47Z</time>
      </trkpt>
      <trkpt lat="43.60291" lon="7.04031">
        <ele>255</ele>
        <time>2009-06-19T10:53:50Z</time>
      </trkpt>
      <trkpt lat="43.60293" lon="7.04042">
        <ele>254</ele>
        <time>2009-06-19T10:53:55Z</time>
      </trkpt>
      <trkpt lat="43.60296" lon="7.04056">
        <ele>253</ele>
        <time>2009-06-19T10:53:59Z</time>
      </trkpt>
      <trkpt lat="43.60298" lon="7.04073">
        <ele>251</ele>
        <time>2009-06-19T10:54:00Z</time>
      </trkpt>
      <trkpt lat="43.60301" lon="7.04114">
        <ele>249</ele>
        <time>2009-06-19T10:54:09Z</time>
      </trkpt>
      <trkpt lat="43.60297" lon="7.04118">
        <ele>248</ele>
        <time>2009-06-19T10:54:14Z</time>
      </trkpt>
      <trkpt lat="43.60289" lon="7.04122">
        <ele>245</ele>
        <time>2009-06-19T10:54:19Z</time>
      </trkpt>
      <trkpt lat="43.60303" lon="7.04132">
        <ele>245</ele>
        <time>2009-06-19T10:54:32Z</time>
      </trkpt>
      <trkpt lat="43.60313" lon="7.04135">
        <ele>246</ele>
        <time>2009-06-19T10:54:36Z</time>
      </trkpt>
      <trkpt lat="43.60322" lon="7.04142">
        <ele>248</ele>
        <time>2009-06-19T10:54:40Z</time>
      </trkpt>
      <trkpt lat="43.60337" lon="7.04144">
        <ele>250</ele>
        <time>2009-06-19T10:54:45Z</time>
      </trkpt>
      <trkpt lat="43.60342" lon="7.04149">
        <ele>251</ele>
        <time>2009-06-19T10:54:48Z</time>
      </trkpt>
      <trkpt lat="43.60348" lon="7.04156">
        <ele>250</ele>
        <time>2009-06-19T10:54:52Z</time>
      </trkpt>
      <trkpt lat="43.60355" lon="7.04158">
        <ele>251</ele>
        <time>2009-06-19T10:54:56Z</time>
      </trkpt>
      <trkpt lat="43.6036" lon="7.04166">
        <ele>251</ele>
        <time>2009-06-19T10:55:00Z</time>
      </trkpt>
      <trkpt lat="43.60377" lon="7.04182">
        <ele>254</ele>
        <time>2009-06-19T10:55:09Z</time>
      </trkpt>
      <trkpt lat="43.60383" lon="7.04186">
        <ele>254</ele>
        <time>2009-06-19T10:55:10Z</time>
      </trkpt>
      <trkpt lat="43.60387" lon="7.0419">
        <ele>254</ele>
        <time>2009-06-19T10:55:11Z</time>
      </trkpt>
      <trkpt lat="43.60392" lon="7.04194">
        <ele>257</ele>
        <time>2009-06-19T10:55:14Z</time>
      </trkpt>
      <trkpt lat="43.604" lon="7.04201">
        <ele>258</ele>
        <time>2009-06-19T10:55:18Z</time>
      </trkpt>
      <trkpt lat="43.60406" lon="7.0421">
        <ele>256</ele>
        <time>2009-06-19T10:55:22Z</time>
      </trkpt>
      <trkpt lat="43.60409" lon="7.04216">
        <ele>256</ele>
        <time>2009-06-19T10:55:26Z</time>
      </trkpt>
      <trkpt lat="43.60411" lon="7.04223">
        <ele>255</ele>
        <time>2009-06-19T10:55:35Z</time>
      </trkpt>
      <trkpt lat="43.60411" lon="7.04228">
        <ele>256</ele>
        <time>2009-06-19T10:55:50Z</time>
      </trkpt>
      <trkpt lat="43.60414" lon="7.04232">
        <ele>255</ele>
        <time>2009-06-19T10:56:13Z</time>
      </trkpt>
      <trkpt lat="43.60414" lon="7.04236">
        <ele>254</ele>
        <time>2009-06-19T10:56:14Z</time>
      </trkpt>
      <trkpt lat="43.60414" lon="7.04241">
        <ele>253</ele>
        <time>2009-06-19T10:56:15Z</time>
      </trkpt>
      <trkpt lat="43.60414" lon="7.04246">
        <ele>250</ele>
        <time>2009-06-19T10:56:19Z</time>
      </trkpt>
      <trkpt lat="43.60414" lon="7.04249">
        <ele>249</ele>
        <time>2009-06-19T10:56:20Z</time>
      </trkpt>
      <trkpt lat="43.60414" lon="7.04249">
        <ele>249</ele>
        <time>2009-06-19T10:56:20Z</time>
      </trkpt>
      <trkpt lat="43.60414" lon="7.04254">
        <ele>248</ele>
        <time>2009-06-19T10:56:24Z</time>
      </trkpt>
      <trkpt lat="43.60414" lon="7.04256">
        <ele>247</ele>
        <time>2009-06-19T10:56:25Z</time>
      </trkpt>
      <trkpt lat="43.60414" lon="7.04264">
        <ele>244</ele>
        <time>2009-06-19T10:56:34Z</time>
      </trkpt>
      <trkpt lat="43.60414" lon="7.0427">
        <ele>241</ele>
        <time>2009-06-19T10:56:35Z</time>
      </trkpt>
      <trkpt lat="43.60414" lon="7.04278">
        <ele>238</ele>
        <time>2009-06-19T10:56:37Z</time>
      </trkpt>
      <trkpt lat="43.60414" lon="7.04278">
        <ele>238</ele>
        <time>2009-06-19T10:56:37Z</time>
      </trkpt>
      <trkpt lat="43.60414" lon="7.0428">
        <ele>237</ele>
        <time>2009-06-19T10:56:41Z</time>
      </trkpt>
      <trkpt lat="43.60415" lon="7.04296">
        <ele>232</ele>
        <time>2009-06-19T10:56:47Z</time>
      </trkpt>
      <trkpt lat="43.60463" lon="7.04375">
        <ele>244</ele>
        <time>2009-06-19T10:56:50Z</time>
      </trkpt>
      <trkpt lat="43.60469" lon="7.04397">
        <ele>242</ele>
        <time>2009-06-19T10:56:54Z</time>
      </trkpt>
      <trkpt lat="43.60469" lon="7.04408">
        <ele>242</ele>
        <time>2009-06-19T10:56:56Z</time>
      </trkpt>
      <trkpt lat="43.60462" lon="7.04431">
        <ele>242</ele>
        <time>2009-06-19T10:57:05Z</time>
      </trkpt>
      <trkpt lat="43.60466" lon="7.04438">
        <ele>242</ele>
        <time>2009-06-19T10:57:07Z</time>
      </trkpt>
      <trkpt lat="43.60466" lon="7.04453">
        <ele>242</ele>
        <time>2009-06-19T10:57:11Z</time>
      </trkpt>
      <trkpt lat="43.6047" lon="7.04456">
        <ele>243</ele>
        <time>2009-06-19T10:57:13Z</time>
      </trkpt>
      <trkpt lat="43.6048" lon="7.04463">
        <ele>245</ele>
        <time>2009-06-19T10:57:16Z</time>
      </trkpt>
      <trkpt lat="43.60505" lon="7.04493">
        <ele>246</ele>
        <time>2009-06-19T10:57:25Z</time>
      </trkpt>
      <trkpt lat="43.60513" lon="7.04511">
        <ele>244</ele>
        <time>2009-06-19T10:57:26Z</time>
      </trkpt>
      <trkpt lat="43.60518" lon="7.04522">
        <ele>243</ele>
        <time>2009-06-19T10:57:27Z</time>
      </trkpt>
      <trkpt lat="43.60525" lon="7.04538">
        <ele>243</ele>
        <time>2009-06-19T10:57:30Z</time>
      </trkpt>
      <trkpt lat="43.60532" lon="7.04542">
        <ele>243</ele>
        <time>2009-06-19T10:57:32Z</time>
      </trkpt>
      <trkpt lat="43.60548" lon="7.04576">
        <ele>239</ele>
        <time>2009-06-19T10:57:36Z</time>
      </trkpt>
      <trkpt lat="43.60555" lon="7.04593">
        <ele>237</ele>
        <time>2009-06-19T10:57:37Z</time>
      </trkpt>
      <trkpt lat="43.60557" lon="7.04602">
        <ele>237</ele>
        <time>2009-06-19T10:57:38Z</time>
      </trkpt>
      <trkpt lat="43.60568" lon="7.04623">
        <ele>236</ele>
        <time>2009-06-19T10:57:41Z</time>
      </trkpt>
      <trkpt lat="43.60574" lon="7.0466">
        <ele>236</ele>
        <time>2009-06-19T10:57:48Z</time>
      </trkpt>
      <trkpt lat="43.60574" lon="7.0467">
        <ele>236</ele>
        <time>2009-06-19T10:57:49Z</time>
      </trkpt>
      <trkpt lat="43.60573" lon="7.04676">
        <ele>235</ele>
        <time>2009-06-19T10:57:50Z</time>
      </trkpt>
      <trkpt lat="43.6057" lon="7.04695">
        <ele>236</ele>
        <time>2009-06-19T10:57:53Z</time>
      </trkpt>
      <trkpt lat="43.60569" lon="7.04701">
        <ele>236</ele>
        <time>2009-06-19T10:57:54Z</time>
      </trkpt>
      <trkpt lat="43.60566" lon="7.04712">
        <ele>236</ele>
        <time>2009-06-19T10:57:56Z</time>
      </trkpt>
      <trkpt lat="43.60561" lon="7.04741">
        <ele>236</ele>
        <time>2009-06-19T10:58:04Z</time>
      </trkpt>
      <trkpt lat="43.60558" lon="7.04747">
        <ele>236</ele>
        <time>2009-06-19T10:58:06Z</time>
      </trkpt>
      <trkpt lat="43.60554" lon="7.0475">
        <ele>236</ele>
        <time>2009-06-19T10:58:07Z</time>
      </trkpt>
      <trkpt lat="43.6055" lon="7.04762">
        <ele>237</ele>
        <time>2009-06-19T10:58:11Z</time>
      </trkpt>
      <trkpt lat="43.60548" lon="7.04769">
        <ele>237</ele>
        <time>2009-06-19T10:58:13Z</time>
      </trkpt>
      <trkpt lat="43.6055" lon="7.04777">
        <ele>237</ele>
        <time>2009-06-19T10:58:15Z</time>
      </trkpt>
      <trkpt lat="43.60546" lon="7.04805">
        <ele>237</ele>
        <time>2009-06-19T10:58:24Z</time>
      </trkpt>
      <trkpt lat="43.6054" lon="7.04813">
        <ele>237</ele>
        <time>2009-06-19T10:58:25Z</time>
      </trkpt>
      <trkpt lat="43.60536" lon="7.04822">
        <ele>237</ele>
        <time>2009-06-19T10:58:27Z</time>
      </trkpt>
      <trkpt lat="43.6053" lon="7.04828">
        <ele>237</ele>
        <time>2009-06-19T10:58:28Z</time>
      </trkpt>
      <trkpt lat="43.60528" lon="7.04839">
        <ele>238</ele>
        <time>2009-06-19T10:58:31Z</time>
      </trkpt>
      <trkpt lat="43.6052" lon="7.04851">
        <ele>238</ele>
        <time>2009-06-19T10:58:33Z</time>
      </trkpt>
      <trkpt lat="43.60515" lon="7.04856">
        <ele>238</ele>
        <time>2009-06-19T10:58:34Z</time>
      </trkpt>
      <trkpt lat="43.60512" lon="7.04865">
        <ele>238</ele>
        <time>2009-06-19T10:58:37Z</time>
      </trkpt>
      <trkpt lat="43.60499" lon="7.04875">
        <ele>239</ele>
        <time>2009-06-19T10:58:38Z</time>
      </trkpt>
      <trkpt lat="43.60495" lon="7.04882">
        <ele>239</ele>
        <time>2009-06-19T10:58:39Z</time>
      </trkpt>
      <trkpt lat="43.60484" lon="7.04909">
        <ele>239</ele>
        <time>2009-06-19T10:58:46Z</time>
      </trkpt>
      <trkpt lat="43.60478" lon="7.04919">
        <ele>239</ele>
        <time>2009-06-19T10:58:51Z</time>
      </trkpt>
      <trkpt lat="43.60474" lon="7.04923">
        <ele>240</ele>
        <time>2009-06-19T10:58:53Z</time>
      </trkpt>
      <trkpt lat="43.60469" lon="7.04929">
        <ele>240</ele>
        <time>2009-06-19T10:58:54Z</time>
      </trkpt>
      <trkpt lat="43.60466" lon="7.04935">
        <ele>240</ele>
        <time>2009-06-19T10:58:57Z</time>
      </trkpt>
      <trkpt lat="43.6046" lon="7.04938">
        <ele>240</ele>
        <time>2009-06-19T10:58:58Z</time>
      </trkpt>
      <trkpt lat="43.60454" lon="7.04938">
        <ele>241</ele>
        <time>2009-06-19T10:58:59Z</time>
      </trkpt>
      <trkpt lat="43.60441" lon="7.04943">
        <ele>241</ele>
        <time>2009-06-19T10:59:09Z</time>
      </trkpt>
      <trkpt lat="43.60439" lon="7.04945">
        <ele>241</ele>
        <time>2009-06-19T10:59:16Z</time>
      </trkpt>
      <trkpt lat="43.60436" lon="7.04949">
        <ele>240</ele>
        <time>2009-06-19T10:59:53Z</time>
      </trkpt>
      <trkpt lat="43.60435" lon="7.04949">
        <ele>240</ele>
        <time>2009-06-19T10:59:54Z</time>
      </trkpt>
      <trkpt lat="43.6043" lon="7.04953">
        <ele>240</ele>
        <time>2009-06-19T10:59:57Z</time>
      </trkpt>
      <trkpt lat="43.60383" lon="7.04999">
        <ele>240</ele>
        <time>2009-06-19T11:00:05Z</time>
      </trkpt>
      <trkpt lat="43.60373" lon="7.05001">
        <ele>241</ele>
        <time>2009-06-19T11:00:07Z</time>
      </trkpt>
      <trkpt lat="43.60366" lon="7.05007">
        <ele>242</ele>
        <time>2009-06-19T11:00:08Z</time>
      </trkpt>
      <trkpt lat="43.60362" lon="7.05012">
        <ele>242</ele>
        <time>2009-06-19T11:00:09Z</time>
      </trkpt>
      <trkpt lat="43.60353" lon="7.05022">
        <ele>243</ele>
        <time>2009-06-19T11:00:11Z</time>
      </trkpt>
      <trkpt lat="43.60349" lon="7.05029">
        <ele>242</ele>
        <time>2009-06-19T11:00:13Z</time>
      </trkpt>
      <trkpt lat="43.60337" lon="7.05036">
        <ele>238</ele>
        <time>2009-06-19T11:00:14Z</time>
      </trkpt>
      <trkpt lat="43.60332" lon="7.0504">
        <ele>239</ele>
        <time>2009-06-19T11:00:15Z</time>
      </trkpt>
      <trkpt lat="43.60314" lon="7.05045">
        <ele>239</ele>
        <time>2009-06-19T11:00:23Z</time>
      </trkpt>
      <trkpt lat="43.60307" lon="7.0504">
        <ele>239</ele>
        <time>2009-06-19T11:00:24Z</time>
      </trkpt>
      <trkpt lat="43.60279" lon="7.05039">
        <ele>227</ele>
        <time>2009-06-19T11:00:25Z</time>
      </trkpt>
      <trkpt lat="43.60257" lon="7.05045">
        <ele>216</ele>
        <time>2009-06-19T11:00:26Z</time>
      </trkpt>
      <trkpt lat="43.60243" lon="7.05056">
        <ele>217</ele>
        <time>2009-06-19T11:00:29Z</time>
      </trkpt>
      <trkpt lat="43.60235" lon="7.05062">
        <ele>216</ele>
        <time>2009-06-19T11:00:30Z</time>
      </trkpt>
      <trkpt lat="43.60228" lon="7.05067">
        <ele>218</ele>
        <time>2009-06-19T11:00:31Z</time>
      </trkpt>
      <trkpt lat="43.6022" lon="7.0508">
        <ele>219</ele>
        <time>2009-06-19T11:00:34Z</time>
      </trkpt>
      <trkpt lat="43.60219" lon="7.05086">
        <ele>220</ele>
        <time>2009-06-19T11:00:35Z</time>
      </trkpt>
      <trkpt lat="43.60212" lon="7.05133">
        <ele>220</ele>
        <time>2009-06-19T11:00:45Z</time>
      </trkpt>
      <trkpt lat="43.60212" lon="7.05143">
        <ele>216</ele>
        <time>2009-06-19T11:00:49Z</time>
      </trkpt>
      <trkpt lat="43.60213" lon="7.0515">
        <ele>215</ele>
        <time>2009-06-19T11:00:50Z</time>
      </trkpt>
      <trkpt lat="43.60215" lon="7.05167">
        <ele>213</ele>
        <time>2009-06-19T11:00:53Z</time>
      </trkpt>
      <trkpt lat="43.60215" lon="7.05177">
        <ele>210</ele>
        <time>2009-06-19T11:00:54Z</time>
      </trkpt>
      <trkpt lat="43.60214" lon="7.05188">
        <ele>209</ele>
        <time>2009-06-19T11:00:58Z</time>
      </trkpt>
      <trkpt lat="43.6021" lon="7.05193">
        <ele>209</ele>
        <time>2009-06-19T11:01:00Z</time>
      </trkpt>
      <trkpt lat="43.60201" lon="7.05217">
        <ele>206</ele>
        <time>2009-06-19T11:01:08Z</time>
      </trkpt>
      <trkpt lat="43.60197" lon="7.05227">
        <ele>206</ele>
        <time>2009-06-19T11:01:09Z</time>
      </trkpt>
      <trkpt lat="43.60194" lon="7.05233">
        <ele>205</ele>
        <time>2009-06-19T11:01:10Z</time>
      </trkpt>
      <trkpt lat="43.60187" lon="7.05252">
        <ele>201</ele>
        <time>2009-06-19T11:01:13Z</time>
      </trkpt>
      <trkpt lat="43.60178" lon="7.05264">
        <ele>202</ele>
        <time>2009-06-19T11:01:14Z</time>
      </trkpt>
      <trkpt lat="43.60174" lon="7.05269">
        <ele>202</ele>
        <time>2009-06-19T11:01:15Z</time>
      </trkpt>
      <trkpt lat="43.60169" lon="7.05284">
        <ele>201</ele>
        <time>2009-06-19T11:01:18Z</time>
      </trkpt>
      <trkpt lat="43.60169" lon="7.05292">
        <ele>200</ele>
        <time>2009-06-19T11:01:19Z</time>
      </trkpt>
      <trkpt lat="43.60166" lon="7.05307">
        <ele>200</ele>
        <time>2009-06-19T11:01:22Z</time>
      </trkpt>
      <trkpt lat="43.60167" lon="7.05315">
        <ele>198</ele>
        <time>2009-06-19T11:01:23Z</time>
      </trkpt>
      <trkpt lat="43.60163" lon="7.05353">
        <ele>196</ele>
        <time>2009-06-19T11:01:31Z</time>
      </trkpt>
      <trkpt lat="43.60161" lon="7.05346">
        <ele>196</ele>
        <time>2009-06-19T11:01:38Z</time>
      </trkpt>
      <trkpt lat="43.60153" lon="7.05352">
        <ele>197</ele>
        <time>2009-06-19T11:01:46Z</time>
      </trkpt>
      <trkpt lat="43.60158" lon="7.05352">
        <ele>197</ele>
        <time>2009-06-19T11:01:56Z</time>
      </trkpt>
      <trkpt lat="43.60161" lon="7.05352">
        <ele>196</ele>
        <time>2009-06-19T11:01:58Z</time>
      </trkpt>
      <trkpt lat="43.60159" lon="7.05356">
        <ele>197</ele>
        <time>2009-06-19T11:02:36Z</time>
      </trkpt>
      <trkpt lat="43.60158" lon="7.05357">
        <ele>197</ele>
        <time>2009-06-19T11:02:37Z</time>
      </trkpt>
      <trkpt lat="43.60158" lon="7.05357">
        <ele>197</ele>
        <time>2009-06-19T11:02:37Z</time>
      </trkpt>
      <trkpt lat="43.60157" lon="7.05352">
        <ele>198</ele>
        <time>2009-06-19T11:03:17Z</time>
      </trkpt>
      <trkpt lat="43.60158" lon="7.0535">
        <ele>199</ele>
        <time>2009-06-19T11:03:18Z</time>
      </trkpt>
      <trkpt lat="43.60162" lon="7.05345">
        <ele>198</ele>
        <time>2009-06-19T11:03:27Z</time>
      </trkpt>
      <trkpt lat="43.6016" lon="7.05342">
        <ele>197</ele>
        <time>2009-06-19T11:03:36Z</time>
      </trkpt>
      <trkpt lat="43.6016" lon="7.05339">
        <ele>196</ele>
        <time>2009-06-19T11:03:41Z</time>
      </trkpt>
      <trkpt lat="43.60129" lon="7.05256">
        <ele>203</ele>
        <time>2009-06-19T11:03:47Z</time>
      </trkpt>
      <trkpt lat="43.6013" lon="7.05244">
        <ele>204</ele>
        <time>2009-06-19T11:03:51Z</time>
      </trkpt>
      <trkpt lat="43.6014" lon="7.05227">
        <ele>204</ele>
        <time>2009-06-19T11:03:53Z</time>
      </trkpt>
      <trkpt lat="43.60142" lon="7.05221">
        <ele>204</ele>
        <time>2009-06-19T11:03:57Z</time>
      </trkpt>
      <trkpt lat="43.60144" lon="7.05208">
        <ele>205</ele>
        <time>2009-06-19T11:04:07Z</time>
      </trkpt>
      <trkpt lat="43.60139" lon="7.05209">
        <ele>206</ele>
        <time>2009-06-19T11:04:09Z</time>
      </trkpt>
      <trkpt lat="43.60134" lon="7.05206">
        <ele>207</ele>
        <time>2009-06-19T11:04:13Z</time>
      </trkpt>
      <trkpt lat="43.60129" lon="7.05203">
        <ele>208</ele>
        <time>2009-06-19T11:04:16Z</time>
      </trkpt>
      <trkpt lat="43.60125" lon="7.05198">
        <ele>209</ele>
        <time>2009-06-19T11:04:20Z</time>
      </trkpt>
      <trkpt lat="43.60118" lon="7.05183">
        <ele>210</ele>
        <time>2009-06-19T11:04:30Z</time>
      </trkpt>
      <trkpt lat="43.60113" lon="7.0518">
        <ele>210</ele>
        <time>2009-06-19T11:04:33Z</time>
      </trkpt>
      <trkpt lat="43.60102" lon="7.05182">
        <ele>207</ele>
        <time>2009-06-19T11:04:37Z</time>
      </trkpt>
      <trkpt lat="43.60098" lon="7.05182">
        <ele>208</ele>
        <time>2009-06-19T11:04:39Z</time>
      </trkpt>
      <trkpt lat="43.60095" lon="7.0518">
        <ele>208</ele>
        <time>2009-06-19T11:04:50Z</time>
      </trkpt>
      <trkpt lat="43.60094" lon="7.0518">
        <ele>208</ele>
        <time>2009-06-19T11:04:54Z</time>
      </trkpt>
      <trkpt lat="43.60088" lon="7.0518">
        <ele>205</ele>
        <time>2009-06-19T11:04:55Z</time>
      </trkpt>
      <trkpt lat="43.60081" lon="7.05179">
        <ele>204</ele>
        <time>2009-06-19T11:05:10Z</time>
      </trkpt>
      <trkpt lat="43.60079" lon="7.05173">
        <ele>208</ele>
        <time>2009-06-19T11:05:24Z</time>
      </trkpt>
      <trkpt lat="43.60075" lon="7.0517">
        <ele>210</ele>
        <time>2009-06-19T11:05:35Z</time>
      </trkpt>
      <trkpt lat="43.6006" lon="7.05163">
        <ele>215</ele>
        <time>2009-06-19T11:05:46Z</time>
      </trkpt>
      <trkpt lat="43.60053" lon="7.05162">
        <ele>216</ele>
        <time>2009-06-19T11:05:51Z</time>
      </trkpt>
      <trkpt lat="43.60048" lon="7.05159">
        <ele>219</ele>
        <time>2009-06-19T11:05:55Z</time>
      </trkpt>
      <trkpt lat="43.60044" lon="7.05154">
        <ele>222</ele>
        <time>2009-06-19T11:06:06Z</time>
      </trkpt>
      <trkpt lat="43.60039" lon="7.05152">
        <ele>226</ele>
        <time>2009-06-19T11:06:12Z</time>
      </trkpt>
      <trkpt lat="43.60034" lon="7.05151">
        <ele>229</ele>
        <time>2009-06-19T11:06:18Z</time>
      </trkpt>
      <trkpt lat="43.60028" lon="7.05149">
        <ele>230</ele>
        <time>2009-06-19T11:06:23Z</time>
      </trkpt>
      <trkpt lat="43.60022" lon="7.05147">
        <ele>232</ele>
        <time>2009-06-19T11:06:28Z</time>
      </trkpt>
      <trkpt lat="43.60019" lon="7.05143">
        <ele>234</ele>
        <time>2009-06-19T11:06:41Z</time>
      </trkpt>
      <trkpt lat="43.60084" lon="7.04898">
        <ele>221</ele>
        <time>2009-06-19T11:06:47Z</time>
      </trkpt>
      <trkpt lat="43.60085" lon="7.04888">
        <ele>221</ele>
        <time>2009-06-19T11:06:49Z</time>
      </trkpt>
      <trkpt lat="43.60081" lon="7.04881">
        <ele>221</ele>
        <time>2009-06-19T11:06:52Z</time>
      </trkpt>
      <trkpt lat="43.60086" lon="7.0487">
        <ele>221</ele>
        <time>2009-06-19T11:06:54Z</time>
      </trkpt>
      <trkpt lat="43.60089" lon="7.04863">
        <ele>221</ele>
        <time>2009-06-19T11:06:55Z</time>
      </trkpt>
      <trkpt lat="43.60095" lon="7.04855">
        <ele>222</ele>
        <time>2009-06-19T11:06:56Z</time>
      </trkpt>
      <trkpt lat="43.60098" lon="7.0485">
        <ele>222</ele>
        <time>2009-06-19T11:06:57Z</time>
      </trkpt>
      <trkpt lat="43.60102" lon="7.04843">
        <ele>222</ele>
        <time>2009-06-19T11:06:58Z</time>
      </trkpt>
      <trkpt lat="43.60104" lon="7.04832">
        <ele>223</ele>
        <time>2009-06-19T11:07:00Z</time>
      </trkpt>
      <trkpt lat="43.60099" lon="7.04807">
        <ele>222</ele>
        <time>2009-06-19T11:07:08Z</time>
      </trkpt>
      <trkpt lat="43.60092" lon="7.04799">
        <ele>221</ele>
        <time>2009-06-19T11:07:10Z</time>
      </trkpt>
      <trkpt lat="43.6009" lon="7.04793">
        <ele>221</ele>
        <time>2009-06-19T11:07:11Z</time>
      </trkpt>
      <trkpt lat="43.60089" lon="7.04787">
        <ele>221</ele>
        <time>2009-06-19T11:07:12Z</time>
      </trkpt>
      <trkpt lat="43.60091" lon="7.0478">
        <ele>221</ele>
        <time>2009-06-19T11:07:13Z</time>
      </trkpt>
      <trkpt lat="43.60092" lon="7.04774">
        <ele>221</ele>
        <time>2009-06-19T11:07:14Z</time>
      </trkpt>
      <trkpt lat="43.60087" lon="7.04765">
        <ele>221</ele>
        <time>2009-06-19T11:07:16Z</time>
      </trkpt>
      <trkpt lat="43.60073" lon="7.04731">
        <ele>221</ele>
        <time>2009-06-19T11:07:25Z</time>
      </trkpt>
      <trkpt lat="43.60069" lon="7.04728">
        <ele>220</ele>
        <time>2009-06-19T11:07:26Z</time>
      </trkpt>
      <trkpt lat="43.60064" lon="7.04722">
        <ele>220</ele>
        <time>2009-06-19T11:07:28Z</time>
      </trkpt>
      <trkpt lat="43.60058" lon="7.04714">
        <ele>220</ele>
        <time>2009-06-19T11:07:30Z</time>
      </trkpt>
      <trkpt lat="43.6005" lon="7.04714">
        <ele>219</ele>
        <time>2009-06-19T11:07:31Z</time>
      </trkpt>
      <trkpt lat="43.60048" lon="7.04704">
        <ele>219</ele>
        <time>2009-06-19T11:07:33Z</time>
      </trkpt>
      <trkpt lat="43.6005" lon="7.04697">
        <ele>219</ele>
        <time>2009-06-19T11:07:34Z</time>
      </trkpt>
      <trkpt lat="43.60071" lon="7.04621">
        <ele>223</ele>
        <time>2009-06-19T11:07:47Z</time>
      </trkpt>
      <trkpt lat="43.60067" lon="7.04617">
        <ele>223</ele>
        <time>2009-06-19T11:07:48Z</time>
      </trkpt>
      <trkpt lat="43.6006" lon="7.0461">
        <ele>223</ele>
        <time>2009-06-19T11:07:50Z</time>
      </trkpt>
      <trkpt lat="43.60053" lon="7.04609">
        <ele>222</ele>
        <time>2009-06-19T11:07:51Z</time>
      </trkpt>
      <trkpt lat="43.60051" lon="7.04599">
        <ele>222</ele>
        <time>2009-06-19T11:07:54Z</time>
      </trkpt>
      <trkpt lat="43.60041" lon="7.04593">
        <ele>221</ele>
        <time>2009-06-19T11:07:56Z</time>
      </trkpt>
      <trkpt lat="43.60032" lon="7.04588">
        <ele>220</ele>
        <time>2009-06-19T11:07:58Z</time>
      </trkpt>
      <trkpt lat="43.60027" lon="7.04587">
        <ele>219</ele>
        <time>2009-06-19T11:08:00Z</time>
      </trkpt>
      <trkpt lat="43.60019" lon="7.04584">
        <ele>218</ele>
        <time>2009-06-19T11:08:02Z</time>
      </trkpt>
      <trkpt lat="43.59997" lon="7.04581">
        <ele>208</ele>
        <time>2009-06-19T11:08:09Z</time>
      </trkpt>
      <trkpt lat="43.60002" lon="7.0457">
        <ele>206</ele>
        <time>2009-06-19T11:08:15Z</time>
      </trkpt>
      <trkpt lat="43.60006" lon="7.04562">
        <ele>207</ele>
        <time>2009-06-19T11:08:16Z</time>
      </trkpt>
      <trkpt lat="43.60009" lon="7.04556">
        <ele>208</ele>
        <time>2009-06-19T11:08:20Z</time>
      </trkpt>
      <trkpt lat="43.60013" lon="7.04551">
        <ele>209</ele>
        <time>2009-06-19T11:08:25Z</time>
      </trkpt>
      <trkpt lat="43.60023" lon="7.04544">
        <ele>211</ele>
        <time>2009-06-19T11:08:35Z</time>
      </trkpt>
      <trkpt lat="43.60034" lon="7.04538">
        <ele>220</ele>
        <time>2009-06-19T11:08:47Z</time>
      </trkpt>
      <trkpt lat="43.60038" lon="7.04535">
        <ele>220</ele>
        <time>2009-06-19T11:08:54Z</time>
      </trkpt>
      <trkpt lat="43.60043" lon="7.04528">
        <ele>221</ele>
        <time>2009-06-19T11:09:03Z</time>
      </trkpt>
      <trkpt lat="43.6005" lon="7.04522">
        <ele>220</ele>
        <time>2009-06-19T11:09:04Z</time>
      </trkpt>
      <trkpt lat="43.60052" lon="7.04515">
        <ele>221</ele>
        <time>2009-06-19T11:09:10Z</time>
      </trkpt>
      <trkpt lat="43.6005" lon="7.04509">
        <ele>222</ele>
        <time>2009-06-19T11:09:13Z</time>
      </trkpt>
      <trkpt lat="43.60055" lon="7.04499">
        <ele>223</ele>
        <time>2009-06-19T11:09:22Z</time>
      </trkpt>
      <trkpt lat="43.60053" lon="7.04489">
        <ele>222</ele>
        <time>2009-06-19T11:09:26Z</time>
      </trkpt>
      <trkpt lat="43.60055" lon="7.04483">
        <ele>222</ele>
        <time>2009-06-19T11:09:31Z</time>
      </trkpt>
      <trkpt lat="43.60055" lon="7.04484">
        <ele>222</ele>
        <time>2009-06-19T11:09:32Z</time>
      </trkpt>
      <trkpt lat="43.60055" lon="7.04482">
        <ele>222</ele>
        <time>2009-06-19T11:09:41Z</time>
      </trkpt>
      <trkpt lat="43.60056" lon="7.04478">
        <ele>222</ele>
        <time>2009-06-19T11:09:45Z</time>
      </trkpt>
      <trkpt lat="43.60059" lon="7.04471">
        <ele>222</ele>
        <time>2009-06-19T11:09:50Z</time>
      </trkpt>
      <trkpt lat="43.60062" lon="7.04464">
        <ele>222</ele>
        <time>2009-06-19T11:09:52Z</time>
      </trkpt>
      <trkpt lat="43.60066" lon="7.04456">
        <ele>221</ele>
        <time>2009-06-19T11:09:57Z</time>
      </trkpt>
      <trkpt lat="43.6007" lon="7.04449">
        <ele>221</ele>
        <time>2009-06-19T11:10:09Z</time>
      </trkpt>
      <trkpt lat="43.60071" lon="7.04447">
        <ele>221</ele>
        <time>2009-06-19T11:10:16Z</time>
      </trkpt>
      <trkpt lat="43.60073" lon="7.04445">
        <ele>220</ele>
        <time>2009-06-19T11:10:28Z</time>
      </trkpt>
      <trkpt lat="43.60076" lon="7.04443">
        <ele>220</ele>
        <time>2009-06-19T11:10:29Z</time>
      </trkpt>
      <trkpt lat="43.60079" lon="7.04437">
        <ele>219</ele>
        <time>2009-06-19T11:10:32Z</time>
      </trkpt>
      <trkpt lat="43.60081" lon="7.04433">
        <ele>219</ele>
        <time>2009-06-19T11:10:35Z</time>
      </trkpt>
      <trkpt lat="43.60083" lon="7.04429">
        <ele>221</ele>
        <time>2009-06-19T11:11:30Z</time>
      </trkpt>
      <trkpt lat="43.60084" lon="7.04427">
        <ele>221</ele>
        <time>2009-06-19T11:11:31Z</time>
      </trkpt>
      <trkpt lat="43.60084" lon="7.04426">
        <ele>221</ele>
        <time>2009-06-19T11:11:32Z</time>
      </trkpt>
      <trkpt lat="43.60084" lon="7.04426">
        <ele>221</ele>
        <time>2009-06-19T11:11:33Z</time>
      </trkpt>
      <trkpt lat="43.6009" lon="7.04422">
        <ele>221</ele>
        <time>2009-06-19T11:11:34Z</time>
      </trkpt>
      <trkpt lat="43.60094" lon="7.04417">
        <ele>220</ele>
        <time>2009-06-19T11:11:38Z</time>
      </trkpt>
      <trkpt lat="43.6009" lon="7.04361">
        <ele>227</ele>
        <time>2009-06-19T11:11:39Z</time>
      </trkpt>
      <trkpt lat="43.60083" lon="7.04334">
        <ele>229</ele>
        <time>2009-06-19T11:11:46Z</time>
      </trkpt>
      <trkpt lat="43.60082" lon="7.04324">
        <ele>229</ele>
        <time>2009-06-19T11:11:50Z</time>
      </trkpt>
      <trkpt lat="43.60083" lon="7.04318">
        <ele>227</ele>
        <time>2009-06-19T11:11:51Z</time>
      </trkpt>
      <trkpt lat="43.60083" lon="7.04311">
        <ele>227</ele>
        <time>2009-06-19T11:11:54Z</time>
      </trkpt>
      <trkpt lat="43.60084" lon="7.04305">
        <ele>227</ele>
        <time>2009-06-19T11:11:55Z</time>
      </trkpt>
      <trkpt lat="43.60084" lon="7.04295">
        <ele>228</ele>
        <time>2009-06-19T11:11:58Z</time>
      </trkpt>
      <trkpt lat="43.60086" lon="7.04283">
        <ele>227</ele>
        <time>2009-06-19T11:12:03Z</time>
      </trkpt>
      <trkpt lat="43.60093" lon="7.04252">
        <ele>226</ele>
        <time>2009-06-19T11:12:11Z</time>
      </trkpt>
      <trkpt lat="43.60094" lon="7.0424">
        <ele>221</ele>
        <time>2009-06-19T11:12:12Z</time>
      </trkpt>
      <trkpt lat="43.60099" lon="7.04225">
        <ele>221</ele>
        <time>2009-06-19T11:12:15Z</time>
      </trkpt>
      <trkpt lat="43.60105" lon="7.04211">
        <ele>223</ele>
        <time>2009-06-19T11:12:18Z</time>
      </trkpt>
      <trkpt lat="43.60109" lon="7.04198">
        <ele>226</ele>
        <time>2009-06-19T11:12:22Z</time>
      </trkpt>
      <trkpt lat="43.60112" lon="7.0418">
        <ele>231</ele>
        <time>2009-06-19T11:12:27Z</time>
      </trkpt>
      <trkpt lat="43.60115" lon="7.04169">
        <ele>231</ele>
        <time>2009-06-19T11:12:28Z</time>
      </trkpt>
      <trkpt lat="43.60132" lon="7.04125">
        <ele>233</ele>
        <time>2009-06-19T11:12:36Z</time>
      </trkpt>
      <trkpt lat="43.60136" lon="7.04106">
        <ele>223</ele>
        <time>2009-06-19T11:12:37Z</time>
      </trkpt>
      <trkpt lat="43.60141" lon="7.04093">
        <ele>221</ele>
        <time>2009-06-19T11:12:40Z</time>
      </trkpt>
      <trkpt lat="43.60144" lon="7.04087">
        <ele>223</ele>
        <time>2009-06-19T11:12:41Z</time>
      </trkpt>
      <trkpt lat="43.60143" lon="7.04078">
        <ele>227</ele>
        <time>2009-06-19T11:12:45Z</time>
      </trkpt>
      <trkpt lat="43.60141" lon="7.0407">
        <ele>229</ele>
        <time>2009-06-19T11:12:48Z</time>
      </trkpt>
      <trkpt lat="43.60141" lon="7.04058">
        <ele>229</ele>
        <time>2009-06-19T11:12:52Z</time>
      </trkpt>
      <trkpt lat="43.60143" lon="7.04049">
        <ele>231</ele>
        <time>2009-06-19T11:12:56Z</time>
      </trkpt>
      <trkpt lat="43.60141" lon="7.04041">
        <ele>232</ele>
        <time>2009-06-19T11:13:00Z</time>
      </trkpt>
      <trkpt lat="43.60141" lon="7.04034">
        <ele>234</ele>
        <time>2009-06-19T11:13:01Z</time>
      </trkpt>
      <trkpt lat="43.60139" lon="7.04025">
        <ele>235</ele>
        <time>2009-06-19T11:13:09Z</time>
      </trkpt>
      <trkpt lat="43.60144" lon="7.04001">
        <ele>241</ele>
        <time>2009-06-19T11:13:10Z</time>
      </trkpt>
      <trkpt lat="43.60146" lon="7.03995">
        <ele>243</ele>
        <time>2009-06-19T11:13:11Z</time>
      </trkpt>
      <trkpt lat="43.60149" lon="7.03989">
        <ele>244</ele>
        <time>2009-06-19T11:13:14Z</time>
      </trkpt>
      <trkpt lat="43.60153" lon="7.03984">
        <ele>244</ele>
        <time>2009-06-19T11:13:15Z</time>
      </trkpt>
      <trkpt lat="43.60158" lon="7.03978">
        <ele>244</ele>
        <time>2009-06-19T11:13:19Z</time>
      </trkpt>
      <trkpt lat="43.60162" lon="7.03974">
        <ele>244</ele>
        <time>2009-06-19T11:13:22Z</time>
      </trkpt>
      <trkpt lat="43.60167" lon="7.03967">
        <ele>245</ele>
        <time>2009-06-19T11:13:25Z</time>
      </trkpt>
      <trkpt lat="43.60169" lon="7.03952">
        <ele>248</ele>
        <time>2009-06-19T11:13:26Z</time>
      </trkpt>
      <trkpt lat="43.60169" lon="7.03941">
        <ele>250</ele>
        <time>2009-06-19T11:13:27Z</time>
      </trkpt>
      <trkpt lat="43.6017" lon="7.03921">
        <ele>252</ele>
        <time>2009-06-19T11:13:35Z</time>
      </trkpt>
      <trkpt lat="43.60159" lon="7.03915">
        <ele>256</ele>
        <time>2009-06-19T11:13:37Z</time>
      </trkpt>
      <trkpt lat="43.60153" lon="7.03911">
        <ele>258</ele>
        <time>2009-06-19T11:13:40Z</time>
      </trkpt>
      <trkpt lat="43.60152" lon="7.03902">
        <ele>256</ele>
        <time>2009-06-19T11:13:41Z</time>
      </trkpt>
      <trkpt lat="43.6015" lon="7.03858">
        <ele>243</ele>
        <time>2009-06-19T11:13:47Z</time>
      </trkpt>
      <trkpt lat="43.60146" lon="7.03842">
        <ele>246</ele>
        <time>2009-06-19T11:13:52Z</time>
      </trkpt>
      <trkpt lat="43.60152" lon="7.03827">
        <ele>237</ele>
        <time>2009-06-19T11:13:55Z</time>
      </trkpt>
      <trkpt lat="43.60143" lon="7.0383">
        <ele>234</ele>
        <time>2009-06-19T11:14:00Z</time>
      </trkpt>
      <trkpt lat="43.60126" lon="7.03835">
        <ele>234</ele>
        <time>2009-06-19T11:14:09Z</time>
      </trkpt>
      <trkpt lat="43.60115" lon="7.03834">
        <ele>233</ele>
        <time>2009-06-19T11:14:13Z</time>
      </trkpt>
      <trkpt lat="43.60107" lon="7.03829">
        <ele>233</ele>
        <time>2009-06-19T11:14:17Z</time>
      </trkpt>
      <trkpt lat="43.601" lon="7.03827">
        <ele>233</ele>
        <time>2009-06-19T11:14:21Z</time>
      </trkpt>
      <trkpt lat="43.60092" lon="7.03826">
        <ele>234</ele>
        <time>2009-06-19T11:14:26Z</time>
      </trkpt>
      <trkpt lat="43.60078" lon="7.03826">
        <ele>234</ele>
        <time>2009-06-19T11:14:35Z</time>
      </trkpt>
      <trkpt lat="43.60073" lon="7.03828">
        <ele>234</ele>
        <time>2009-06-19T11:14:37Z</time>
      </trkpt>
      <trkpt lat="43.60068" lon="7.03829">
        <ele>234</ele>
        <time>2009-06-19T11:14:40Z</time>
      </trkpt>
      <trkpt lat="43.60051" lon="7.03834">
        <ele>233</ele>
        <time>2009-06-19T11:14:47Z</time>
      </trkpt>
      <trkpt lat="43.60043" lon="7.03836">
        <ele>232</ele>
        <time>2009-06-19T11:14:51Z</time>
      </trkpt>
      <trkpt lat="43.60039" lon="7.03838">
        <ele>232</ele>
        <time>2009-06-19T11:14:53Z</time>
      </trkpt>
      <trkpt lat="43.60033" lon="7.03842">
        <ele>232</ele>
        <time>2009-06-19T11:14:56Z</time>
      </trkpt>
      <trkpt lat="43.60028" lon="7.03847">
        <ele>232</ele>
        <time>2009-06-19T11:14:58Z</time>
      </trkpt>
      <trkpt lat="43.60014" lon="7.03857">
        <ele>231</ele>
        <time>2009-06-19T11:15:06Z</time>
      </trkpt>
      <trkpt lat="43.60005" lon="7.03859">
        <ele>231</ele>
        <time>2009-06-19T11:15:08Z</time>
      </trkpt>
      <trkpt lat="43.6" lon="7.03864">
        <ele>231</ele>
        <time>2009-06-19T11:15:12Z</time>
      </trkpt>
      <trkpt lat="43.59988" lon="7.03877">
        <ele>232</ele>
        <time>2009-06-19T11:15:16Z</time>
      </trkpt>
      <trkpt lat="43.59983" lon="7.03883">
        <ele>232</ele>
        <time>2009-06-19T11:15:17Z</time>
      </trkpt>
      <trkpt lat="43.59975" lon="7.03889">
        <ele>231</ele>
        <time>2009-06-19T11:15:18Z</time>
      </trkpt>
      <trkpt lat="43.59966" lon="7.03899">
        <ele>231</ele>
        <time>2009-06-19T11:15:20Z</time>
      </trkpt>
      <trkpt lat="43.59956" lon="7.03904">
        <ele>230</ele>
        <time>2009-06-19T11:15:21Z</time>
      </trkpt>
      <trkpt lat="43.59947" lon="7.03908">
        <ele>229</ele>
        <time>2009-06-19T11:15:22Z</time>
      </trkpt>
      <trkpt lat="43.59899" lon="7.03922">
        <ele>229</ele>
        <time>2009-06-19T11:15:31Z</time>
      </trkpt>
      <trkpt lat="43.59885" lon="7.03922">
        <ele>228</ele>
        <time>2009-06-19T11:15:32Z</time>
      </trkpt>
      <trkpt lat="43.59876" lon="7.03925">
        <ele>226</ele>
        <time>2009-06-19T11:15:33Z</time>
      </trkpt>
      <trkpt lat="43.59866" lon="7.03922">
        <ele>226</ele>
        <time>2009-06-19T11:15:36Z</time>
      </trkpt>
      <trkpt lat="43.59862" lon="7.03918">
        <ele>226</ele>
        <time>2009-06-19T11:15:37Z</time>
      </trkpt>
      <trkpt lat="43.59854" lon="7.0391">
        <ele>226</ele>
        <time>2009-06-19T11:15:39Z</time>
      </trkpt>
      <trkpt lat="43.59841" lon="7.03898">
        <ele>228</ele>
        <time>2009-06-19T11:15:44Z</time>
      </trkpt>
      <trkpt lat="43.59831" lon="7.0389">
        <ele>228</ele>
        <time>2009-06-19T11:15:47Z</time>
      </trkpt>
      <trkpt lat="43.59827" lon="7.03884">
        <ele>228</ele>
        <time>2009-06-19T11:15:48Z</time>
      </trkpt>
      <trkpt lat="43.59817" lon="7.03874">
        <ele>229</ele>
        <time>2009-06-19T11:15:52Z</time>
      </trkpt>
      <trkpt lat="43.59807" lon="7.03869">
        <ele>229</ele>
        <time>2009-06-19T11:15:57Z</time>
      </trkpt>
      <trkpt lat="43.59799" lon="7.03867">
        <ele>229</ele>
        <time>2009-06-19T11:16:01Z</time>
      </trkpt>
      <trkpt lat="43.59792" lon="7.03864">
        <ele>230</ele>
        <time>2009-06-19T11:16:03Z</time>
      </trkpt>
      <trkpt lat="43.59776" lon="7.03855">
        <ele>230</ele>
        <time>2009-06-19T11:16:11Z</time>
      </trkpt>
      <trkpt lat="43.59771" lon="7.03857">
        <ele>227</ele>
        <time>2009-06-19T11:16:20Z</time>
      </trkpt>
      <trkpt lat="43.59763" lon="7.0386">
        <ele>228</ele>
        <time>2009-06-19T11:16:24Z</time>
      </trkpt>
      <trkpt lat="43.59757" lon="7.03865">
        <ele>229</ele>
        <time>2009-06-19T11:16:28Z</time>
      </trkpt>
      <trkpt lat="43.59752" lon="7.0388">
        <ele>230</ele>
        <time>2009-06-19T11:16:37Z</time>
      </trkpt>
      <trkpt lat="43.59753" lon="7.03886">
        <ele>231</ele>
        <time>2009-06-19T11:16:38Z</time>
      </trkpt>
      <trkpt lat="43.59753" lon="7.03913">
        <ele>235</ele>
        <time>2009-06-19T11:16:46Z</time>
      </trkpt>
      <trkpt lat="43.59753" lon="7.03921">
        <ele>236</ele>
        <time>2009-06-19T11:16:49Z</time>
      </trkpt>
      <trkpt lat="43.59746" lon="7.0393">
        <ele>236</ele>
        <time>2009-06-19T11:16:53Z</time>
      </trkpt>
      <trkpt lat="43.5974" lon="7.03934">
        <ele>237</ele>
        <time>2009-06-19T11:16:57Z</time>
      </trkpt>
      <trkpt lat="43.59731" lon="7.03936">
        <ele>234</ele>
        <time>2009-06-19T11:16:58Z</time>
      </trkpt>
      <trkpt lat="43.59724" lon="7.03936">
        <ele>234</ele>
        <time>2009-06-19T11:17:06Z</time>
      </trkpt>
      <trkpt lat="43.59719" lon="7.03935">
        <ele>233</ele>
        <time>2009-06-19T11:17:14Z</time>
      </trkpt>
      <trkpt lat="43.59715" lon="7.03939">
        <ele>230</ele>
        <time>2009-06-19T11:17:23Z</time>
      </trkpt>
      <trkpt lat="43.5971" lon="7.0394">
        <ele>229</ele>
        <time>2009-06-19T11:17:32Z</time>
      </trkpt>
      <trkpt lat="43.59707" lon="7.03935">
        <ele>230</ele>
        <time>2009-06-19T11:17:37Z</time>
      </trkpt>
      <trkpt lat="43.59706" lon="7.03928">
        <ele>231</ele>
        <time>2009-06-19T11:17:41Z</time>
      </trkpt>
      <trkpt lat="43.59705" lon="7.03915">
        <ele>232</ele>
        <time>2009-06-19T11:17:46Z</time>
      </trkpt>
      <trkpt lat="43.59703" lon="7.03909">
        <ele>233</ele>
        <time>2009-06-19T11:17:49Z</time>
      </trkpt>
      <trkpt lat="43.59702" lon="7.03899">
        <ele>234</ele>
        <time>2009-06-19T11:17:53Z</time>
      </trkpt>
      <trkpt lat="43.597" lon="7.03889">
        <ele>236</ele>
        <time>2009-06-19T11:17:56Z</time>
      </trkpt>
      <trkpt lat="43.59697" lon="7.03878">
        <ele>239</ele>
        <time>2009-06-19T11:18:00Z</time>
      </trkpt>
      <trkpt lat="43.59688" lon="7.03842">
        <ele>242</ele>
        <time>2009-06-19T11:18:10Z</time>
      </trkpt>
      <trkpt lat="43.59685" lon="7.03829">
        <ele>245</ele>
        <time>2009-06-19T11:18:12Z</time>
      </trkpt>
      <trkpt lat="43.59688" lon="7.03812">
        <ele>248</ele>
        <time>2009-06-19T11:18:15Z</time>
      </trkpt>
      <trkpt lat="43.59691" lon="7.03805">
        <ele>247</ele>
        <time>2009-06-19T11:18:16Z</time>
      </trkpt>
      <trkpt lat="43.59695" lon="7.0379">
        <ele>246</ele>
        <time>2009-06-19T11:18:19Z</time>
      </trkpt>
      <trkpt lat="43.59699" lon="7.03782">
        <ele>247</ele>
        <time>2009-06-19T11:18:21Z</time>
      </trkpt>
      <trkpt lat="43.59708" lon="7.03775">
        <ele>246</ele>
        <time>2009-06-19T11:18:24Z</time>
      </trkpt>
      <trkpt lat="43.59728" lon="7.03766">
        <ele>246</ele>
        <time>2009-06-19T11:18:33Z</time>
      </trkpt>
      <trkpt lat="43.59733" lon="7.03765">
        <ele>246</ele>
        <time>2009-06-19T11:18:34Z</time>
      </trkpt>
      <trkpt lat="43.59738" lon="7.03763">
        <ele>246</ele>
        <time>2009-06-19T11:18:35Z</time>
      </trkpt>
      <trkpt lat="43.59744" lon="7.03757">
        <ele>247</ele>
        <time>2009-06-19T11:18:38Z</time>
      </trkpt>
      <trkpt lat="43.59749" lon="7.03755">
        <ele>247</ele>
        <time>2009-06-19T11:18:39Z</time>
      </trkpt>
      <trkpt lat="43.59776" lon="7.03754">
        <ele>246</ele>
        <time>2009-06-19T11:18:47Z</time>
      </trkpt>
      <trkpt lat="43.59782" lon="7.03755">
        <ele>248</ele>
        <time>2009-06-19T11:18:50Z</time>
      </trkpt>
      <trkpt lat="43.59791" lon="7.03757">
        <ele>249</ele>
        <time>2009-06-19T11:18:54Z</time>
      </trkpt>
      <trkpt lat="43.59799" lon="7.03753">
        <ele>249</ele>
        <time>2009-06-19T11:18:58Z</time>
      </trkpt>
      <trkpt lat="43.59806" lon="7.03752">
        <ele>250</ele>
        <time>2009-06-19T11:19:02Z</time>
      </trkpt>
      <trkpt lat="43.59817" lon="7.03746">
        <ele>254</ele>
        <time>2009-06-19T11:19:11Z</time>
      </trkpt>
      <trkpt lat="43.59824" lon="7.03745">
        <ele>254</ele>
        <time>2009-06-19T11:19:13Z</time>
      </trkpt>
      <trkpt lat="43.5983" lon="7.03746">
        <ele>254</ele>
        <time>2009-06-19T11:19:16Z</time>
      </trkpt>
      <trkpt lat="43.59837" lon="7.03746">
        <ele>254</ele>
        <time>2009-06-19T11:19:19Z</time>
      </trkpt>
      <trkpt lat="43.59845" lon="7.03748">
        <ele>255</ele>
        <time>2009-06-19T11:19:24Z</time>
      </trkpt>
      <trkpt lat="43.5985" lon="7.03748">
        <ele>254</ele>
        <time>2009-06-19T11:19:25Z</time>
      </trkpt>
      <trkpt lat="43.59858" lon="7.03753">
        <ele>255</ele>
        <time>2009-06-19T11:19:28Z</time>
      </trkpt>
      <trkpt lat="43.59871" lon="7.03754">
        <ele>256</ele>
        <time>2009-06-19T11:19:37Z</time>
      </trkpt>
      <trkpt lat="43.59878" lon="7.03752">
        <ele>256</ele>
        <time>2009-06-19T11:19:38Z</time>
      </trkpt>
      <trkpt lat="43.59884" lon="7.0375">
        <ele>257</ele>
        <time>2009-06-19T11:19:40Z</time>
      </trkpt>
      <trkpt lat="43.59899" lon="7.03745">
        <ele>257</ele>
        <time>2009-06-19T11:19:46Z</time>
      </trkpt>
      <trkpt lat="43.59903" lon="7.03742">
        <ele>256</ele>
        <time>2009-06-19T11:19:49Z</time>
      </trkpt>
      <trkpt lat="43.59908" lon="7.0374">
        <ele>257</ele>
        <time>2009-06-19T11:19:50Z</time>
      </trkpt>
      <trkpt lat="43.59915" lon="7.03737">
        <ele>258</ele>
        <time>2009-06-19T11:19:53Z</time>
      </trkpt>
      <trkpt lat="43.59923" lon="7.03734">
        <ele>259</ele>
        <time>2009-06-19T11:19:57Z</time>
      </trkpt>
      <trkpt lat="43.59928" lon="7.03732">
        <ele>259</ele>
        <time>2009-06-19T11:19:58Z</time>
      </trkpt>
      <trkpt lat="43.59937" lon="7.03733">
        <ele>260</ele>
        <time>2009-06-19T11:20:01Z</time>
      </trkpt>
      <trkpt lat="43.59954" lon="7.03726">
        <ele>259</ele>
        <time>2009-06-19T11:20:10Z</time>
      </trkpt>
      <trkpt lat="43.59951" lon="7.03722">
        <ele>260</ele>
        <time>2009-06-19T11:20:11Z</time>
      </trkpt>
      <trkpt lat="43.59954" lon="7.03715">
        <ele>260</ele>
        <time>2009-06-19T11:20:15Z</time>
      </trkpt>
      <trkpt lat="43.59958" lon="7.0371">
        <ele>257</ele>
        <time>2009-06-19T11:20:19Z</time>
      </trkpt>
      <trkpt lat="43.59964" lon="7.03712">
        <ele>256</ele>
        <time>2009-06-19T11:20:27Z</time>
      </trkpt>
      <trkpt lat="43.59976" lon="7.03712">
        <ele>256</ele>
        <time>2009-06-19T11:20:35Z</time>
      </trkpt>
      <trkpt lat="43.59982" lon="7.03705">
        <ele>257</ele>
        <time>2009-06-19T11:20:39Z</time>
      </trkpt>
      <trkpt lat="43.59997" lon="7.0369">
        <ele>259</ele>
        <time>2009-06-19T11:20:47Z</time>
      </trkpt>
      <trkpt lat="43.59997" lon="7.03672">
        <ele>261</ele>
        <time>2009-06-19T11:20:51Z</time>
      </trkpt>
      <trkpt lat="43.6" lon="7.03658">
        <ele>265</ele>
        <time>2009-06-19T11:20:55Z</time>
      </trkpt>
      <trkpt lat="43.60004" lon="7.03647">
        <ele>267</ele>
        <time>2009-06-19T11:20:59Z</time>
      </trkpt>
      <trkpt lat="43.60008" lon="7.03643">
        <ele>267</ele>
        <time>2009-06-19T11:21:00Z</time>
      </trkpt>
      <trkpt lat="43.60029" lon="7.03644">
        <ele>271</ele>
        <time>2009-06-19T11:21:08Z</time>
      </trkpt>
      <trkpt lat="43.60037" lon="7.03637">
        <ele>271</ele>
        <time>2009-06-19T11:21:09Z</time>
      </trkpt>
      <trkpt lat="43.60041" lon="7.03631">
        <ele>272</ele>
        <time>2009-06-19T11:21:10Z</time>
      </trkpt>
      <trkpt lat="43.60056" lon="7.03626">
        <ele>276</ele>
        <time>2009-06-19T11:21:13Z</time>
      </trkpt>
      <trkpt lat="43.60062" lon="7.03623">
        <ele>276</ele>
        <time>2009-06-19T11:21:14Z</time>
      </trkpt>
      <trkpt lat="43.60066" lon="7.03619">
        <ele>275</ele>
        <time>2009-06-19T11:21:15Z</time>
      </trkpt>
      <trkpt lat="43.60078" lon="7.03619">
        <ele>277</ele>
        <time>2009-06-19T11:21:18Z</time>
      </trkpt>
      <trkpt lat="43.60079" lon="7.03608">
        <ele>277</ele>
        <time>2009-06-19T11:21:19Z</time>
      </trkpt>
      <trkpt lat="43.60083" lon="7.03598">
        <ele>276</ele>
        <time>2009-06-19T11:21:20Z</time>
      </trkpt>
      <trkpt lat="43.60097" lon="7.03596">
        <ele>277</ele>
        <time>2009-06-19T11:21:22Z</time>
      </trkpt>
      <trkpt lat="43.60108" lon="7.03588">
        <ele>276</ele>
        <time>2009-06-19T11:21:23Z</time>
      </trkpt>
      <trkpt lat="43.60113" lon="7.03579">
        <ele>275</ele>
        <time>2009-06-19T11:21:24Z</time>
      </trkpt>
      <trkpt lat="43.60143" lon="7.03576">
        <ele>272</ele>
        <time>2009-06-19T11:21:33Z</time>
      </trkpt>
      <trkpt lat="43.60147" lon="7.0357">
        <ele>267</ele>
        <time>2009-06-19T11:21:34Z</time>
      </trkpt>
      <trkpt lat="43.60152" lon="7.03573">
        <ele>267</ele>
        <time>2009-06-19T11:21:35Z</time>
      </trkpt>
      <trkpt lat="43.60163" lon="7.03577">
        <ele>261</ele>
        <time>2009-06-19T11:21:38Z</time>
      </trkpt>
      <trkpt lat="43.60188" lon="7.03609">
        <ele>255</ele>
        <time>2009-06-19T11:21:46Z</time>
      </trkpt>
      <trkpt lat="43.60191" lon="7.03614">
        <ele>256</ele>
        <time>2009-06-19T11:21:47Z</time>
      </trkpt>
      <trkpt lat="43.60198" lon="7.03626">
        <ele>257</ele>
        <time>2009-06-19T11:21:50Z</time>
      </trkpt>
      <trkpt lat="43.60201" lon="7.03644">
        <ele>256</ele>
        <time>2009-06-19T11:21:54Z</time>
      </trkpt>
      <trkpt lat="43.60203" lon="7.03658">
        <ele>256</ele>
        <time>2009-06-19T11:21:58Z</time>
      </trkpt>
      <trkpt lat="43.6021" lon="7.03687">
        <ele>258</ele>
        <time>2009-06-19T11:22:07Z</time>
      </trkpt>
      <trkpt lat="43.60212" lon="7.03696">
        <ele>257</ele>
        <time>2009-06-19T11:22:08Z</time>
      </trkpt>
      <trkpt lat="43.60216" lon="7.03701">
        <ele>259</ele>
        <time>2009-06-19T11:22:09Z</time>
      </trkpt>
      <trkpt lat="43.6022" lon="7.03716">
        <ele>257</ele>
        <time>2009-06-19T11:22:12Z</time>
      </trkpt>
      <trkpt lat="43.60216" lon="7.03728">
        <ele>256</ele>
        <time>2009-06-19T11:22:13Z</time>
      </trkpt>
      <trkpt lat="43.60217" lon="7.03737">
        <ele>252</ele>
        <time>2009-06-19T11:22:14Z</time>
      </trkpt>
      <trkpt lat="43.60218" lon="7.03749">
        <ele>253</ele>
        <time>2009-06-19T11:22:17Z</time>
      </trkpt>
      <trkpt lat="43.6022" lon="7.03756">
        <ele>253</ele>
        <time>2009-06-19T11:22:18Z</time>
      </trkpt>
      <trkpt lat="43.6022" lon="7.03764">
        <ele>253</ele>
        <time>2009-06-19T11:22:19Z</time>
      </trkpt>
      <trkpt lat="43.60224" lon="7.03779">
        <ele>252</ele>
        <time>2009-06-19T11:22:22Z</time>
      </trkpt>
      <trkpt lat="43.60228" lon="7.03787">
        <ele>253</ele>
        <time>2009-06-19T11:22:23Z</time>
      </trkpt>
      <trkpt lat="43.60237" lon="7.03833">
        <ele>253</ele>
        <time>2009-06-19T11:22:32Z</time>
      </trkpt>
      <trkpt lat="43.60238" lon="7.03844">
        <ele>254</ele>
        <time>2009-06-19T11:22:37Z</time>
      </trkpt>
      <trkpt lat="43.60245" lon="7.03857">
        <ele>255</ele>
        <time>2009-06-19T11:22:39Z</time>
      </trkpt>
      <trkpt lat="43.60243" lon="7.03886">
        <ele>255</ele>
        <time>2009-06-19T11:22:47Z</time>
      </trkpt>
      <trkpt lat="43.60248" lon="7.03892">
        <ele>253</ele>
        <time>2009-06-19T11:22:49Z</time>
      </trkpt>
      <trkpt lat="43.60253" lon="7.03899">
        <ele>251</ele>
        <time>2009-06-19T11:22:53Z</time>
      </trkpt>
      <trkpt lat="43.60257" lon="7.03903">
        <ele>253</ele>
        <time>2009-06-19T11:22:59Z</time>
      </trkpt>
      <trkpt lat="43.60265" lon="7.03917">
        <ele>250</ele>
        <time>2009-06-19T11:23:08Z</time>
      </trkpt>
      <trkpt lat="43.6027" lon="7.03922">
        <ele>249</ele>
        <time>2009-06-19T11:23:09Z</time>
      </trkpt>
      <trkpt lat="43.60274" lon="7.03928">
        <ele>248</ele>
        <time>2009-06-19T11:23:10Z</time>
      </trkpt>
      <trkpt lat="43.60278" lon="7.03929">
        <ele>248</ele>
        <time>2009-06-19T11:23:18Z</time>
      </trkpt>
      <trkpt lat="43.60285" lon="7.03933">
        <ele>246</ele>
        <time>2009-06-19T11:23:19Z</time>
      </trkpt>
      <trkpt lat="43.60291" lon="7.03934">
        <ele>246</ele>
        <time>2009-06-19T11:23:24Z</time>
      </trkpt>
      <trkpt lat="43.60297" lon="7.03929">
        <ele>241</ele>
        <time>2009-06-19T11:23:46Z</time>
      </trkpt>
      <trkpt lat="43.60306" lon="7.03934">
        <ele>240</ele>
        <time>2009-06-19T11:23:50Z</time>
      </trkpt>
      <trkpt lat="43.60309" lon="7.0394">
        <ele>240</ele>
        <time>2009-06-19T11:23:54Z</time>
      </trkpt>
      <trkpt lat="43.60304" lon="7.03944">
        <ele>238</ele>
        <time>2009-06-19T11:23:55Z</time>
      </trkpt>
      <trkpt lat="43.60309" lon="7.03948">
        <ele>239</ele>
        <time>2009-06-19T11:23:59Z</time>
      </trkpt>
      <trkpt lat="43.60313" lon="7.03959">
        <ele>239</ele>
        <time>2009-06-19T11:24:01Z</time>
      </trkpt>
      <trkpt lat="43.60323" lon="7.0398">
        <ele>240</ele>
        <time>2009-06-19T11:24:10Z</time>
      </trkpt>
      <trkpt lat="43.60324" lon="7.03988">
        <ele>242</ele>
        <time>2009-06-19T11:24:12Z</time>
      </trkpt>
      <trkpt lat="43.60328" lon="7.03994">
        <ele>242</ele>
        <time>2009-06-19T11:24:15Z</time>
      </trkpt>
      <trkpt lat="43.60323" lon="7.0399">
        <ele>243</ele>
        <time>2009-06-19T11:24:16Z</time>
      </trkpt>
      <trkpt lat="43.60322" lon="7.03997">
        <ele>244</ele>
        <time>2009-06-19T11:24:21Z</time>
      </trkpt>
      <trkpt lat="43.60323" lon="7.04004">
        <ele>244</ele>
        <time>2009-06-19T11:24:25Z</time>
      </trkpt>
      <trkpt lat="43.60319" lon="7.04013">
        <ele>244</ele>
        <time>2009-06-19T11:24:27Z</time>
      </trkpt>
      <trkpt lat="43.60311" lon="7.04043">
        <ele>246</ele>
        <time>2009-06-19T11:24:37Z</time>
      </trkpt>
      <trkpt lat="43.60314" lon="7.0405">
        <ele>245</ele>
        <time>2009-06-19T11:24:38Z</time>
      </trkpt>
      <trkpt lat="43.60301" lon="7.04063">
        <ele>239</ele>
        <time>2009-06-19T11:24:39Z</time>
      </trkpt>
      <trkpt lat="43.60315" lon="7.04091">
        <ele>241</ele>
        <time>2009-06-19T11:24:47Z</time>
      </trkpt>
      <trkpt lat="43.60321" lon="7.04095">
        <ele>241</ele>
        <time>2009-06-19T11:24:48Z</time>
      </trkpt>
      <trkpt lat="43.60324" lon="7.04101">
        <ele>240</ele>
        <time>2009-06-19T11:24:49Z</time>
      </trkpt>
      <trkpt lat="43.60328" lon="7.04109">
        <ele>240</ele>
        <time>2009-06-19T11:24:52Z</time>
      </trkpt>
      <trkpt lat="43.60337" lon="7.04112">
        <ele>241</ele>
        <time>2009-06-19T11:24:53Z</time>
      </trkpt>
      <trkpt lat="43.60345" lon="7.04118">
        <ele>241</ele>
        <time>2009-06-19T11:24:54Z</time>
      </trkpt>
      <trkpt lat="43.60354" lon="7.04125">
        <ele>241</ele>
        <time>2009-06-19T11:24:57Z</time>
      </trkpt>
      <trkpt lat="43.60358" lon="7.0413">
        <ele>241</ele>
        <time>2009-06-19T11:24:58Z</time>
      </trkpt>
      <trkpt lat="43.60363" lon="7.04134">
        <ele>242</ele>
        <time>2009-06-19T11:24:59Z</time>
      </trkpt>
      <trkpt lat="43.60368" lon="7.0414">
        <ele>242</ele>
        <time>2009-06-19T11:25:00Z</time>
      </trkpt>
      <trkpt lat="43.60401" lon="7.04154">
        <ele>242</ele>
        <time>2009-06-19T11:25:09Z</time>
      </trkpt>
      <trkpt lat="43.60402" lon="7.04161">
        <ele>241</ele>
        <time>2009-06-19T11:25:10Z</time>
      </trkpt>
      <trkpt lat="43.60414" lon="7.0417">
        <ele>242</ele>
        <time>2009-06-19T11:25:12Z</time>
      </trkpt>
      <trkpt lat="43.60423" lon="7.04175">
        <ele>242</ele>
        <time>2009-06-19T11:25:15Z</time>
      </trkpt>
      <trkpt lat="43.60428" lon="7.04183">
        <ele>242</ele>
        <time>2009-06-19T11:25:16Z</time>
      </trkpt>
      <trkpt lat="43.60433" lon="7.04188">
        <ele>242</ele>
        <time>2009-06-19T11:25:17Z</time>
      </trkpt>
      <trkpt lat="43.60436" lon="7.04194">
        <ele>241</ele>
        <time>2009-06-19T11:25:18Z</time>
      </trkpt>
      <trkpt lat="43.60444" lon="7.04203">
        <ele>241</ele>
        <time>2009-06-19T11:25:21Z</time>
      </trkpt>
      <trkpt lat="43.60445" lon="7.04211">
        <ele>239</ele>
        <time>2009-06-19T11:25:22Z</time>
      </trkpt>
      <trkpt lat="43.60447" lon="7.04218">
        <ele>239</ele>
        <time>2009-06-19T11:25:24Z</time>
      </trkpt>
      <trkpt lat="43.60468" lon="7.04256">
        <ele>239</ele>
        <time>2009-06-19T11:25:33Z</time>
      </trkpt>
      <trkpt lat="43.60472" lon="7.04267">
        <ele>239</ele>
        <time>2009-06-19T11:25:35Z</time>
      </trkpt>
      <trkpt lat="43.60474" lon="7.04274">
        <ele>239</ele>
        <time>2009-06-19T11:25:38Z</time>
      </trkpt>
      <trkpt lat="43.60475" lon="7.04281">
        <ele>239</ele>
        <time>2009-06-19T11:25:39Z</time>
      </trkpt>
      <trkpt lat="43.60476" lon="7.04312">
        <ele>238</ele>
        <time>2009-06-19T11:25:44Z</time>
      </trkpt>
      <trkpt lat="43.60477" lon="7.04321">
        <ele>238</ele>
        <time>2009-06-19T11:25:48Z</time>
      </trkpt>
      <trkpt lat="43.60481" lon="7.04329">
        <ele>237</ele>
        <time>2009-06-19T11:25:49Z</time>
      </trkpt>
      <trkpt lat="43.60477" lon="7.04331">
        <ele>238</ele>
        <time>2009-06-19T11:25:50Z</time>
      </trkpt>
      <trkpt lat="43.60476" lon="7.04341">
        <ele>238</ele>
        <time>2009-06-19T11:25:53Z</time>
      </trkpt>
      <trkpt lat="43.60482" lon="7.04348">
        <ele>239</ele>
        <time>2009-06-19T11:25:54Z</time>
      </trkpt>
      <trkpt lat="43.60485" lon="7.04353">
        <ele>238</ele>
        <time>2009-06-19T11:25:55Z</time>
      </trkpt>
      <trkpt lat="43.60485" lon="7.04361">
        <ele>238</ele>
        <time>2009-06-19T11:25:58Z</time>
      </trkpt>
      <trkpt lat="43.6049" lon="7.04366">
        <ele>237</ele>
        <time>2009-06-19T11:25:59Z</time>
      </trkpt>
      <trkpt lat="43.60489" lon="7.04373">
        <ele>236</ele>
        <time>2009-06-19T11:26:00Z</time>
      </trkpt>
      <trkpt lat="43.60504" lon="7.04413">
        <ele>236</ele>
        <time>2009-06-19T11:26:09Z</time>
      </trkpt>
      <trkpt lat="43.60504" lon="7.04422">
        <ele>236</ele>
        <time>2009-06-19T11:26:10Z</time>
      </trkpt>
      <trkpt lat="43.60504" lon="7.04429">
        <ele>236</ele>
        <time>2009-06-19T11:26:12Z</time>
      </trkpt>
      <trkpt lat="43.60505" lon="7.04439">
        <ele>236</ele>
        <time>2009-06-19T11:26:14Z</time>
      </trkpt>
      <trkpt lat="43.60509" lon="7.04446">
        <ele>237</ele>
        <time>2009-06-19T11:26:15Z</time>
      </trkpt>
      <trkpt lat="43.60512" lon="7.04452">
        <ele>237</ele>
        <time>2009-06-19T11:26:16Z</time>
      </trkpt>
      <trkpt lat="43.60516" lon="7.04468">
        <ele>237</ele>
        <time>2009-06-19T11:26:21Z</time>
      </trkpt>
      <trkpt lat="43.60521" lon="7.0447">
        <ele>237</ele>
        <time>2009-06-19T11:26:22Z</time>
      </trkpt>
      <trkpt lat="43.60526" lon="7.0448">
        <ele>237</ele>
        <time>2009-06-19T11:26:23Z</time>
      </trkpt>
      <trkpt lat="43.60547" lon="7.04534">
        <ele>234</ele>
        <time>2009-06-19T11:26:33Z</time>
      </trkpt>
      <trkpt lat="43.60554" lon="7.04546">
        <ele>234</ele>
        <time>2009-06-19T11:26:34Z</time>
      </trkpt>
      <trkpt lat="43.60559" lon="7.04555">
        <ele>234</ele>
        <time>2009-06-19T11:26:35Z</time>
      </trkpt>
      <trkpt lat="43.60564" lon="7.04564">
        <ele>232</ele>
        <time>2009-06-19T11:26:36Z</time>
      </trkpt>
      <trkpt lat="43.6057" lon="7.04583">
        <ele>232</ele>
        <time>2009-06-19T11:26:39Z</time>
      </trkpt>
      <trkpt lat="43.60573" lon="7.04594">
        <ele>231</ele>
        <time>2009-06-19T11:26:41Z</time>
      </trkpt>
      <trkpt lat="43.60591" lon="7.04632">
        <ele>228</ele>
        <time>2009-06-19T11:26:47Z</time>
      </trkpt>
      <trkpt lat="43.60593" lon="7.04645">
        <ele>228</ele>
        <time>2009-06-19T11:26:50Z</time>
      </trkpt>
      <trkpt lat="43.60592" lon="7.04655">
        <ele>230</ele>
        <time>2009-06-19T11:26:51Z</time>
      </trkpt>
      <trkpt lat="43.60592" lon="7.04672">
        <ele>230</ele>
        <time>2009-06-19T11:26:55Z</time>
      </trkpt>
      <trkpt lat="43.60606" lon="7.0468">
        <ele>230</ele>
        <time>2009-06-19T11:26:56Z</time>
      </trkpt>
      <trkpt lat="43.60611" lon="7.0469">
        <ele>230</ele>
        <time>2009-06-19T11:26:57Z</time>
      </trkpt>
      <trkpt lat="43.60616" lon="7.04703">
        <ele>230</ele>
        <time>2009-06-19T11:27:00Z</time>
      </trkpt>
      <trkpt lat="43.60609" lon="7.04713">
        <ele>230</ele>
        <time>2009-06-19T11:27:01Z</time>
      </trkpt>
      <trkpt lat="43.60603" lon="7.04722">
        <ele>230</ele>
        <time>2009-06-19T11:27:02Z</time>
      </trkpt>
      <trkpt lat="43.60586" lon="7.04773">
        <ele>228</ele>
        <time>2009-06-19T11:27:11Z</time>
      </trkpt>
      <trkpt lat="43.60584" lon="7.0478">
        <ele>226</ele>
        <time>2009-06-19T11:27:12Z</time>
      </trkpt>
      <trkpt lat="43.60581" lon="7.04795">
        <ele>224</ele>
        <time>2009-06-19T11:27:16Z</time>
      </trkpt>
      <trkpt lat="43.60576" lon="7.04803">
        <ele>224</ele>
        <time>2009-06-19T11:27:17Z</time>
      </trkpt>
      <trkpt lat="43.6057" lon="7.04812">
        <ele>222</ele>
        <time>2009-06-19T11:27:18Z</time>
      </trkpt>
      <trkpt lat="43.60565" lon="7.04823">
        <ele>223</ele>
        <time>2009-06-19T11:27:21Z</time>
      </trkpt>
      <trkpt lat="43.60554" lon="7.04838">
        <ele>223</ele>
        <time>2009-06-19T11:27:22Z</time>
      </trkpt>
      <trkpt lat="43.60549" lon="7.04845">
        <ele>221</ele>
        <time>2009-06-19T11:27:23Z</time>
      </trkpt>
      <trkpt lat="43.60543" lon="7.04857">
        <ele>221</ele>
        <time>2009-06-19T11:27:26Z</time>
      </trkpt>
      <trkpt lat="43.60539" lon="7.04871">
        <ele>221</ele>
        <time>2009-06-19T11:27:27Z</time>
      </trkpt>
      <trkpt lat="43.60536" lon="7.04878">
        <ele>220</ele>
        <time>2009-06-19T11:27:28Z</time>
      </trkpt>
      <trkpt lat="43.60517" lon="7.04919">
        <ele>220</ele>
        <time>2009-06-19T11:27:37Z</time>
      </trkpt>
      <trkpt lat="43.6051" lon="7.04924">
        <ele>220</ele>
        <time>2009-06-19T11:27:38Z</time>
      </trkpt>
      <trkpt lat="43.60506" lon="7.04927">
        <ele>220</ele>
        <time>2009-06-19T11:27:39Z</time>
      </trkpt>
      <trkpt lat="43.60488" lon="7.04941">
        <ele>218</ele>
        <time>2009-06-19T11:27:45Z</time>
      </trkpt>
      <trkpt lat="43.60483" lon="7.04948">
        <ele>216</ele>
        <time>2009-06-19T11:27:49Z</time>
      </trkpt>
      <trkpt lat="43.6049" lon="7.04961">
        <ele>214</ele>
        <time>2009-06-19T11:27:54Z</time>
      </trkpt>
      <trkpt lat="43.60495" lon="7.04965">
        <ele>214</ele>
        <time>2009-06-19T11:27:58Z</time>
      </trkpt>
      <trkpt lat="43.60506" lon="7.04972">
        <ele>212</ele>
        <time>2009-06-19T11:28:00Z</time>
      </trkpt>
      <trkpt lat="43.6052" lon="7.04965">
        <ele>213</ele>
        <time>2009-06-19T11:28:08Z</time>
      </trkpt>
      <trkpt lat="43.60526" lon="7.04964">
        <ele>213</ele>
        <time>2009-06-19T11:28:09Z</time>
      </trkpt>
      <trkpt lat="43.60533" lon="7.04958">
        <ele>214</ele>
        <time>2009-06-19T11:28:12Z</time>
      </trkpt>
      <trkpt lat="43.6054" lon="7.04957">
        <ele>214</ele>
        <time>2009-06-19T11:28:13Z</time>
      </trkpt>
      <trkpt lat="43.6055" lon="7.04952">
        <ele>216</ele>
        <time>2009-06-19T11:28:16Z</time>
      </trkpt>
      <trkpt lat="43.60557" lon="7.04949">
        <ele>216</ele>
        <time>2009-06-19T11:28:17Z</time>
      </trkpt>
      <trkpt lat="43.6057" lon="7.04938">
        <ele>218</ele>
        <time>2009-06-19T11:28:20Z</time>
      </trkpt>
      <trkpt lat="43.60575" lon="7.04932">
        <ele>220</ele>
        <time>2009-06-19T11:28:21Z</time>
      </trkpt>
      <trkpt lat="43.60584" lon="7.04923">
        <ele>221</ele>
        <time>2009-06-19T11:28:24Z</time>
      </trkpt>
      <trkpt lat="43.60611" lon="7.04902">
        <ele>224</ele>
        <time>2009-06-19T11:28:33Z</time>
      </trkpt>
      <trkpt lat="43.60618" lon="7.04895">
        <ele>223</ele>
        <time>2009-06-19T11:28:34Z</time>
      </trkpt>
      <trkpt lat="43.60621" lon="7.04888">
        <ele>222</ele>
        <time>2009-06-19T11:28:35Z</time>
      </trkpt>
      <trkpt lat="43.60631" lon="7.04879">
        <ele>221</ele>
        <time>2009-06-19T11:28:38Z</time>
      </trkpt>
      <trkpt lat="43.60636" lon="7.04867">
        <ele>220</ele>
        <time>2009-06-19T11:28:39Z</time>
      </trkpt>
      <trkpt lat="43.60666" lon="7.04826">
        <ele>217</ele>
        <time>2009-06-19T11:28:46Z</time>
      </trkpt>
      <trkpt lat="43.60671" lon="7.04823">
        <ele>218</ele>
        <time>2009-06-19T11:28:47Z</time>
      </trkpt>
      <trkpt lat="43.60683" lon="7.04815">
        <ele>219</ele>
        <time>2009-06-19T11:28:50Z</time>
      </trkpt>
      <trkpt lat="43.60687" lon="7.04808">
        <ele>219</ele>
        <time>2009-06-19T11:28:51Z</time>
      </trkpt>
      <trkpt lat="43.60702" lon="7.04791">
        <ele>217</ele>
        <time>2009-06-19T11:28:54Z</time>
      </trkpt>
      <trkpt lat="43.60707" lon="7.04786">
        <ele>218</ele>
        <time>2009-06-19T11:28:55Z</time>
      </trkpt>
      <trkpt lat="43.60719" lon="7.04776">
        <ele>220</ele>
        <time>2009-06-19T11:28:58Z</time>
      </trkpt>
      <trkpt lat="43.60734" lon="7.04758">
        <ele>221</ele>
        <time>2009-06-19T11:29:02Z</time>
      </trkpt>
      <trkpt lat="43.60739" lon="7.04751">
        <ele>223</ele>
        <time>2009-06-19T11:29:03Z</time>
      </trkpt>
      <trkpt lat="43.60757" lon="7.04703">
        <ele>225</ele>
        <time>2009-06-19T11:29:11Z</time>
      </trkpt>
      <trkpt lat="43.60753" lon="7.04692">
        <ele>228</ele>
        <time>2009-06-19T11:29:13Z</time>
      </trkpt>
      <trkpt lat="43.60752" lon="7.04678">
        <ele>230</ele>
        <time>2009-06-19T11:29:16Z</time>
      </trkpt>
      <trkpt lat="43.60754" lon="7.04672">
        <ele>231</ele>
        <time>2009-06-19T11:29:17Z</time>
      </trkpt>
      <trkpt lat="43.6076" lon="7.0466">
        <ele>233</ele>
        <time>2009-06-19T11:29:20Z</time>
      </trkpt>
      <trkpt lat="43.60764" lon="7.04644">
        <ele>229</ele>
        <time>2009-06-19T11:29:21Z</time>
      </trkpt>
      <trkpt lat="43.60772" lon="7.04629">
        <ele>225</ele>
        <time>2009-06-19T11:29:24Z</time>
      </trkpt>
      <trkpt lat="43.60776" lon="7.04619">
        <ele>224</ele>
        <time>2009-06-19T11:29:25Z</time>
      </trkpt>
      <trkpt lat="43.6078" lon="7.04611">
        <ele>223</ele>
        <time>2009-06-19T11:29:26Z</time>
      </trkpt>
      <trkpt lat="43.60801" lon="7.04606">
        <ele>225</ele>
        <time>2009-06-19T11:29:34Z</time>
      </trkpt>
      <trkpt lat="43.60807" lon="7.04599">
        <ele>225</ele>
        <time>2009-06-19T11:29:35Z</time>
      </trkpt>
      <trkpt lat="43.60813" lon="7.04596">
        <ele>226</ele>
        <time>2009-06-19T11:29:36Z</time>
      </trkpt>
      <trkpt lat="43.6082" lon="7.04594">
        <ele>224</ele>
        <time>2009-06-19T11:29:39Z</time>
      </trkpt>
      <trkpt lat="43.60824" lon="7.04584">
        <ele>213</ele>
        <time>2009-06-19T11:29:40Z</time>
      </trkpt>
      <trkpt lat="43.60835" lon="7.04593">
        <ele>204</ele>
        <time>2009-06-19T11:29:46Z</time>
      </trkpt>
      <trkpt lat="43.60837" lon="7.04602">
        <ele>205</ele>
        <time>2009-06-19T11:29:49Z</time>
      </trkpt>
      <trkpt lat="43.60841" lon="7.04607">
        <ele>205</ele>
        <time>2009-06-19T11:29:50Z</time>
      </trkpt>
      <trkpt lat="43.60842" lon="7.04617">
        <ele>206</ele>
        <time>2009-06-19T11:29:53Z</time>
      </trkpt>
      <trkpt lat="43.60841" lon="7.04633">
        <ele>206</ele>
        <time>2009-06-19T11:29:57Z</time>
      </trkpt>
      <trkpt lat="43.60834" lon="7.04653">
        <ele>206</ele>
        <time>2009-06-19T11:30:01Z</time>
      </trkpt>
      <trkpt lat="43.60831" lon="7.04681">
        <ele>205</ele>
        <time>2009-06-19T11:30:10Z</time>
      </trkpt>
      <trkpt lat="43.60834" lon="7.04687">
        <ele>204</ele>
        <time>2009-06-19T11:30:11Z</time>
      </trkpt>
      <trkpt lat="43.60839" lon="7.04692">
        <ele>203</ele>
        <time>2009-06-19T11:30:12Z</time>
      </trkpt>
      <trkpt lat="43.60844" lon="7.04696">
        <ele>204</ele>
        <time>2009-06-19T11:30:15Z</time>
      </trkpt>
      <trkpt lat="43.60849" lon="7.04701">
        <ele>206</ele>
        <time>2009-06-19T11:30:17Z</time>
      </trkpt>
      <trkpt lat="43.60855" lon="7.04708">
        <ele>206</ele>
        <time>2009-06-19T11:30:20Z</time>
      </trkpt>
      <trkpt lat="43.60857" lon="7.04714">
        <ele>206</ele>
        <time>2009-06-19T11:30:22Z</time>
      </trkpt>
      <trkpt lat="43.60862" lon="7.0472">
        <ele>207</ele>
        <time>2009-06-19T11:30:25Z</time>
      </trkpt>
      <trkpt lat="43.6087" lon="7.04724">
        <ele>207</ele>
        <time>2009-06-19T11:30:26Z</time>
      </trkpt>
      <trkpt lat="43.6088" lon="7.0473">
        <ele>206</ele>
        <time>2009-06-19T11:30:27Z</time>
      </trkpt>
      <trkpt lat="43.60922" lon="7.04731">
        <ele>205</ele>
        <time>2009-06-19T11:30:35Z</time>
      </trkpt>
      <trkpt lat="43.60928" lon="7.04726">
        <ele>206</ele>
        <time>2009-06-19T11:30:36Z</time>
      </trkpt>
      <trkpt lat="43.6094" lon="7.04724">
        <ele>208</ele>
        <time>2009-06-19T11:30:39Z</time>
      </trkpt>
      <trkpt lat="43.60967" lon="7.04698">
        <ele>212</ele>
        <time>2009-06-19T11:30:47Z</time>
      </trkpt>
      <trkpt lat="43.60978" lon="7.04692">
        <ele>213</ele>
        <time>2009-06-19T11:30:51Z</time>
      </trkpt>
      <trkpt lat="43.60983" lon="7.04688">
        <ele>213</ele>
        <time>2009-06-19T11:30:52Z</time>
      </trkpt>
      <trkpt lat="43.60991" lon="7.04684">
        <ele>214</ele>
        <time>2009-06-19T11:30:55Z</time>
      </trkpt>
      <trkpt lat="43.60995" lon="7.04678">
        <ele>214</ele>
        <time>2009-06-19T11:30:56Z</time>
      </trkpt>
      <trkpt lat="43.61004" lon="7.0467">
        <ele>215</ele>
        <time>2009-06-19T11:30:59Z</time>
      </trkpt>
      <trkpt lat="43.61008" lon="7.04665">
        <ele>215</ele>
        <time>2009-06-19T11:31:00Z</time>
      </trkpt>
      <trkpt lat="43.61032" lon="7.0466">
        <ele>216</ele>
        <time>2009-06-19T11:31:08Z</time>
      </trkpt>
      <trkpt lat="43.61042" lon="7.04653">
        <ele>217</ele>
        <time>2009-06-19T11:31:09Z</time>
      </trkpt>
      <trkpt lat="43.61056" lon="7.04635">
        <ele>220</ele>
        <time>2009-06-19T11:31:11Z</time>
      </trkpt>
      <trkpt lat="43.61061" lon="7.04631">
        <ele>220</ele>
        <time>2009-06-19T11:31:12Z</time>
      </trkpt>
      <trkpt lat="43.61069" lon="7.04631">
        <ele>217</ele>
        <time>2009-06-19T11:31:15Z</time>
      </trkpt>
      <trkpt lat="43.61076" lon="7.04631">
        <ele>210</ele>
        <time>2009-06-19T11:31:19Z</time>
      </trkpt>
      <trkpt lat="43.61079" lon="7.04637">
        <ele>209</ele>
        <time>2009-06-19T11:31:25Z</time>
      </trkpt>
      <trkpt lat="43.61084" lon="7.04652">
        <ele>210</ele>
        <time>2009-06-19T11:31:33Z</time>
      </trkpt>
      <trkpt lat="43.61082" lon="7.0466">
        <ele>210</ele>
        <time>2009-06-19T11:31:35Z</time>
      </trkpt>
      <trkpt lat="43.61084" lon="7.04667">
        <ele>210</ele>
        <time>2009-06-19T11:31:38Z</time>
      </trkpt>
      <trkpt lat="43.61091" lon="7.04703">
        <ele>209</ele>
        <time>2009-06-19T11:31:47Z</time>
      </trkpt>
      <trkpt lat="43.61095" lon="7.04708">
        <ele>207</ele>
        <time>2009-06-19T11:31:48Z</time>
      </trkpt>
      <trkpt lat="43.61098" lon="7.04721">
        <ele>206</ele>
        <time>2009-06-19T11:31:52Z</time>
      </trkpt>
      <trkpt lat="43.61091" lon="7.04729">
        <ele>204</ele>
        <time>2009-06-19T11:31:53Z</time>
      </trkpt>
      <trkpt lat="43.61087" lon="7.0474">
        <ele>202</ele>
        <time>2009-06-19T11:31:56Z</time>
      </trkpt>
      <trkpt lat="43.61091" lon="7.04749">
        <ele>200</ele>
        <time>2009-06-19T11:32:00Z</time>
      </trkpt>
      <trkpt lat="43.61104" lon="7.0476">
        <ele>200</ele>
        <time>2009-06-19T11:32:09Z</time>
      </trkpt>
      <trkpt lat="43.6111" lon="7.04762">
        <ele>199</ele>
        <time>2009-06-19T11:32:10Z</time>
      </trkpt>
      <trkpt lat="43.61115" lon="7.04768">
        <ele>199</ele>
        <time>2009-06-19T11:32:14Z</time>
      </trkpt>
      <trkpt lat="43.61124" lon="7.04771">
        <ele>199</ele>
        <time>2009-06-19T11:32:18Z</time>
      </trkpt>
      <trkpt lat="43.61135" lon="7.04771">
        <ele>199</ele>
        <time>2009-06-19T11:32:22Z</time>
      </trkpt>
      <trkpt lat="43.61145" lon="7.04769">
        <ele>199</ele>
        <time>2009-06-19T11:32:26Z</time>
      </trkpt>
      <trkpt lat="43.61167" lon="7.04764">
        <ele>198</ele>
        <time>2009-06-19T11:32:35Z</time>
      </trkpt>
      <trkpt lat="43.61175" lon="7.04758">
        <ele>198</ele>
        <time>2009-06-19T11:32:39Z</time>
      </trkpt>
      <trkpt lat="43.61182" lon="7.04749">
        <ele>198</ele>
        <time>2009-06-19T11:32:44Z</time>
      </trkpt>
      <trkpt lat="43.61187" lon="7.04742">
        <ele>198</ele>
        <time>2009-06-19T11:32:47Z</time>
      </trkpt>
      <trkpt lat="43.61191" lon="7.0474">
        <ele>197</ele>
        <time>2009-06-19T11:32:51Z</time>
      </trkpt>
      <trkpt lat="43.61196" lon="7.04734">
        <ele>198</ele>
        <time>2009-06-19T11:32:55Z</time>
      </trkpt>
      <trkpt lat="43.61201" lon="7.04728">
        <ele>198</ele>
        <time>2009-06-19T11:32:59Z</time>
      </trkpt>
      <trkpt lat="43.61218" lon="7.04729">
        <ele>198</ele>
        <time>2009-06-19T11:33:08Z</time>
      </trkpt>
      <trkpt lat="43.61223" lon="7.04728">
        <ele>198</ele>
        <time>2009-06-19T11:33:09Z</time>
      </trkpt>
      <trkpt lat="43.61236" lon="7.04732">
        <ele>198</ele>
        <time>2009-06-19T11:33:12Z</time>
      </trkpt>
      <trkpt lat="43.61244" lon="7.04732">
        <ele>199</ele>
        <time>2009-06-19T11:33:16Z</time>
      </trkpt>
      <trkpt lat="43.6125" lon="7.04723">
        <ele>200</ele>
        <time>2009-06-19T11:33:20Z</time>
      </trkpt>
      <trkpt lat="43.61253" lon="7.04718">
        <ele>201</ele>
        <time>2009-06-19T11:33:21Z</time>
      </trkpt>
      <trkpt lat="43.61258" lon="7.04714">
        <ele>201</ele>
        <time>2009-06-19T11:33:24Z</time>
      </trkpt>
      <trkpt lat="43.61269" lon="7.04699">
        <ele>203</ele>
        <time>2009-06-19T11:33:33Z</time>
      </trkpt>
      <trkpt lat="43.6127" lon="7.04692">
        <ele>204</ele>
        <time>2009-06-19T11:33:34Z</time>
      </trkpt>
      <trkpt lat="43.61273" lon="7.04677">
        <ele>206</ele>
        <time>2009-06-19T11:33:38Z</time>
      </trkpt>
      <trkpt lat="43.61276" lon="7.0467">
        <ele>207</ele>
        <time>2009-06-19T11:33:39Z</time>
      </trkpt>
      <trkpt lat="43.61279" lon="7.04664">
        <ele>208</ele>
        <time>2009-06-19T11:33:40Z</time>
      </trkpt>
      <trkpt lat="43.61287" lon="7.0464">
        <ele>211</ele>
        <time>2009-06-19T11:33:47Z</time>
      </trkpt>
      <trkpt lat="43.61292" lon="7.0463">
        <ele>211</ele>
        <time>2009-06-19T11:33:48Z</time>
      </trkpt>
      <trkpt lat="43.61293" lon="7.04622">
        <ele>211</ele>
        <time>2009-06-19T11:33:51Z</time>
      </trkpt>
      <trkpt lat="43.61299" lon="7.04608">
        <ele>212</ele>
        <time>2009-06-19T11:33:55Z</time>
      </trkpt>
      <trkpt lat="43.61301" lon="7.04595">
        <ele>210</ele>
        <time>2009-06-19T11:33:59Z</time>
      </trkpt>
      <trkpt lat="43.61302" lon="7.04587">
        <ele>212</ele>
        <time>2009-06-19T11:34:00Z</time>
      </trkpt>
      <trkpt lat="43.6131" lon="7.04556">
        <ele>214</ele>
        <time>2009-06-19T11:34:08Z</time>
      </trkpt>
      <trkpt lat="43.61315" lon="7.04545">
        <ele>215</ele>
        <time>2009-06-19T11:34:09Z</time>
      </trkpt>
      <trkpt lat="43.61317" lon="7.04531">
        <ele>216</ele>
        <time>2009-06-19T11:34:10Z</time>
      </trkpt>
      <trkpt lat="43.61323" lon="7.04506">
        <ele>216</ele>
        <time>2009-06-19T11:34:13Z</time>
      </trkpt>
      <trkpt lat="43.61327" lon="7.04493">
        <ele>214</ele>
        <time>2009-06-19T11:34:14Z</time>
      </trkpt>
      <trkpt lat="43.61336" lon="7.04472">
        <ele>214</ele>
        <time>2009-06-19T11:34:18Z</time>
      </trkpt>
      <trkpt lat="43.61339" lon="7.04464">
        <ele>213</ele>
        <time>2009-06-19T11:34:19Z</time>
      </trkpt>
      <trkpt lat="43.61346" lon="7.04451">
        <ele>212</ele>
        <time>2009-06-19T11:34:22Z</time>
      </trkpt>
      <trkpt lat="43.61358" lon="7.04421">
        <ele>213</ele>
        <time>2009-06-19T11:34:31Z</time>
      </trkpt>
      <trkpt lat="43.61362" lon="7.0441">
        <ele>213</ele>
        <time>2009-06-19T11:34:35Z</time>
      </trkpt>
      <trkpt lat="43.61363" lon="7.04402">
        <ele>211</ele>
        <time>2009-06-19T11:34:36Z</time>
      </trkpt>
      <trkpt lat="43.61363" lon="7.04381">
        <ele>211</ele>
        <time>2009-06-19T11:34:39Z</time>
      </trkpt>
      <trkpt lat="43.61371" lon="7.04361">
        <ele>208</ele>
        <time>2009-06-19T11:34:44Z</time>
      </trkpt>
      <trkpt lat="43.61377" lon="7.0435">
        <ele>209</ele>
        <time>2009-06-19T11:34:47Z</time>
      </trkpt>
      <trkpt lat="43.61388" lon="7.0434">
        <ele>208</ele>
        <time>2009-06-19T11:34:51Z</time>
      </trkpt>
      <trkpt lat="43.61391" lon="7.04336">
        <ele>208</ele>
        <time>2009-06-19T11:34:52Z</time>
      </trkpt>
      <trkpt lat="43.614" lon="7.04335">
        <ele>208</ele>
        <time>2009-06-19T11:34:58Z</time>
      </trkpt>
      <trkpt lat="43.61407" lon="7.04325">
        <ele>208</ele>
        <time>2009-06-19T11:35:08Z</time>
      </trkpt>
      <trkpt lat="43.61413" lon="7.04312">
        <ele>208</ele>
        <time>2009-06-19T11:35:10Z</time>
      </trkpt>
      <trkpt lat="43.61422" lon="7.04304">
        <ele>208</ele>
        <time>2009-06-19T11:35:13Z</time>
      </trkpt>
      <trkpt lat="43.61426" lon="7.04301">
        <ele>207</ele>
        <time>2009-06-19T11:35:14Z</time>
      </trkpt>
      <trkpt lat="43.61437" lon="7.04291">
        <ele>206</ele>
        <time>2009-06-19T11:35:18Z</time>
      </trkpt>
      <trkpt lat="43.61441" lon="7.04285">
        <ele>206</ele>
        <time>2009-06-19T11:35:19Z</time>
      </trkpt>
      <trkpt lat="43.61444" lon="7.0428">
        <ele>206</ele>
        <time>2009-06-19T11:35:20Z</time>
      </trkpt>
      <trkpt lat="43.61452" lon="7.0427">
        <ele>207</ele>
        <time>2009-06-19T11:35:23Z</time>
      </trkpt>
      <trkpt lat="43.61456" lon="7.04265">
        <ele>206</ele>
        <time>2009-06-19T11:35:24Z</time>
      </trkpt>
      <trkpt lat="43.61477" lon="7.04233">
        <ele>206</ele>
        <time>2009-06-19T11:35:33Z</time>
      </trkpt>
      <trkpt lat="43.61481" lon="7.04229">
        <ele>206</ele>
        <time>2009-06-19T11:35:34Z</time>
      </trkpt>
      <trkpt lat="43.61489" lon="7.04213">
        <ele>206</ele>
        <time>2009-06-19T11:35:38Z</time>
      </trkpt>
      <trkpt lat="43.61492" lon="7.04208">
        <ele>205</ele>
        <time>2009-06-19T11:35:39Z</time>
      </trkpt>
      <trkpt lat="43.61494" lon="7.04202">
        <ele>205</ele>
        <time>2009-06-19T11:35:40Z</time>
      </trkpt>
      <trkpt lat="43.61506" lon="7.04186">
        <ele>204</ele>
        <time>2009-06-19T11:35:45Z</time>
      </trkpt>
      <trkpt lat="43.61512" lon="7.04178">
        <ele>204</ele>
        <time>2009-06-19T11:35:48Z</time>
      </trkpt>
      <trkpt lat="43.61515" lon="7.04172">
        <ele>202</ele>
        <time>2009-06-19T11:35:55Z</time>
      </trkpt>
      <trkpt lat="43.61522" lon="7.04173">
        <ele>201</ele>
        <time>2009-06-19T11:36:00Z</time>
      </trkpt>
      <trkpt lat="43.61545" lon="7.04164">
        <ele>201</ele>
        <time>2009-06-19T11:36:09Z</time>
      </trkpt>
      <trkpt lat="43.61551" lon="7.04161">
        <ele>200</ele>
        <time>2009-06-19T11:36:10Z</time>
      </trkpt>
      <trkpt lat="43.61561" lon="7.04155">
        <ele>199</ele>
        <time>2009-06-19T11:36:14Z</time>
      </trkpt>
      <trkpt lat="43.61569" lon="7.04149">
        <ele>194</ele>
        <time>2009-06-19T11:36:16Z</time>
      </trkpt>
      <trkpt lat="43.61575" lon="7.04144">
        <ele>193</ele>
        <time>2009-06-19T11:36:19Z</time>
      </trkpt>
      <trkpt lat="43.61588" lon="7.0414">
        <ele>188</ele>
        <time>2009-06-19T11:36:23Z</time>
      </trkpt>
      <trkpt lat="43.61611" lon="7.04159">
        <ele>190</ele>
        <time>2009-06-19T11:36:32Z</time>
      </trkpt>
      <trkpt lat="43.61615" lon="7.04165">
        <ele>188</ele>
        <time>2009-06-19T11:36:33Z</time>
      </trkpt>
      <trkpt lat="43.61626" lon="7.0418">
        <ele>188</ele>
        <time>2009-06-19T11:36:36Z</time>
      </trkpt>
      <trkpt lat="43.61629" lon="7.04186">
        <ele>188</ele>
        <time>2009-06-19T11:36:37Z</time>
      </trkpt>
      <trkpt lat="43.61634" lon="7.04204">
        <ele>188</ele>
        <time>2009-06-19T11:36:40Z</time>
      </trkpt>
      <trkpt lat="43.61637" lon="7.04211">
        <ele>189</ele>
        <time>2009-06-19T11:36:41Z</time>
      </trkpt>
      <trkpt lat="43.61643" lon="7.04234">
        <ele>188</ele>
        <time>2009-06-19T11:36:45Z</time>
      </trkpt>
      <trkpt lat="43.61645" lon="7.04252">
        <ele>189</ele>
        <time>2009-06-19T11:36:48Z</time>
      </trkpt>
      <trkpt lat="43.61647" lon="7.04266">
        <ele>188</ele>
        <time>2009-06-19T11:36:52Z</time>
      </trkpt>
      <trkpt lat="43.61645" lon="7.04281">
        <ele>188</ele>
        <time>2009-06-19T11:36:56Z</time>
      </trkpt>
      <trkpt lat="43.61645" lon="7.04298">
        <ele>188</ele>
        <time>2009-06-19T11:37:00Z</time>
      </trkpt>
      <trkpt lat="43.61663" lon="7.04341">
        <ele>189</ele>
        <time>2009-06-19T11:37:09Z</time>
      </trkpt>
      <trkpt lat="43.61668" lon="7.04349">
        <ele>189</ele>
        <time>2009-06-19T11:37:10Z</time>
      </trkpt>
      <trkpt lat="43.61673" lon="7.04356">
        <ele>188</ele>
        <time>2009-06-19T11:37:11Z</time>
      </trkpt>
      <trkpt lat="43.61684" lon="7.04374">
        <ele>187</ele>
        <time>2009-06-19T11:37:14Z</time>
      </trkpt>
      <trkpt lat="43.61689" lon="7.04381">
        <ele>187</ele>
        <time>2009-06-19T11:37:15Z</time>
      </trkpt>
      <trkpt lat="43.61692" lon="7.04388">
        <ele>186</ele>
        <time>2009-06-19T11:37:16Z</time>
      </trkpt>
      <trkpt lat="43.61692" lon="7.04401">
        <ele>187</ele>
        <time>2009-06-19T11:37:19Z</time>
      </trkpt>
      <trkpt lat="43.61691" lon="7.04414">
        <ele>188</ele>
        <time>2009-06-19T11:37:21Z</time>
      </trkpt>
      <trkpt lat="43.61688" lon="7.04424">
        <ele>188</ele>
        <time>2009-06-19T11:37:24Z</time>
      </trkpt>
      <trkpt lat="43.61687" lon="7.04453">
        <ele>189</ele>
        <time>2009-06-19T11:37:33Z</time>
      </trkpt>
      <trkpt lat="43.61694" lon="7.04459">
        <ele>191</ele>
        <time>2009-06-19T11:37:34Z</time>
      </trkpt>
      <trkpt lat="43.617" lon="7.04465">
        <ele>191</ele>
        <time>2009-06-19T11:37:35Z</time>
      </trkpt>
      <trkpt lat="43.61717" lon="7.04485">
        <ele>195</ele>
        <time>2009-06-19T11:37:38Z</time>
      </trkpt>
      <trkpt lat="43.61724" lon="7.04493">
        <ele>196</ele>
        <time>2009-06-19T11:37:39Z</time>
      </trkpt>
      <trkpt lat="43.6173" lon="7.045">
        <ele>197</ele>
        <time>2009-06-19T11:37:40Z</time>
      </trkpt>
      <trkpt lat="43.61744" lon="7.04526">
        <ele>200</ele>
        <time>2009-06-19T11:37:45Z</time>
      </trkpt>
      <trkpt lat="43.61751" lon="7.04538">
        <ele>202</ele>
        <time>2009-06-19T11:37:48Z</time>
      </trkpt>
      <trkpt lat="43.61753" lon="7.04544">
        <ele>202</ele>
        <time>2009-06-19T11:37:49Z</time>
      </trkpt>
      <trkpt lat="43.61757" lon="7.04549">
        <ele>202</ele>
        <time>2009-06-19T11:37:50Z</time>
      </trkpt>
      <trkpt lat="43.6176" lon="7.04563">
        <ele>203</ele>
        <time>2009-06-19T11:37:53Z</time>
      </trkpt>
      <trkpt lat="43.61762" lon="7.04569">
        <ele>203</ele>
        <time>2009-06-19T11:37:54Z</time>
      </trkpt>
      <trkpt lat="43.61773" lon="7.04592">
        <ele>202</ele>
        <time>2009-06-19T11:37:58Z</time>
      </trkpt>
      <trkpt lat="43.61776" lon="7.04599">
        <ele>201</ele>
        <time>2009-06-19T11:37:59Z</time>
      </trkpt>
      <trkpt lat="43.61778" lon="7.04607">
        <ele>198</ele>
        <time>2009-06-19T11:38:00Z</time>
      </trkpt>
      <trkpt lat="43.61795" lon="7.04652">
        <ele>200</ele>
        <time>2009-06-19T11:38:08Z</time>
      </trkpt>
      <trkpt lat="43.61799" lon="7.04662">
        <ele>199</ele>
        <time>2009-06-19T11:38:10Z</time>
      </trkpt>
      <trkpt lat="43.61817" lon="7.04688">
        <ele>197</ele>
        <time>2009-06-19T11:38:13Z</time>
      </trkpt>
      <trkpt lat="43.61824" lon="7.04699">
        <ele>196</ele>
        <time>2009-06-19T11:38:14Z</time>
      </trkpt>
      <trkpt lat="43.61827" lon="7.04708">
        <ele>195</ele>
        <time>2009-06-19T11:38:15Z</time>
      </trkpt>
      <trkpt lat="43.61838" lon="7.04726">
        <ele>196</ele>
        <time>2009-06-19T11:38:18Z</time>
      </trkpt>
      <trkpt lat="43.61843" lon="7.04734">
        <ele>195</ele>
        <time>2009-06-19T11:38:19Z</time>
      </trkpt>
      <trkpt lat="43.61845" lon="7.04742">
        <ele>194</ele>
        <time>2009-06-19T11:38:20Z</time>
      </trkpt>
      <trkpt lat="43.61854" lon="7.04758">
        <ele>194</ele>
        <time>2009-06-19T11:38:23Z</time>
      </trkpt>
      <trkpt lat="43.6186" lon="7.04763">
        <ele>193</ele>
        <time>2009-06-19T11:38:24Z</time>
      </trkpt>
      <trkpt lat="43.61862" lon="7.04769">
        <ele>192</ele>
        <time>2009-06-19T11:38:25Z</time>
      </trkpt>
      <trkpt lat="43.61887" lon="7.04814">
        <ele>193</ele>
        <time>2009-06-19T11:38:33Z</time>
      </trkpt>
      <trkpt lat="43.61894" lon="7.04825">
        <ele>190</ele>
        <time>2009-06-19T11:38:34Z</time>
      </trkpt>
      <trkpt lat="43.61899" lon="7.04833">
        <ele>188</ele>
        <time>2009-06-19T11:38:35Z</time>
      </trkpt>
      <trkpt lat="43.61911" lon="7.0485">
        <ele>187</ele>
        <time>2009-06-19T11:38:38Z</time>
      </trkpt>
      <trkpt lat="43.6192" lon="7.0486">
        <ele>186</ele>
        <time>2009-06-19T11:38:40Z</time>
      </trkpt>
      <trkpt lat="43.61969" lon="7.04884">
        <ele>183</ele>
        <time>2009-06-19T11:38:47Z</time>
      </trkpt>
      <trkpt lat="43.61975" lon="7.04886">
        <ele>184</ele>
        <time>2009-06-19T11:38:48Z</time>
      </trkpt>
      <trkpt lat="43.61995" lon="7.04892">
        <ele>183</ele>
        <time>2009-06-19T11:38:51Z</time>
      </trkpt>
      <trkpt lat="43.62002" lon="7.04893">
        <ele>183</ele>
        <time>2009-06-19T11:38:52Z</time>
      </trkpt>
      <trkpt lat="43.62015" lon="7.049">
        <ele>183</ele>
        <time>2009-06-19T11:38:55Z</time>
      </trkpt>
      <trkpt lat="43.6202" lon="7.04901">
        <ele>183</ele>
        <time>2009-06-19T11:38:56Z</time>
      </trkpt>
      <trkpt lat="43.62037" lon="7.04916">
        <ele>181</ele>
        <time>2009-06-19T11:38:59Z</time>
      </trkpt>
      <trkpt lat="43.62042" lon="7.04919">
        <ele>181</ele>
        <time>2009-06-19T11:39:00Z</time>
      </trkpt>
      <trkpt lat="43.62068" lon="7.04957">
        <ele>181</ele>
        <time>2009-06-19T11:39:08Z</time>
      </trkpt>
      <trkpt lat="43.62072" lon="7.04963">
        <ele>181</ele>
        <time>2009-06-19T11:39:09Z</time>
      </trkpt>
      <trkpt lat="43.62072" lon="7.04969">
        <ele>180</ele>
        <time>2009-06-19T11:39:10Z</time>
      </trkpt>
      <trkpt lat="43.6207" lon="7.04981">
        <ele>180</ele>
        <time>2009-06-19T11:39:13Z</time>
      </trkpt>
      <trkpt lat="43.62063" lon="7.04991">
        <ele>179</ele>
        <time>2009-06-19T11:39:17Z</time>
      </trkpt>
      <trkpt lat="43.62058" lon="7.05">
        <ele>178</ele>
        <time>2009-06-19T11:39:21Z</time>
      </trkpt>
      <trkpt lat="43.62062" lon="7.05004">
        <ele>177</ele>
        <time>2009-06-19T11:39:22Z</time>
      </trkpt>
      <trkpt lat="43.62053" lon="7.05033">
        <ele>180</ele>
        <time>2009-06-19T11:39:31Z</time>
      </trkpt>
      <trkpt lat="43.62055" lon="7.05054">
        <ele>181</ele>
        <time>2009-06-19T11:39:35Z</time>
      </trkpt>
      <trkpt lat="43.62053" lon="7.05066">
        <ele>181</ele>
        <time>2009-06-19T11:39:36Z</time>
      </trkpt>
      <trkpt lat="43.62055" lon="7.05077">
        <ele>181</ele>
        <time>2009-06-19T11:39:37Z</time>
      </trkpt>
      <trkpt lat="43.62052" lon="7.05104">
        <ele>183</ele>
        <time>2009-06-19T11:39:40Z</time>
      </trkpt>
      <trkpt lat="43.62049" lon="7.05114">
        <ele>182</ele>
        <time>2009-06-19T11:39:41Z</time>
      </trkpt>
      <trkpt lat="43.62043" lon="7.0515">
        <ele>185</ele>
        <time>2009-06-19T11:39:46Z</time>
      </trkpt>
      <trkpt lat="43.62046" lon="7.05157">
        <ele>184</ele>
        <time>2009-06-19T11:39:47Z</time>
      </trkpt>
      <trkpt lat="43.62053" lon="7.05175">
        <ele>187</ele>
        <time>2009-06-19T11:39:50Z</time>
      </trkpt>
      <trkpt lat="43.62049" lon="7.05187">
        <ele>188</ele>
        <time>2009-06-19T11:39:52Z</time>
      </trkpt>
      <trkpt lat="43.6205" lon="7.05204">
        <ele>188</ele>
        <time>2009-06-19T11:39:54Z</time>
      </trkpt>
      <trkpt lat="43.62046" lon="7.05216">
        <ele>188</ele>
        <time>2009-06-19T11:39:55Z</time>
      </trkpt>
      <trkpt lat="43.6205" lon="7.05228">
        <ele>188</ele>
        <time>2009-06-19T11:39:56Z</time>
      </trkpt>
      <trkpt lat="43.62053" lon="7.05274">
        <ele>190</ele>
        <time>2009-06-19T11:40:05Z</time>
      </trkpt>
      <trkpt lat="43.62052" lon="7.05283">
        <ele>189</ele>
        <time>2009-06-19T11:40:06Z</time>
      </trkpt>
      <trkpt lat="43.62051" lon="7.05293">
        <ele>187</ele>
        <time>2009-06-19T11:40:07Z</time>
      </trkpt>
      <trkpt lat="43.6205" lon="7.05306">
        <ele>187</ele>
        <time>2009-06-19T11:40:10Z</time>
      </trkpt>
      <trkpt lat="43.62054" lon="7.05315">
        <ele>187</ele>
        <time>2009-06-19T11:40:11Z</time>
      </trkpt>
      <trkpt lat="43.62051" lon="7.05328">
        <ele>187</ele>
        <time>2009-06-19T11:40:12Z</time>
      </trkpt>
      <trkpt lat="43.62052" lon="7.05343">
        <ele>187</ele>
        <time>2009-06-19T11:40:15Z</time>
      </trkpt>
      <trkpt lat="43.62055" lon="7.05358">
        <ele>183</ele>
        <time>2009-06-19T11:40:16Z</time>
      </trkpt>
      <trkpt lat="43.62052" lon="7.05373">
        <ele>176</ele>
        <time>2009-06-19T11:40:17Z</time>
      </trkpt>
      <trkpt lat="43.62056" lon="7.05389">
        <ele>176</ele>
        <time>2009-06-19T11:40:20Z</time>
      </trkpt>
      <trkpt lat="43.6206" lon="7.05396">
        <ele>177</ele>
        <time>2009-06-19T11:40:21Z</time>
      </trkpt>
      <trkpt lat="43.62064" lon="7.05401">
        <ele>176</ele>
        <time>2009-06-19T11:40:22Z</time>
      </trkpt>
      <trkpt lat="43.6207" lon="7.05426">
        <ele>175</ele>
        <time>2009-06-19T11:40:31Z</time>
      </trkpt>
      <trkpt lat="43.62078" lon="7.05427">
        <ele>172</ele>
        <time>2009-06-19T11:40:36Z</time>
      </trkpt>
      <trkpt lat="43.62083" lon="7.05427">
        <ele>172</ele>
        <time>2009-06-19T11:40:37Z</time>
      </trkpt>
      <trkpt lat="43.62092" lon="7.05431">
        <ele>171</ele>
        <time>2009-06-19T11:40:41Z</time>
      </trkpt>
      <trkpt lat="43.6211" lon="7.05438">
        <ele>171</ele>
        <time>2009-06-19T11:40:46Z</time>
      </trkpt>
      <trkpt lat="43.62117" lon="7.05443">
        <ele>171</ele>
        <time>2009-06-19T11:40:49Z</time>
      </trkpt>
      <trkpt lat="43.62123" lon="7.05452">
        <ele>170</ele>
        <time>2009-06-19T11:40:50Z</time>
      </trkpt>
      <trkpt lat="43.6213" lon="7.05461">
        <ele>171</ele>
        <time>2009-06-19T11:40:53Z</time>
      </trkpt>
      <trkpt lat="43.6213" lon="7.05468">
        <ele>171</ele>
        <time>2009-06-19T11:40:54Z</time>
      </trkpt>
      <trkpt lat="43.62135" lon="7.05479">
        <ele>171</ele>
        <time>2009-06-19T11:40:57Z</time>
      </trkpt>
      <trkpt lat="43.62141" lon="7.05495">
        <ele>172</ele>
        <time>2009-06-19T11:41:01Z</time>
      </trkpt>
      <trkpt lat="43.62146" lon="7.05501">
        <ele>175</ele>
        <time>2009-06-19T11:41:02Z</time>
      </trkpt>
      <trkpt lat="43.62164" lon="7.05527">
        <ele>173</ele>
        <time>2009-06-19T11:41:11Z</time>
      </trkpt>
      <trkpt lat="43.62176" lon="7.05536">
        <ele>174</ele>
        <time>2009-06-19T11:41:12Z</time>
      </trkpt>
      <trkpt lat="43.62181" lon="7.05543">
        <ele>173</ele>
        <time>2009-06-19T11:41:13Z</time>
      </trkpt>
      <trkpt lat="43.62186" lon="7.05551">
        <ele>173</ele>
        <time>2009-06-19T11:41:16Z</time>
      </trkpt>
      <trkpt lat="43.62193" lon="7.05555">
        <ele>171</ele>
        <time>2009-06-19T11:41:17Z</time>
      </trkpt>
      <trkpt lat="43.62198" lon="7.05558">
        <ele>168</ele>
        <time>2009-06-19T11:41:18Z</time>
      </trkpt>
      <trkpt lat="43.62206" lon="7.05561">
        <ele>168</ele>
        <time>2009-06-19T11:41:21Z</time>
      </trkpt>
      <trkpt lat="43.62213" lon="7.05562">
        <ele>168</ele>
        <time>2009-06-19T11:41:22Z</time>
      </trkpt>
      <trkpt lat="43.62221" lon="7.05563">
        <ele>168</ele>
        <time>2009-06-19T11:41:25Z</time>
      </trkpt>
      <trkpt lat="43.62226" lon="7.05555">
        <ele>165</ele>
        <time>2009-06-19T11:41:26Z</time>
      </trkpt>
      <trkpt lat="43.62241" lon="7.05564">
        <ele>166</ele>
        <time>2009-06-19T11:41:35Z</time>
      </trkpt>
      <trkpt lat="43.62241" lon="7.05572">
        <ele>166</ele>
        <time>2009-06-19T11:41:36Z</time>
      </trkpt>
      <trkpt lat="43.62244" lon="7.05584">
        <ele>166</ele>
        <time>2009-06-19T11:41:40Z</time>
      </trkpt>
      <trkpt lat="43.62248" lon="7.05588">
        <ele>165</ele>
        <time>2009-06-19T11:41:45Z</time>
      </trkpt>
      <trkpt lat="43.62252" lon="7.05585">
        <ele>165</ele>
        <time>2009-06-19T11:41:49Z</time>
      </trkpt>
      <trkpt lat="43.62257" lon="7.05582">
        <ele>165</ele>
        <time>2009-06-19T11:41:56Z</time>
      </trkpt>
      <trkpt lat="43.62261" lon="7.05573">
        <ele>167</ele>
        <time>2009-06-19T11:42:01Z</time>
      </trkpt>
      <trkpt lat="43.62267" lon="7.05563">
        <ele>168</ele>
        <time>2009-06-19T11:42:11Z</time>
      </trkpt>
      <trkpt lat="43.62276" lon="7.05561">
        <ele>167</ele>
        <time>2009-06-19T11:42:13Z</time>
      </trkpt>
      <trkpt lat="43.6229" lon="7.05553">
        <ele>168</ele>
        <time>2009-06-19T11:42:17Z</time>
      </trkpt>
      <trkpt lat="43.62297" lon="7.05548">
        <ele>168</ele>
        <time>2009-06-19T11:42:21Z</time>
      </trkpt>
      <trkpt lat="43.62302" lon="7.05543">
        <ele>168</ele>
        <time>2009-06-19T11:42:25Z</time>
      </trkpt>
      <trkpt lat="43.62327" lon="7.05534">
        <ele>169</ele>
        <time>2009-06-19T11:42:35Z</time>
      </trkpt>
      <trkpt lat="43.62336" lon="7.05529">
        <ele>169</ele>
        <time>2009-06-19T11:42:39Z</time>
      </trkpt>
      <trkpt lat="43.62353" lon="7.05521">
        <ele>169</ele>
        <time>2009-06-19T11:42:47Z</time>
      </trkpt>
      <trkpt lat="43.62358" lon="7.05517">
        <ele>170</ele>
        <time>2009-06-19T11:42:48Z</time>
      </trkpt>
      <trkpt lat="43.62364" lon="7.0551">
        <ele>169</ele>
        <time>2009-06-19T11:42:51Z</time>
      </trkpt>
      <trkpt lat="43.62374" lon="7.05505">
        <ele>169</ele>
        <time>2009-06-19T11:42:54Z</time>
      </trkpt>
      <trkpt lat="43.62382" lon="7.05512">
        <ele>170</ele>
        <time>2009-06-19T11:42:58Z</time>
      </trkpt>
      <trkpt lat="43.62399" lon="7.05529">
        <ele>172</ele>
        <time>2009-06-19T11:43:08Z</time>
      </trkpt>
      <trkpt lat="43.62404" lon="7.05533">
        <ele>172</ele>
        <time>2009-06-19T11:43:09Z</time>
      </trkpt>
      <trkpt lat="43.62407" lon="7.05538">
        <ele>172</ele>
        <time>2009-06-19T11:43:10Z</time>
      </trkpt>
      <trkpt lat="43.62417" lon="7.05548">
        <ele>173</ele>
        <time>2009-06-19T11:43:13Z</time>
      </trkpt>
      <trkpt lat="43.62423" lon="7.05555">
        <ele>174</ele>
        <time>2009-06-19T11:43:15Z</time>
      </trkpt>
      <trkpt lat="43.62433" lon="7.05564">
        <ele>174</ele>
        <time>2009-06-19T11:43:18Z</time>
      </trkpt>
      <trkpt lat="43.62436" lon="7.05568">
        <ele>174</ele>
        <time>2009-06-19T11:43:19Z</time>
      </trkpt>
      <trkpt lat="43.62441" lon="7.05578">
        <ele>175</ele>
        <time>2009-06-19T11:43:23Z</time>
      </trkpt>
      <trkpt lat="43.62441" lon="7.05602">
        <ele>177</ele>
        <time>2009-06-19T11:43:32Z</time>
      </trkpt>
      <trkpt lat="43.62439" lon="7.05614">
        <ele>180</ele>
        <time>2009-06-19T11:43:36Z</time>
      </trkpt>
      <trkpt lat="43.62436" lon="7.05625">
        <ele>182</ele>
        <time>2009-06-19T11:43:40Z</time>
      </trkpt>
      <trkpt lat="43.62437" lon="7.05647">
        <ele>183</ele>
        <time>2009-06-19T11:43:46Z</time>
      </trkpt>
      <trkpt lat="43.62434" lon="7.05657">
        <ele>181</ele>
        <time>2009-06-19T11:43:49Z</time>
      </trkpt>
      <trkpt lat="43.62439" lon="7.05667">
        <ele>179</ele>
        <time>2009-06-19T11:43:53Z</time>
      </trkpt>
      <trkpt lat="43.62443" lon="7.05679">
        <ele>181</ele>
        <time>2009-06-19T11:43:57Z</time>
      </trkpt>
      <trkpt lat="43.62445" lon="7.05692">
        <ele>182</ele>
        <time>2009-06-19T11:44:01Z</time>
      </trkpt>
      <trkpt lat="43.62456" lon="7.05717">
        <ele>182</ele>
        <time>2009-06-19T11:44:10Z</time>
      </trkpt>
      <trkpt lat="43.62463" lon="7.05729">
        <ele>182</ele>
        <time>2009-06-19T11:44:14Z</time>
      </trkpt>
      <trkpt lat="43.62468" lon="7.05743">
        <ele>183</ele>
        <time>2009-06-19T11:44:18Z</time>
      </trkpt>
      <trkpt lat="43.62471" lon="7.05755">
        <ele>183</ele>
        <time>2009-06-19T11:44:22Z</time>
      </trkpt>
      <trkpt lat="43.62471" lon="7.05769">
        <ele>183</ele>
        <time>2009-06-19T11:44:26Z</time>
      </trkpt>
      <trkpt lat="43.62466" lon="7.05794">
        <ele>184</ele>
        <time>2009-06-19T11:44:35Z</time>
      </trkpt>
      <trkpt lat="43.6246" lon="7.05803">
        <ele>183</ele>
        <time>2009-06-19T11:44:39Z</time>
      </trkpt>
      <trkpt lat="43.6245" lon="7.05814">
        <ele>183</ele>
        <time>2009-06-19T11:44:44Z</time>
      </trkpt>
      <trkpt lat="43.62444" lon="7.05821">
        <ele>182</ele>
        <time>2009-06-19T11:44:47Z</time>
      </trkpt>
      <trkpt lat="43.62437" lon="7.0583">
        <ele>183</ele>
        <time>2009-06-19T11:44:51Z</time>
      </trkpt>
      <trkpt lat="43.6243" lon="7.05838">
        <ele>183</ele>
        <time>2009-06-19T11:44:55Z</time>
      </trkpt>
      <trkpt lat="43.62424" lon="7.05849">
        <ele>184</ele>
        <time>2009-06-19T11:44:59Z</time>
      </trkpt>
      <trkpt lat="43.6241" lon="7.0588">
        <ele>187</ele>
        <time>2009-06-19T11:45:08Z</time>
      </trkpt>
      <trkpt lat="43.62404" lon="7.05895">
        <ele>189</ele>
        <time>2009-06-19T11:45:12Z</time>
      </trkpt>
      <trkpt lat="43.62401" lon="7.05914">
        <ele>190</ele>
        <time>2009-06-19T11:45:16Z</time>
      </trkpt>
      <trkpt lat="43.62401" lon="7.05921">
        <ele>191</ele>
        <time>2009-06-19T11:45:17Z</time>
      </trkpt>
      <trkpt lat="43.624" lon="7.05935">
        <ele>191</ele>
        <time>2009-06-19T11:45:20Z</time>
      </trkpt>
      <trkpt lat="43.62401" lon="7.05942">
        <ele>191</ele>
        <time>2009-06-19T11:45:21Z</time>
      </trkpt>
      <trkpt lat="43.62401" lon="7.05958">
        <ele>191</ele>
        <time>2009-06-19T11:45:24Z</time>
      </trkpt>
      <trkpt lat="43.62404" lon="7.05962">
        <ele>192</ele>
        <time>2009-06-19T11:45:25Z</time>
      </trkpt>
      <trkpt lat="43.62427" lon="7.05996">
        <ele>193</ele>
        <time>2009-06-19T11:45:34Z</time>
      </trkpt>
      <trkpt lat="43.62436" lon="7.05997">
        <ele>192</ele>
        <time>2009-06-19T11:45:35Z</time>
      </trkpt>
      <trkpt lat="43.62442" lon="7.06001">
        <ele>191</ele>
        <time>2009-06-19T11:45:36Z</time>
      </trkpt>
      <trkpt lat="43.62454" lon="7.06009">
        <ele>191</ele>
        <time>2009-06-19T11:45:39Z</time>
      </trkpt>
      <trkpt lat="43.62456" lon="7.06022">
        <ele>191</ele>
        <time>2009-06-19T11:45:40Z</time>
      </trkpt>
      <trkpt lat="43.62462" lon="7.06091">
        <ele>193</ele>
        <time>2009-06-19T11:45:47Z</time>
      </trkpt>
      <trkpt lat="43.62458" lon="7.06098">
        <ele>194</ele>
        <time>2009-06-19T11:45:48Z</time>
      </trkpt>
      <trkpt lat="43.62461" lon="7.0612">
        <ele>194</ele>
        <time>2009-06-19T11:45:50Z</time>
      </trkpt>
      <trkpt lat="43.62458" lon="7.06132">
        <ele>195</ele>
        <time>2009-06-19T11:45:54Z</time>
      </trkpt>
      <trkpt lat="43.62464" lon="7.06134">
        <ele>195</ele>
        <time>2009-06-19T11:45:58Z</time>
      </trkpt>
      <trkpt lat="43.62469" lon="7.06138">
        <ele>195</ele>
        <time>2009-06-19T11:46:00Z</time>
      </trkpt>
    </trkseg>
  </trk>
</gpx>